Provisional Data: Susquehanna River near Danville, PA


Please select a monitoring station.
Please select start date.
Please select start date.

Toggle Unit: C/F Toggle Unit: C/F
Sample Time Temperature (C) Temperature (F) Specific Conductivity (mS/cm) pH   Turbidity (NTU+) DO (mg/L)
6/29/2021 12:00:00 AM 26.68 80.024 0 8.04 2.89 8.52
6/29/2021 12:15:00 AM 26.68 80.024 0 8.04 3.38 8.51
6/29/2021 12:30:00 AM 26.67 80.006 0 8.04 2.15 8.51
6/29/2021 12:45:00 AM 26.65 79.97 0 8.03 1.51 8.52
6/29/2021 1:00:00 AM 26.63 79.934 0 8.03 2.95 8.52
6/29/2021 1:15:00 AM 26.62 79.916 0.001 8 1.57 8.52
6/29/2021 1:30:00 AM 26.61 79.898 0 7.99 1.13 8.52
6/29/2021 1:45:00 AM 26.58 79.844 0 7.99 1.44 8.53
6/29/2021 2:00:00 AM 26.59 79.862 0.001 7.99 1.06 8.53
6/29/2021 2:15:00 AM 26.58 79.844 0 7.98 1.11 8.53
6/29/2021 2:30:00 AM 26.57 79.826 0.001 7.98 0.83 8.53
6/29/2021 2:45:00 AM 26.55 79.79 0.001 7.97 0.97 8.54
6/29/2021 3:00:00 AM 26.54 79.772 0.001 7.99 0.88 8.54
6/29/2021 3:15:00 AM 26.52 79.736 0.001 7.97 0.78 8.54
6/29/2021 3:30:00 AM 26.51 79.718 0.001 7.97 0.85 8.54
6/29/2021 3:45:00 AM 26.49 79.682 0.001 7.94 0.77 8.54
6/29/2021 4:00:00 AM 26.48 79.664 0.001 7.94 0.9 8.55
6/29/2021 4:15:00 AM 26.46 79.628 0.001 7.93 0.82 8.56
6/29/2021 4:30:00 AM 26.45 79.61 0.001 7.94 0.73 8.55
6/29/2021 4:45:00 AM 26.44 79.592 0.001 7.94 0.75 8.56
6/29/2021 5:00:00 AM 26.42 79.556 0.001 7.94 0.72 8.56
6/29/2021 5:15:00 AM 26.41 79.538 0.001 7.94 0.76 8.56
6/29/2021 5:30:00 AM 26.4 79.52 0.001 7.93 0.71 8.57
6/29/2021 5:45:00 AM 26.39 79.502 0.001 7.92 0.73 8.57
6/29/2021 6:00:00 AM 26.03 78.854 0.001 7.86 0.82 8.61
6/29/2021 6:15:00 AM 25.42 77.756 0.001 7.91 0.82 8.71
6/29/2021 6:30:00 AM 25.07 77.126 0.001 7.92 0.8 8.77
6/29/2021 6:45:00 AM 24.85 76.73 0.001 7.94 0.81 8.8
6/29/2021 7:00:00 AM 24.71 76.478 0.001 7.94 0.84 8.83
6/29/2021 7:15:00 AM 24.61 76.298 0.001 7.93 0.82 8.85
6/29/2021 7:30:00 AM 24.53 76.154 0.001 7.92 0.89 8.86
6/29/2021 7:45:00 AM 24.48 76.064 0.001 7.93 0.77 8.88
6/29/2021 8:00:00 AM 24.44 75.992 0.001 7.92 0.89 8.89
6/29/2021 8:15:00 AM 24.42 75.956 0.001 7.92 0.84 8.89
6/29/2021 8:30:00 AM 24.4 75.92 0.001 7.93 0.87 8.89
6/29/2021 8:45:00 AM 24.39 75.902 0.001 7.92 0.83 8.89
6/29/2021 9:00:00 AM 24.39 75.902 0.001 7.92 0.82 8.89
6/29/2021 9:15:00 AM 24.39 75.902 0.001 7.92 0.86 8.88
6/29/2021 9:30:00 AM 24.39 75.902 0.001 7.92 0.87 8.89
6/29/2021 9:45:00 AM 24.4 75.92 0.001 7.93 0.9 8.88
6/29/2021 10:00:00 AM 24.41 75.938 0.001 7.92 0.82 8.89
6/29/2021 10:15:00 AM 24.43 75.974 0.001 7.92 0.85 8.88
6/29/2021 10:30:00 AM 24.75 76.55 0.001 7.9 0.83 8.83
6/29/2021 10:45:00 AM 24.8 76.64 0.001 7.9 0.79 8.81
6/29/2021 11:00:00 AM 24.79 76.622 0.001 7.89 0.83 8.8
6/29/2021 11:15:00 AM 24.78 76.604 0.001 7.9 0.81 8.82
6/29/2021 11:30:00 AM 24.77 76.586 0.001 7.88 0.82 8.81
6/29/2021 11:45:00 AM 24.77 76.586 0.001 7.9 0.84 8.82
6/29/2021 12:00:00 PM 24.77 76.586 0.001 7.89 0.78 8.81
6/29/2021 12:15:00 PM 24.78 76.604 0.001 7.88 0.81 8.81
6/29/2021 12:30:00 PM 24.79 76.622 0.001 7.88 0.82 8.81
6/29/2021 12:45:00 PM 24.79 76.622 0.001 7.88 0.82 8.8
6/29/2021 1:00:00 PM 24.81 76.658 0.001 7.86 0.81 8.8
6/29/2021 1:15:00 PM 24.82 76.676 0.001 7.87 0.86 8.79
6/29/2021 1:30:00 PM 24.84 76.712 0.001 7.86 0.78 8.79
6/29/2021 1:45:00 PM 24.86 76.748 0.001 7.86 0.79 8.78
6/29/2021 2:00:00 PM 24.88 76.784 0.001 7.86 0.84 8.78
6/29/2021 2:15:00 PM 24.9 76.82 0.001 7.85 0.8 8.77
6/29/2021 2:30:00 PM 26.57 79.826 0.001 7.88 0.7 8.58
6/29/2021 2:45:00 PM 27.21 80.978 0.001 7.9 0.71 8.46
6/29/2021 3:00:00 PM 27.57 81.626 0.001 7.93 0.7 8.39
6/29/2021 3:15:00 PM 27.7 81.86 0.001 7.93 0.68 8.36
6/29/2021 3:30:00 PM 27.76 81.968 0.001 7.93 0.76 8.34
6/29/2021 3:45:00 PM 27.77 81.986 0.001 7.93 0.78 8.34
6/29/2021 4:00:00 PM 27.77 81.986 0.001 7.92 0.78 8.35
6/29/2021 4:15:00 PM 27.76 81.968 0.001 7.91 0.77 8.35
6/29/2021 4:30:00 PM 27.74 81.932 0.001 7.91 0.84 8.34
6/29/2021 4:45:00 PM 27.71 81.878 0.001 7.91 0.86 8.35
6/29/2021 5:00:00 PM 27.69 81.842 0.001 7.91 0.92 8.35
6/29/2021 5:15:00 PM 27.68 81.824 0.001 7.9 0.95 8.36
6/29/2021 5:30:00 PM 27.65 81.77 0.001 7.89 0.89 8.36
6/29/2021 5:45:00 PM 27.63 81.734 0.001 7.89 0.92 8.36
6/29/2021 6:00:00 PM 27.6 81.68 0.001 7.89 0.97 8.37
6/29/2021 6:15:00 PM 27.59 81.662 0.001 7.88 1.05 8.37
6/29/2021 6:30:00 PM 27.56 81.608 0.001 7.87 0.97 8.37
6/29/2021 6:45:00 PM 27.54 81.57201 0.001 7.86 1.05 8.38
6/29/2021 7:00:00 PM 27.53 81.554 0.001 7.85 1.03 8.38
6/29/2021 7:15:00 PM 27.51 81.518 0.001 7.84 1.07 8.38
6/29/2021 7:30:00 PM 27.49 81.482 0.001 7.83 1 8.38
6/29/2021 7:45:00 PM 27.48 81.464 0.001 7.82 1.07 8.38
6/29/2021 8:00:00 PM 27.46 81.42799 0.001 7.81 1 8.39
6/29/2021 8:15:00 PM 27.46 81.42799 0.001 7.79 1.05 8.39
6/29/2021 8:30:00 PM 27.45 81.41 0.001 7.79 1.02 8.39
6/29/2021 8:45:00 PM 27.43 81.374 0.001 7.77 1.03 8.4
6/29/2021 9:00:00 PM 27.42 81.356 0.001 7.75 1.04 8.39
6/29/2021 9:15:00 PM 27.4 81.32 0.001 7.75 1.07 8.39
6/29/2021 9:30:00 PM 27.39 81.302 0.001 7.73 1.09 8.4
6/29/2021 9:45:00 PM 27.38 81.284 0.001 7.73 1.02 8.4
6/29/2021 10:00:00 PM 27.36 81.248 0.001 7.73 1.11 8.41
6/29/2021 10:15:00 PM 27.35 81.23 0.001 7.72 1.1 8.4
6/29/2021 10:30:00 PM 27.33 81.194 0.001 7.71 1.14 8.42
6/29/2021 10:45:00 PM 27.31 81.158 0.001 7.72 1.11 8.41
6/29/2021 11:00:00 PM 27.3 81.14 0.001 7.71 1.17 8.42
6/29/2021 11:15:00 PM 27.29 81.122 0.001 7.7 1.2 8.42
6/29/2021 11:30:00 PM 27.27 81.086 0.001 7.7 1.09 8.42
6/29/2021 11:45:00 PM 27.26 81.068 0.001 7.69 1.13 8.42
6/30/2021 12:00:00 AM 27.25 81.05 0.001 7.69 1.13 8.42
6/30/2021 12:15:00 AM 27.24 81.032 0.001 7.69 1.12 8.42
6/30/2021 12:30:00 AM 27.22 80.996 0.001 7.69 1.13 8.44
6/30/2021 12:45:00 AM 27.2 80.96 0.001 7.68 1.15 8.43
6/30/2021 1:00:00 AM 27.19 80.942 0.001 7.67 1.13 8.43
6/30/2021 1:15:00 AM 27.17 80.906 0.001 7.66 1.18 8.43
6/30/2021 1:30:00 AM 27.14 80.852 0.001 7.66 1.14 8.43
6/30/2021 1:45:00 AM 27.14 80.852 0.001 7.67 1.18 8.43
6/30/2021 2:00:00 AM 27.11 80.798 0.001 7.67 1.18 8.44
6/30/2021 2:15:00 AM 27.1 80.78 0.001 7.67 1.13 8.43
6/30/2021 2:30:00 AM 27.08 80.744 0.001 7.66 1.21 8.44
6/30/2021 2:45:00 AM 27.07 80.726 0.001 7.67 1.16 8.43
6/30/2021 3:00:00 AM 27.05 80.69 0.001 7.66 1.17 8.44
6/30/2021 3:15:00 AM 27.03 80.654 0.001 7.66 1.17 8.44
6/30/2021 3:30:00 AM 27.01 80.618 0.001 7.67 1.17 8.45
6/30/2021 3:45:00 AM 26.99 80.582 0.001 7.66 1.22 8.45
6/30/2021 4:00:00 AM 26.97 80.546 0.001 7.66 1.15 8.45
6/30/2021 4:15:00 AM 26.95 80.51 0.001 7.66 1.22 8.45
6/30/2021 4:30:00 AM 26.94 80.492 0.001 7.65 1.25 8.46
6/30/2021 4:45:00 AM 26.92 80.456 0.001 7.65 1.21 8.45
6/30/2021 5:00:00 AM 26.9 80.42 0.001 7.64 1.22 8.46
6/30/2021 5:15:00 AM 26.88 80.384 0.001 7.64 1.22 8.47
6/30/2021 5:30:00 AM 26.87 80.366 0.001 7.64 1.29 8.47
6/30/2021 5:45:00 AM 26.87 80.366 0.001 7.64 1.3 8.46
6/30/2021 6:00:00 AM 26.54 79.772 0.001 7.61 1.27 8.48
6/30/2021 6:15:00 AM 26.05 78.89 0.001 7.62 1.41 8.57
6/30/2021 6:30:00 AM 25.77 78.386 0.001 7.63 1.49 8.62
6/30/2021 6:45:00 AM 25.58 78.044 0.001 7.64 1.64 8.65
6/30/2021 7:00:00 AM 25.59 78.062 0.001 7.67 1.71 8.65
6/30/2021 7:15:00 AM 25.58 78.044 0.001 7.65 1.76 8.65
6/30/2021 7:30:00 AM 25.5 77.9 0.001 7.65 1.81 8.67
6/30/2021 7:45:00 AM 25.45 77.81 0.001 7.65 1.83 8.67
6/30/2021 8:00:00 AM 25.42 77.756 0.001 7.65 1.79 8.67
6/30/2021 8:15:00 AM 25.4 77.72 0.001 7.65 1.79 8.68
6/30/2021 8:30:00 AM 25.38 77.684 0.001 7.65 1.73 8.68
6/30/2021 8:45:00 AM 25.36 77.648 0.001 7.64 1.88 8.68
6/30/2021 9:00:00 AM 25.35 77.63 0.001 7.64 1.88 8.69
6/30/2021 9:15:00 AM 25.34 77.612 0.001 7.64 1.85 8.68
6/30/2021 9:30:00 AM 25.33 77.594 0.001 7.64 1.83 8.68
6/30/2021 9:45:00 AM 25.33 77.594 0.001 7.63 1.87 8.69
6/30/2021 10:00:00 AM 25.33 77.594 0.001 7.62 1.87 8.68
6/30/2021 10:15:00 AM 25.34 77.612 0.001 7.62 1.89 8.68
6/30/2021 10:30:00 AM 25.35 77.63 0.001 7.62 1.92 8.67
6/30/2021 10:45:00 AM 25.36 77.648 0.001 7.61 1.9 8.67
6/30/2021 11:00:00 AM 25.38 77.684 0.001 7.62 1.97 8.67
6/30/2021 11:15:00 AM 25.4 77.72 0.001 7.61 2.05 8.67
6/30/2021 11:30:00 AM 25.41 77.738 0.001 7.61 1.96 8.66
6/30/2021 11:45:00 AM 25.42 77.756 0.001 7.61 2.03 8.65
6/30/2021 12:00:00 PM 25.43 77.774 0.001 7.61 2.15 8.66
6/30/2021 12:15:00 PM 25.44 77.792 0.001 7.6 2.06 8.65
6/30/2021 12:30:00 PM 25.44 77.792 0.001 7.6 2.07 8.65
6/30/2021 12:45:00 PM 25.45 77.81 0.001 7.6 2.09 8.64
6/30/2021 1:00:00 PM 25.46 77.828 0.001 7.6 2.12 8.64
6/30/2021 1:15:00 PM 25.47 77.846 0.001 7.6 2.12 8.63
6/30/2021 1:30:00 PM 25.48 77.864 0.001 7.59 2.13 8.63
6/30/2021 1:45:00 PM 25.49 77.882 0.001 7.58 2.17 8.62
6/30/2021 2:00:00 PM 25.51 77.918 0.001 7.58 2.17 8.62
6/30/2021 2:15:00 PM 25.53 77.954 0.001 7.58 2.15 8.61
6/30/2021 2:30:00 PM 26.13 79.034 0.001 7.57 5 8.58
6/30/2021 2:45:00 PM 26.66 79.988 0.001 7.55 2.5 8.46
6/30/2021 3:00:00 PM 26.56 79.808 0.001 7.53 2.17 8.46
6/30/2021 3:15:00 PM 26.47 79.646 0.001 7.53 2.14 8.48
6/30/2021 3:30:00 PM 26.43 79.574 0.001 7.54 2.14 8.49
6/30/2021 3:45:00 PM 26.41 79.538 0.001 7.55 2.23 8.51
6/30/2021 4:00:00 PM 26.4 79.52 0.001 7.54 2.46 8.51
6/30/2021 4:15:00 PM 26.39 79.502 0.001 7.55 2.16 8.5
6/30/2021 4:30:00 PM 26.38 79.484 0.001 7.55 2.14 8.5
6/30/2021 4:45:00 PM 26.38 79.484 0.001 7.55 2.17 8.5
6/30/2021 5:00:00 PM 26.38 79.484 0.001 7.56 2.23 8.5
6/30/2021 5:15:00 PM 26.38 79.484 0.001 7.55 2.18 8.5
6/30/2021 5:30:00 PM 26.39 79.502 0.001 7.56 2.17 8.51
6/30/2021 5:45:00 PM 26.39 79.502 0.001 7.55 2.16 8.51
6/30/2021 6:00:00 PM 26.38 79.484 0.001 7.56 2.16 8.52
6/30/2021 6:15:00 PM 26.37 79.466 0.001 7.55 2.19 8.51
6/30/2021 6:30:00 PM 26.37 79.466 0.001 7.55 2.11 8.51
6/30/2021 6:45:00 PM 26.36 79.448 0.001 7.54 2.12 8.51
6/30/2021 7:00:00 PM 26.35 79.43 0.001 7.55 2.09 8.52
6/30/2021 7:15:00 PM 26.36 79.448 0.001 7.55 2.16 8.51
6/30/2021 7:30:00 PM 26.34 79.412 0.001 7.55 2.21 8.52
6/30/2021 7:45:00 PM 26.35 79.43 0.001 7.54 2.12 8.52
6/30/2021 8:00:00 PM 26.35 79.43 0.001 7.53 2.07 8.52
6/30/2021 8:15:00 PM 26.35 79.43 0.001 7.54 2.15 8.51
6/30/2021 8:30:00 PM 26.34 79.412 0.001 7.54 2.19 8.51
6/30/2021 8:45:00 PM 26.34 79.412 0.001 7.53 2.12 8.51
6/30/2021 9:00:00 PM 26.34 79.412 0.001 7.53 2.18 8.51
6/30/2021 9:15:00 PM 26.33 79.394 0.001 7.52 2.17 8.51
6/30/2021 9:30:00 PM 26.32 79.376 0.001 7.53 2.15 8.52
6/30/2021 9:45:00 PM 26.31 79.358 0.001 7.53 2.13 8.52
6/30/2021 10:00:00 PM 26.31 79.358 0.001 7.53 2.11 8.51
6/30/2021 10:15:00 PM 26.31 79.358 0.001 7.53 2.15 8.52
6/30/2021 10:30:00 PM 26.3 79.34 0.001 7.53 2.06 8.52
6/30/2021 10:45:00 PM 26.28 79.304 0.001 7.53 2.09 8.52
6/30/2021 11:00:00 PM 26.28 79.304 0.001 7.53 2.19 8.52
6/30/2021 11:15:00 PM 26.27 79.286 0.001 7.53 2.13 8.52
6/30/2021 11:30:00 PM 26.26 79.268 0.001 7.53 2.05 8.52
6/30/2021 11:45:00 PM 26.24 79.232 0.001 7.53 2.16 8.52
7/1/2021 12:00:00 AM 26.24 79.232 0.001 7.53 2.11 8.52
7/1/2021 12:15:00 AM 26.22 79.196 0.001 7.53 2.1 8.52
7/1/2021 12:30:00 AM 26.19 79.142 0.001 7.52 2.07 8.53
7/1/2021 12:45:00 AM 26.16 79.088 0.001 7.52 2.1 8.53
7/1/2021 1:00:00 AM 26.19 79.142 0.001 7.54 2.11 8.52
7/1/2021 1:15:00 AM 26.18 79.124 0.001 7.53 2.12 8.52
7/1/2021 1:30:00 AM 26.17 79.106 0.001 7.51 2.12 8.53
7/1/2021 1:45:00 AM 26.15 79.07 0.001 7.53 2.09 8.53
7/1/2021 2:00:00 AM 26.14 79.052 0.001 7.51 2.16 8.53
7/1/2021 2:15:00 AM 26.12 79.016 0.001 7.51 2.1 8.53
7/1/2021 2:30:00 AM 26.13 79.034 0.001 7.51 2.11 8.53
7/1/2021 2:45:00 AM 26.15 79.07 0.001 7.51 2.12 8.53
7/1/2021 3:00:00 AM 26.16 79.088 0.001 7.5 2.15 8.53
7/1/2021 3:15:00 AM 26.18 79.124 0.001 7.5 2.19 8.52
7/1/2021 3:30:00 AM 26.55 79.79 0.001 7.51 2.73 8.5
7/1/2021 3:45:00 AM 26.95 80.51 0.001 7.5 2.3 8.43
7/1/2021 4:00:00 AM 27.11 80.798 0.001 7.49 2.29 8.39
7/1/2021 4:15:00 AM 27.16 80.888 0.001 7.46 2.24 8.38
7/1/2021 4:30:00 AM 27.24 81.032 0.001 7.45 2.27 8.35
7/1/2021 4:45:00 AM 26.53 79.754 0.001 7.4 2.26 8.43
7/1/2021 5:00:00 AM 26.16 79.088 0.001 7.42 2.24 8.5
7/1/2021 5:15:00 AM 25.95 78.71 0.001 7.45 2.25 8.53
7/1/2021 5:30:00 AM 25.82 78.476 0.001 7.47 2.24 8.56
7/1/2021 5:45:00 AM 25.72 78.296 0.001 7.47 2.26 8.58
7/1/2021 6:00:00 AM 25.63 78.134 0.001 7.48 2.22 8.6
7/1/2021 6:15:00 AM 25.56 78.008 0.001 7.48 2.2 8.61
7/1/2021 6:30:00 AM 25.5 77.9 0.001 7.48 2.15 8.62
7/1/2021 6:45:00 AM 25.45 77.81 0.001 7.48 2.21 8.62
7/1/2021 7:00:00 AM 25.4 77.72 0.001 7.48 2.18 8.63
7/1/2021 7:15:00 AM 25.53 77.954 0.001 7.49 2.14 8.61
7/1/2021 7:30:00 AM 25.48 77.864 0.001 7.48 2.13 8.62
7/1/2021 7:45:00 AM 25.47 77.846 0.001 7.48 2.13 8.62
7/1/2021 8:00:00 AM 25.48 77.864 0.001 7.48 2.12 8.62
7/1/2021 8:15:00 AM 25.48 77.864 0.001 7.48 2.13 8.62
7/1/2021 8:30:00 AM 25.47 77.846 0.001 7.48 2.08 8.62
7/1/2021 8:45:00 AM 25.45 77.81 0.001 7.47 2.13 8.62
7/1/2021 9:00:00 AM 25.43 77.774 0.001 7.47 2.11 8.63
7/1/2021 9:15:00 AM 25.4 77.72 0.001 7.46 2.11 8.63
7/1/2021 9:30:00 AM 25.36 77.648 0.001 7.47 2.12 8.64
7/1/2021 9:45:00 AM 25.33 77.594 0.001 7.47 2.12 8.64
7/1/2021 10:00:00 AM 25.3 77.54 0.001 7.47 2.11 8.64
7/1/2021 10:15:00 AM 25.27 77.486 0.001 7.47 2.11 8.65
7/1/2021 10:30:00 AM 25.25 77.45 0.001 7.47 2.09 8.65
7/1/2021 10:45:00 AM 25.23 77.414 0.001 7.47 2.1 8.65
7/1/2021 11:00:00 AM 25.21 77.378 0.001 7.46 2.12 8.66
7/1/2021 11:15:00 AM 25.19 77.342 0.001 7.46 2.09 8.66
7/1/2021 11:30:00 AM 25.17 77.306 0.001 7.46 2.06 8.66
7/1/2021 11:45:00 AM 25.16 77.288 0.001 7.46 2.07 8.67
7/1/2021 12:00:00 PM 25.14 77.252 0.001 7.46 2.08 8.67
7/1/2021 12:15:00 PM 25.12 77.216 0.001 7.46 2.08 8.67
7/1/2021 12:30:00 PM 25.11 77.198 0.001 7.46 2.06 8.67
7/1/2021 12:45:00 PM 25.09 77.162 0.001 7.46 2.08 8.67
7/1/2021 1:00:00 PM 25.08 77.144 0.001 7.45 2.1 8.67
7/1/2021 1:15:00 PM 25.07 77.126 0.001 7.45 2.06 8.67
7/1/2021 1:30:00 PM 25.08 77.144 0.001 7.44 2.08 8.67
7/1/2021 1:45:00 PM 25.13 77.234 0.001 7.45 2.08 8.66
7/1/2021 2:00:00 PM 25.2 77.36 0.001 7.45 2.08 8.66
7/1/2021 2:15:00 PM 25.35 77.63 0.001 7.45 1.99 8.62
7/1/2021 2:30:00 PM 27.11 80.798 0.38 8.28 0.47 7.24
7/1/2021 2:45:00 PM 26.6 79.88 0 8.2 5.98 8.41
7/1/2021 3:00:00 PM 26.56 79.808 0 8.21 5.55 8.43
7/1/2021 3:15:00 PM 26.57 79.826 0 8.2 16.69 8.43
7/1/2021 3:30:00 PM 26.61 79.898 0 8.2 8.55 8.42
7/1/2021 3:45:00 PM 26.62 79.916 0 8.21 9.15 8.42
7/1/2021 4:00:00 PM 26.63 79.934 0 8.19 10 8.41
7/1/2021 4:15:00 PM 26.62 79.916 0 8.19 8.03 8.42
7/1/2021 4:30:00 PM 26.61 79.898 0 8.18 8.32 8.42
7/1/2021 4:45:00 PM 26.6 79.88 0 8.18 7.55 8.42
7/1/2021 5:00:00 PM 26.6 79.88 0.001 8.17 8.88 8.41
7/1/2021 5:15:00 PM 26.59 79.862 0 8.16 7.51 8.42
7/1/2021 5:30:00 PM 26.58 79.844 0 8.16 7.97 8.42
7/1/2021 5:45:00 PM 26.58 79.844 0 8.15 7.5 8.42
7/1/2021 6:00:00 PM 26.57 79.826 0 8.14 6.72 8.42
7/1/2021 6:15:00 PM 26.59 79.862 0.001 8.14 7.49 8.42
7/1/2021 6:30:00 PM 26.59 79.862 0.001 8.13 7.79 8.42
7/1/2021 6:45:00 PM 26.54 79.772 0 8.12 7.5 8.43
7/1/2021 7:00:00 PM 26.53 79.754 0.001 8.12 6.81 8.43
7/1/2021 7:15:00 PM 26.52 79.736 0.001 8.11 7.43 8.43
7/1/2021 7:30:00 PM 26.52 79.736 0.001 8.11 7.02 8.43
7/1/2021 7:45:00 PM 26.52 79.736 0.001 8.1 8.65 8.43
7/1/2021 8:00:00 PM 26.51 79.718 0.001 8.09 7.82 8.43
7/1/2021 8:15:00 PM 26.51 79.718 0.001 8.08 8.3 8.43
7/1/2021 8:30:00 PM 26.48 79.664 0.001 8.07 8.46 8.43
7/1/2021 8:45:00 PM 26.48 79.664 0.001 8.06 8.4 8.44
7/1/2021 9:00:00 PM 26.45 79.61 0.001 8.05 9.19 8.44
7/1/2021 9:15:00 PM 26.45 79.61 0.001 8.04 9.45 8.44
7/1/2021 9:30:00 PM 26.44 79.592 0.001 8.02 10.52 8.44
7/1/2021 9:45:00 PM 26.44 79.592 0.001 8.01 10.09 8.44
7/1/2021 10:00:00 PM 26.4 79.52 0.001 8.01 10.45 8.45
7/1/2021 10:15:00 PM 26.41 79.538 0.001 8.01 9.73 8.44
7/1/2021 10:30:00 PM 26.36 79.448 0.001 8 9.48 8.45
7/1/2021 10:45:00 PM 26.37 79.466 0.001 7.99 11.39 8.45
7/1/2021 11:00:00 PM 26.35 79.43 0.001 7.97 9.6 8.46
7/1/2021 11:15:00 PM 26.35 79.43 0.001 7.98 11.87 8.45
7/1/2021 11:30:00 PM 26.33 79.394 0.001 7.96 10.63 8.46
7/1/2021 11:45:00 PM 26.3 79.34 0.001 7.96 10.36 8.46
7/2/2021 12:00:00 AM 26.26 79.268 0.001 7.95 11.48 8.47
7/2/2021 12:15:00 AM 26.24 79.232 0.001 7.94 10.23 8.47
7/2/2021 12:30:00 AM 26.23 79.214 0.001 7.94 10.98 8.47
7/2/2021 12:45:00 AM 26.21 79.17799 0.001 7.93 13.09 8.47
7/2/2021 1:00:00 AM 26.25 79.25 0.001 7.92 11.66 8.46
7/2/2021 1:15:00 AM 26.23 79.214 0.001 7.9 11.57 8.46
7/2/2021 1:30:00 AM 26.19 79.142 0.001 7.9 13.21 8.47
7/2/2021 1:45:00 AM 26.15 79.07 0.001 7.9 12.57 8.47
7/2/2021 2:00:00 AM 26.13 79.034 0.001 7.9 14.17 8.47
7/2/2021 2:15:00 AM 26.1 78.98 0.001 7.89 13.38 8.48
7/2/2021 2:30:00 AM 26.09 78.962 0.001 7.89 13.73 8.48
7/2/2021 2:45:00 AM 26.07 78.926 0.001 7.88 14.11 8.48
7/2/2021 3:00:00 AM 26.07 78.926 0.001 7.87 13.83 8.49
7/2/2021 3:15:00 AM 26.03 78.854 0.001 7.86 14.48 8.49
7/2/2021 3:30:00 AM 26.02 78.836 0.001 7.85 15.32 8.49
7/2/2021 3:45:00 AM 26.08 78.944 0.001 7.85 15.16 8.48
7/2/2021 4:00:00 AM 25.97 78.746 0.001 7.83 15.04 8.5
7/2/2021 4:15:00 AM 25.96 78.728 0.001 7.83 15.37 8.5
7/2/2021 4:30:00 AM 25.92 78.656 0.001 7.82 14.81 8.51
7/2/2021 4:45:00 AM 25.89 78.602 0.001 7.81 15.4 8.51
7/2/2021 5:00:00 AM 25.86 78.548 0.001 7.78 15.32 8.52
7/2/2021 5:15:00 AM 25.85 78.53 0.001 7.79 15.65 8.52
7/2/2021 5:30:00 AM 25.85 78.53 0 7.8 16.12 8.52
7/2/2021 5:45:00 AM 25.83 78.494 0 7.79 17.87 8.53
7/2/2021 6:00:00 AM 25.53 77.954 0.001 7.64 1.85 8.55
7/2/2021 6:15:00 AM 24.9 76.82 0.001 7.66 1.87 8.65
7/2/2021 6:30:00 AM 24.56 76.208 0.001 7.71 1.89 8.73
7/2/2021 6:45:00 AM 24.37 75.866 0.001 7.73 1.91 8.76
7/2/2021 7:00:00 AM 24.28 75.704 0.001 7.73 1.92 8.77
7/2/2021 7:15:00 AM 24.17 75.506 0.001 7.71 1.94 8.79
7/2/2021 7:30:00 AM 24.1 75.38 0.001 7.72 1.93 8.8
7/2/2021 7:45:00 AM 24.11 75.398 0.001 7.73 1.89 8.8
7/2/2021 8:00:00 AM 24.16 75.488 0.001 7.73 1.89 8.79
7/2/2021 8:15:00 AM 24.21 75.578 0.001 7.69 1.96 8.78
7/2/2021 8:30:00 AM 24.26 75.668 0.001 7.7 1.89 8.77
7/2/2021 8:45:00 AM 24.28 75.704 0.001 7.69 1.91 8.77
7/2/2021 9:00:00 AM 24.25 75.65 0.001 7.67 1.95 8.77
7/2/2021 9:15:00 AM 24.2 75.56 0.001 7.66 1.94 8.78
7/2/2021 9:30:00 AM 24.14 75.452 0.001 7.66 1.91 8.8
7/2/2021 9:45:00 AM 24.08 75.344 0.001 7.65 1.95 8.81
7/2/2021 10:00:00 AM 24.03 75.254 0.001 7.64 1.94 8.81
7/2/2021 10:15:00 AM 23.98 75.164 0.001 7.64 1.95 8.82
7/2/2021 10:30:00 AM 23.96 75.128 0.001 7.65 1.94 8.83
7/2/2021 10:45:00 AM 23.93 75.074 0.001 7.64 1.94 8.84
7/2/2021 11:00:00 AM 23.92 75.056 0.001 7.64 1.96 8.84
7/2/2021 11:15:00 AM 23.91 75.038 0.001 7.64 1.93 8.84
7/2/2021 11:30:00 AM 23.91 75.038 0.001 7.63 1.95 8.84
7/2/2021 11:45:00 AM 23.9 75.02 0.001 7.63 1.94 8.84
7/2/2021 12:00:00 PM 23.89 75.002 0.001 7.62 1.94 8.84
7/2/2021 12:15:00 PM 23.89 75.002 0.001 7.62 1.97 8.84
7/2/2021 12:30:00 PM 23.89 75.002 0.001 7.61 1.93 8.84
7/2/2021 12:45:00 PM 23.89 75.002 0.001 7.61 1.96 8.84
7/2/2021 1:00:00 PM 23.88 74.984 0.001 7.61 1.96 8.84
7/2/2021 1:15:00 PM 23.88 74.984 0.001 7.61 1.96 8.84
7/2/2021 1:30:00 PM 23.87 74.966 0.001 7.61 1.95 8.84
7/2/2021 1:45:00 PM 23.86 74.948 0.001 7.6 1.95 8.84
7/2/2021 2:00:00 PM 23.85 74.93 0.001 7.6 1.93 8.84
7/2/2021 2:15:00 PM 23.85 74.93 0.001 7.6 1.95 8.84
7/2/2021 2:30:00 PM 26.8 80.24 0.378 8.4 0.57 8.38
7/2/2021 2:45:00 PM 26.85 80.33 0.376 8.39 0.58 8.39
7/2/2021 3:00:00 PM 26.63 79.934 0.004 8.33 230.9 8.32
7/2/2021 3:15:00 PM 26.87 80.366 0.161 8.39 183.73 8.27
7/2/2021 3:30:00 PM 26.92 80.456 0.374 8.4 0.44 8.28
7/2/2021 3:45:00 PM 26.93 80.474 0.375 8.34 0.46 8.29
7/2/2021 4:00:00 PM 26.93 80.474 0.375 8.32 0.42 8.17
7/2/2021 4:15:00 PM 26.91 80.438 0.375 8.31 0.42 8.08
7/2/2021 4:30:00 PM 26.93 80.474 0.375 8.3 0.4 8.03
7/2/2021 4:45:00 PM 26.94 80.492 0.375 8.3 0.35 7.97
7/2/2021 5:00:00 PM 26.91 80.438 0.375 8.3 0.36 7.92
7/2/2021 5:15:00 PM 26.93 80.474 0.375 8.3 0.38 7.89
7/2/2021 5:30:00 PM 26.93 80.474 0.375 8.29 0.37 7.83
7/2/2021 5:45:00 PM 26.92 80.456 0.375 8.29 0.35 7.78
7/2/2021 6:00:00 PM 26.91 80.438 0.375 8.28 0.29 7.73
7/2/2021 6:15:00 PM 26.92 80.456 0.375 8.27 0.32 7.68
7/2/2021 6:30:00 PM 26.9 80.42 0.375 8.26 0.29 7.63
7/2/2021 6:45:00 PM 26.9 80.42 0.376 8.26 0.28 7.57
7/2/2021 7:00:00 PM 26.88 80.384 0.376 8.25 0.3 7.53
7/2/2021 7:15:00 PM 26.88 80.384 0.376 8.24 0.28 7.47
7/2/2021 7:30:00 PM 26.86 80.348 0.376 8.24 0.33 7.43
7/2/2021 7:45:00 PM 26.88 80.384 0.376 8.23 0.27 7.38
7/2/2021 8:00:00 PM 26.86 80.348 0.376 8.22 0.28 7.34
7/2/2021 8:15:00 PM 26.85 80.33 0.376 8.21 0.28 7.3
7/2/2021 8:30:00 PM 26.84 80.312 0.376 8.2 0.26 7.26
7/2/2021 8:45:00 PM 26.83 80.294 0.376 8.2 0.24 7.21
7/2/2021 9:00:00 PM 26.82 80.276 0.376 8.19 0.27 7.18
7/2/2021 9:15:00 PM 26.81 80.258 0.376 8.17 0.23 7.11
7/2/2021 9:30:00 PM 26.8 80.24 0.376 8.18 0.28 7.08
7/2/2021 9:45:00 PM 26.8 80.24 0.376 8.17 0.29 7.04
7/2/2021 10:00:00 PM 26.78 80.204 0.376 8.16 0.25 7.01
7/2/2021 10:15:00 PM 26.79 80.222 0.376 8.15 0.25 6.93
7/2/2021 10:30:00 PM 26.77 80.186 0.376 8.14 0.24 6.9
7/2/2021 10:45:00 PM 26.74 80.132 0.376 8.13 0.23 6.87
7/2/2021 11:00:00 PM 26.73 80.114 0.376 8.14 0.22 6.83
7/2/2021 11:15:00 PM 26.73 80.114 0.376 8.12 0.25 6.78
7/2/2021 11:30:00 PM 26.71 80.078 0.376 8.11 0.23 6.74
7/2/2021 11:45:00 PM 26.7 80.06 0.376 8.11 0.23 6.68
7/3/2021 12:00:00 AM 26.7 80.06 0.376 8.1 0.27 6.64
7/3/2021 12:15:00 AM 26.68 80.024 0.376 8.1 0.23 6.62
7/3/2021 12:30:00 AM 26.67 80.006 0.377 8.09 0.27 6.56
7/3/2021 12:45:00 AM 26.67 80.006 0.377 8.08 0.27 6.51
7/3/2021 1:00:00 AM 26.66 79.988 0.376 8.08 0.27 6.47
7/3/2021 1:15:00 AM 26.65 79.97 0.377 8.06 0.23 6.42
7/3/2021 1:30:00 AM 26.62 79.916 0.377 8.07 0.24 6.4
7/3/2021 1:45:00 AM 26.62 79.916 0.377 8.06 0.23 6.33
7/3/2021 2:00:00 AM 26.61 79.898 0.377 8.05 0.23 6.3
7/3/2021 2:15:00 AM 26.6 79.88 0.377 8.04 0.25 6.24
7/3/2021 2:30:00 AM 26.59 79.862 0.377 8.04 0.27 6.21
7/3/2021 2:45:00 AM 26.58 79.844 0.377 8.04 0.26 6.17
7/3/2021 3:00:00 AM 26.57 79.826 0.377 8.03 0.25 6.11
7/3/2021 3:15:00 AM 26.56 79.808 0.377 8.02 0.26 6.06
7/3/2021 3:30:00 AM 26.54 79.772 0.377 8.02 0.25 6.02
7/3/2021 3:45:00 AM 26.53 79.754 0.377 8.01 0.26 5.98
7/3/2021 4:00:00 AM 26.52 79.736 0.377 8 0.26 5.94
7/3/2021 4:15:00 AM 26.51 79.718 0.377 8 0.25 5.89
7/3/2021 4:30:00 AM 26.5 79.7 0.377 8 0.26 5.86
7/3/2021 4:45:00 AM 26.49 79.682 0.377 7.99 0.27 5.81
7/3/2021 5:00:00 AM 26.49 79.682 0.377 7.98 0.28 5.78
7/3/2021 5:15:00 AM 26.47 79.646 0.377 7.98 0.21 5.73
7/3/2021 5:30:00 AM 26.46 79.628 0.377 7.98 0.26 5.71
7/3/2021 5:45:00 AM 25.34 77.612 0 7.76 14.66 8.55
7/3/2021 6:00:00 AM 24.75 76.55 0 7.73 0.84 8.65
7/3/2021 6:15:00 AM 23.82 74.876 0 7.76 0.76 8.83
7/3/2021 6:30:00 AM 23.32 73.976 0 7.82 0.75 8.92
7/3/2021 6:45:00 AM 23.05 73.49 0 7.8 0.78 8.97
7/3/2021 7:00:00 AM 22.92 73.256 0 7.78 0.75 9
7/3/2021 7:15:00 AM 22.84 73.112 0 7.8 0.76 9.02
7/3/2021 7:30:00 AM 22.8 73.04 0 7.78 0.77 9.03
7/3/2021 7:45:00 AM 22.79 73.022 0 7.8 0.8 9.03
7/3/2021 8:00:00 AM 22.8 73.04 0 7.79 0.78 9.03
7/3/2021 8:15:00 AM 22.87 73.166 0 7.79 0.79 9.02
7/3/2021 8:30:00 AM 22.94 73.292 0 7.83 0.81 9
7/3/2021 8:45:00 AM 22.92 73.256 0 7.78 0.76 9.01
7/3/2021 9:00:00 AM 22.93 73.274 0 7.82 0.79 9.01
7/3/2021 9:15:00 AM 22.96 73.328 0 7.79 0.78 9
7/3/2021 9:30:00 AM 23.18 73.724 0 7.79 0.78 8.97
7/3/2021 9:45:00 AM 23.52 74.336 0 7.76 0.76 8.92
7/3/2021 10:00:00 AM 23.76 74.768 0 7.74 0.78 8.87
7/3/2021 10:15:00 AM 23.91 75.038 0 7.74 0.77 8.85
7/3/2021 10:30:00 AM 23.98 75.164 0 7.72 0.79 8.84
7/3/2021 10:45:00 AM 24.04 75.272 0 7.73 4.93 8.83
7/3/2021 11:00:00 AM 24.07 75.326 0 7.74 13.62 8.82
7/3/2021 11:15:00 AM 24.14 75.452 0 7.74 40.78 8.81
7/3/2021 11:30:00 AM 24.26 75.668 0 7.74 99.79 8.78
7/3/2021 11:45:00 AM 24.42 75.956 0.013 7.86 249.16 8.72
7/3/2021 12:00:00 PM 24.51 76.118 0.146 8.14 185.09 8.7
7/3/2021 12:15:00 PM 24.56 76.208 0.366 8.64 0.46 8.68
7/3/2021 12:30:00 PM 24.61 76.298 0.366 8.12 0.52 7.64
7/3/2021 12:45:00 PM 24.69 76.442 0.364 8.13 0.58 7.52
7/3/2021 1:00:00 PM 24.75 76.55 0.363 8.16 0.56 7.66
7/3/2021 1:15:00 PM 24.77 76.586 0.363 8.17 0.59 7.73
7/3/2021 1:30:00 PM 24.77 76.586 0.362 8.18 0.57 7.8
7/3/2021 1:45:00 PM 24.76 76.568 0.362 8.18 0.51 7.82
7/3/2021 2:00:00 PM 24.76 76.568 0.361 8.2 0.62 7.88
7/3/2021 2:15:00 PM 24.7 76.46 0.361 8.21 0.52 7.89
7/3/2021 2:30:00 PM 24.72 76.496 0.36 8.2 0.55 7.88
7/3/2021 2:45:00 PM 24.75 76.55 0.36 8.17 0.6 7.9
7/3/2021 3:00:00 PM 24.77 76.586 0.36 8.18 0.51 7.91
7/3/2021 3:15:00 PM 24.78 76.604 0.36 8.2 0.49 7.9
7/3/2021 3:30:00 PM 24.79 76.622 0.36 8.19 0.48 7.88
7/3/2021 3:45:00 PM 24.79 76.622 0.36 8.2 0.45 7.86
7/3/2021 4:00:00 PM 24.79 76.622 0.36 8.2 0.43 7.84
7/3/2021 4:15:00 PM 24.8 76.64 0.36 8.2 0.44 7.8
7/3/2021 4:30:00 PM 24.8 76.64 0.36 8.2 0.41 7.78
7/3/2021 4:45:00 PM 24.8 76.64 0.36 8.19 0.41 7.76
7/3/2021 5:00:00 PM 24.79 76.622 0.359 8.18 0.37 7.72
7/3/2021 5:15:00 PM 24.79 76.622 0.359 8.18 0.4 7.68
7/3/2021 5:30:00 PM 24.79 76.622 0.359 8.17 0.39 7.66
7/3/2021 5:45:00 PM 24.79 76.622 0.359 8.16 0.36 7.62
7/3/2021 6:00:00 PM 24.79 76.622 0.359 8.16 0.35 7.6
7/3/2021 6:15:00 PM 24.78 76.604 0.359 8.15 0.34 7.56
7/3/2021 6:30:00 PM 24.78 76.604 0.359 8.15 0.36 7.54
7/3/2021 6:45:00 PM 24.78 76.604 0.359 8.15 0.33 7.52
7/3/2021 7:00:00 PM 24.78 76.604 0.359 8.14 0.34 7.49
7/3/2021 7:15:00 PM 24.77 76.586 0.359 8.14 0.42 7.45
7/3/2021 7:30:00 PM 24.77 76.586 0.359 8.13 0.38 7.43
7/3/2021 7:45:00 PM 24.77 76.586 0.359 8.13 0.35 7.39
7/3/2021 8:00:00 PM 24.76 76.568 0.359 8.14 0.39 7.38
7/3/2021 8:15:00 PM 24.76 76.568 0.359 8.12 0.34 7.34
7/3/2021 8:30:00 PM 24.76 76.568 0.359 8.12 0.35 7.32
7/3/2021 8:45:00 PM 24.75 76.55 0.359 8.11 0.34 7.33
7/3/2021 9:00:00 PM 24.75 76.55 0.359 8.1 0.36 7.27
7/3/2021 9:15:00 PM 24.74 76.532 0.359 8.11 0.34 7.26
7/3/2021 9:30:00 PM 24.74 76.532 0.359 8.1 0.35 7.23
7/3/2021 9:45:00 PM 24.73 76.514 0.359 8.1 0.32 7.2
7/3/2021 10:00:00 PM 24.73 76.514 0.359 8.1 0.34 7.17
7/3/2021 10:15:00 PM 24.73 76.514 0.359 8.08 0.34 7.1
7/3/2021 10:30:00 PM 24.72 76.496 0.359 8.09 0.35 7.09
7/3/2021 10:45:00 PM 24.71 76.478 0.359 8.08 0.34 7.02
7/3/2021 11:00:00 PM 24.71 76.478 0.359 8.07 0.33 7.02
7/3/2021 11:15:00 PM 24.7 76.46 0.359 8.06 0.36 6.98
7/3/2021 11:30:00 PM 24.7 76.46 0.359 8.04 0.32 6.93
7/3/2021 11:45:00 PM 24.69 76.442 0.359 8.05 0.34 6.91
7/4/2021 12:00:00 AM 24.69 76.442 0.359 8.05 0.35 6.88
7/4/2021 12:15:00 AM 24.68 76.424 0.359 8.04 0.38 6.86
7/4/2021 12:30:00 AM 24.68 76.424 0.359 8.04 0.34 6.82
7/4/2021 12:45:00 AM 24.67 76.406 0.359 8.04 0.33 6.81
7/4/2021 1:00:00 AM 24.66 76.388 0.359 8.03 0.33 6.75
7/4/2021 1:15:00 AM 24.66 76.388 0.359 8.02 0.36 6.74
7/4/2021 1:30:00 AM 24.65 76.37 0.359 8.02 0.33 6.71
7/4/2021 1:45:00 AM 24.65 76.37 0.359 8.02 0.31 6.66
7/4/2021 2:00:00 AM 24.64 76.352 0.359 8.01 0.36 6.65
7/4/2021 2:15:00 AM 24.63 76.334 0.359 8 0.34 6.59
7/4/2021 2:30:00 AM 24.63 76.334 0.359 8 0.3 6.58
7/4/2021 2:45:00 AM 24.62 76.316 0.359 8 0.33 6.55
7/4/2021 3:00:00 AM 24.62 76.316 0.359 7.99 0.34 6.48
7/4/2021 3:15:00 AM 24.61 76.298 0.359 7.99 0.34 6.45
7/4/2021 3:30:00 AM 24.6 76.28 0.359 7.98 0.32 6.42
7/4/2021 3:45:00 AM 24.6 76.28 0.359 7.98 0.29 6.4
7/4/2021 4:00:00 AM 24.59 76.262 0.359 7.98 0.3 6.36
7/4/2021 4:15:00 AM 24.58 76.244 0.359 7.97 0.3 6.33
7/4/2021 4:30:00 AM 24.58 76.244 0.359 7.96 0.32 6.29
7/4/2021 4:45:00 AM 24.57 76.226 0.359 7.95 0.32 6.24
7/4/2021 5:00:00 AM 24.57 76.226 0.359 7.94 0.3 6.18
7/4/2021 5:15:00 AM 24.56 76.208 0.359 7.95 0.36 6.17
7/4/2021 5:30:00 AM 24.56 76.208 0.359 7.95 0.31 6.15
7/4/2021 5:45:00 AM 24.55 76.19 0.359 7.94 0.3 6.13
7/4/2021 6:00:00 AM 24.55 76.19 0.359 7.93 0.31 6.1
7/4/2021 6:15:00 AM 24.54 76.172 0.359 7.93 0.29 6.09
7/4/2021 6:30:00 AM 24.51 76.118 0.359 7.93 0.3 6.04
7/4/2021 6:45:00 AM 24.06 75.308 0 7.57 45.16 8.75
7/4/2021 7:00:00 AM 23.74 74.732 0 7.6 15.33 8.84
7/4/2021 7:15:00 AM 23.59 74.462 0 7.63 12.03 8.88
7/4/2021 7:30:00 AM 23.5 74.3 0 7.65 12.27 8.9
7/4/2021 7:45:00 AM 23.5 74.3 0 7.65 16.57 8.9
7/4/2021 8:00:00 AM 23.64 74.552 0 7.68 85.24 8.88
7/4/2021 8:15:00 AM 23.84 74.912 0 7.64 111.94 8.82
7/4/2021 8:30:00 AM 23.92 75.056 0.001 7.63 215.82 8.8
7/4/2021 8:45:00 AM 24.1 75.38 0.179 7.72 170.19 8.76
7/4/2021 9:00:00 AM 24.19 75.542 0.345 8.01 0.65 7.21
7/4/2021 9:15:00 AM 24.25 75.65 0.343 8.04 0.64 7.31
7/4/2021 9:30:00 AM 24.29 75.722 0.342 8.05 0.61 7.37
7/4/2021 9:45:00 AM 24.35 75.83 0.34 8.07 0.65 7.5
7/4/2021 10:00:00 AM 24.41 75.938 0.339 8.08 0.65 7.6
7/4/2021 10:15:00 AM 24.47 76.046 0.338 8.1 0.6 7.69
7/4/2021 10:30:00 AM 24.54 76.172 0.337 8.12 0.64 7.76
7/4/2021 10:45:00 AM 24.6 76.28 0.336 8.14 0.61 7.84
7/4/2021 11:00:00 AM 24.67 76.406 0.336 8.13 0.61 7.87
7/4/2021 11:15:00 AM 24.73 76.514 0.334 8.14 0.62 8
7/4/2021 11:30:00 AM 24.76 76.568 0.334 8.16 0.68 8.09
7/4/2021 11:45:00 AM 24.85 76.73 0.333 8.19 0.78 8.13
7/4/2021 12:00:00 PM 24.93 76.874 0.333 8.2 0.61 8.17
7/4/2021 12:15:00 PM 24.99 76.982 0.333 8.2 0.67 8.18
7/4/2021 12:30:00 PM 25.04 77.07201 0.332 8.19 0.82 8.21
7/4/2021 12:45:00 PM 25.09 77.162 0.332 8.21 0.62 8.23
7/4/2021 1:00:00 PM 25.13 77.234 0.332 8.22 0.61 8.27
7/4/2021 1:15:00 PM 25.16 77.288 0.331 8.21 0.7 8.28
7/4/2021 1:30:00 PM 25.17 77.306 0.331 8.22 0.63 8.33
7/4/2021 1:45:00 PM 25.19 77.342 0.33 8.24 0.74 8.41
7/4/2021 2:00:00 PM 25.18 77.324 0.33 8.26 0.67 8.51
7/4/2021 2:15:00 PM 25.2 77.36 0.329 8.25 0.67 8.5
7/4/2021 2:30:00 PM 25.21 77.378 0.329 8.25 0.75 8.47
7/4/2021 2:45:00 PM 25.22 77.396 0.329 8.26 0.7 8.46
7/4/2021 3:00:00 PM 25.23 77.414 0.329 8.25 0.57 8.44
7/4/2021 3:15:00 PM 25.23 77.414 0.329 8.27 0.59 8.4
7/4/2021 3:30:00 PM 25.23 77.414 0.329 8.23 0.55 8.38
7/4/2021 3:45:00 PM 25.23 77.414 0.329 8.23 0.54 8.36
7/4/2021 4:00:00 PM 25.22 77.396 0.329 8.22 0.56 8.33
7/4/2021 4:15:00 PM 25.22 77.396 0.329 8.22 0.55 8.28
7/4/2021 4:30:00 PM 25.22 77.396 0.329 8.22 0.5 8.28
7/4/2021 4:45:00 PM 25.21 77.378 0.329 8.23 0.59 8.25
7/4/2021 5:00:00 PM 25.2 77.36 0.329 8.2 0.55 8.24
7/4/2021 5:15:00 PM 25.2 77.36 0.329 8.2 0.42 8.19
7/4/2021 5:30:00 PM 25.19 77.342 0.329 8.2 0.43 8.17
7/4/2021 5:45:00 PM 25.18 77.324 0.329 8.19 0.42 8.14
7/4/2021 6:00:00 PM 25.18 77.324 0.329 8.19 0.44 8.1
7/4/2021 6:15:00 PM 25.17 77.306 0.329 8.19 0.44 8.09
7/4/2021 6:30:00 PM 25.16 77.288 0.329 8.17 0.47 8.06
7/4/2021 6:45:00 PM 25.15 77.27 0.329 8.18 0.44 8.01
7/4/2021 7:00:00 PM 25.15 77.27 0.329 8.17 0.48 8.02
7/4/2021 7:15:00 PM 25.14 77.252 0.329 8.17 0.44 7.96
7/4/2021 7:30:00 PM 25.13 77.234 0.329 8.17 0.44 7.96
7/4/2021 7:45:00 PM 25.13 77.234 0.329 8.16 0.4 7.92
7/4/2021 8:00:00 PM 25.12 77.216 0.329 8.15 0.39 7.88
7/4/2021 8:15:00 PM 25.11 77.198 0.329 8.15 0.4 7.84
7/4/2021 8:30:00 PM 25.1 77.18 0.329 8.12 0.41 7.8
7/4/2021 8:45:00 PM 25.1 77.18 0.329 8.14 0.36 7.8
7/4/2021 9:00:00 PM 25.09 77.162 0.329 8.13 0.44 7.76
7/4/2021 9:15:00 PM 25.08 77.144 0.329 8.13 0.37 7.76
7/4/2021 9:30:00 PM 25.08 77.144 0.329 8.13 0.38 7.72
7/4/2021 9:45:00 PM 25.07 77.126 0.329 8.12 0.41 7.68
7/4/2021 10:00:00 PM 25.06 77.108 0.329 8.11 0.37 7.66
7/4/2021 10:15:00 PM 25.05 77.09 0.329 8.1 0.39 7.63
7/4/2021 10:30:00 PM 25.05 77.09 0.329 8.11 0.33 7.61
7/4/2021 10:45:00 PM 25.04 77.07201 0.329 8.09 0.38 7.55
7/4/2021 11:00:00 PM 25.03 77.054 0.329 8.1 0.35 7.55
7/4/2021 11:15:00 PM 25.02 77.036 0.329 8.08 0.33 7.5
7/4/2021 11:30:00 PM 25.01 77.018 0.329 8.08 0.35 7.48
7/4/2021 11:45:00 PM 25.01 77.018 0.329 8.08 0.37 7.47
7/5/2021 12:00:00 AM 25 77 0.329 8.08 0.32 7.42
7/5/2021 12:15:00 AM 24.99 76.982 0.329 8.06 0.35 7.36
7/5/2021 12:30:00 AM 24.98 76.964 0.329 8.05 0.32 7.34
7/5/2021 12:45:00 AM 24.98 76.964 0.329 8.06 0.35 7.33
7/5/2021 1:00:00 AM 24.97 76.946 0.329 8.04 0.38 7.26
7/5/2021 1:15:00 AM 24.96 76.92799 0.329 8.03 0.37 7.25
7/5/2021 1:30:00 AM 24.95 76.91 0.329 8.04 0.33 7.24
7/5/2021 1:45:00 AM 24.94 76.892 0.329 8.04 0.29 7.22
7/5/2021 2:00:00 AM 24.94 76.892 0.329 8.03 0.35 7.18
7/5/2021 2:15:00 AM 24.93 76.874 0.329 8.02 0.34 7.16
7/5/2021 2:30:00 AM 24.92 76.856 0.329 8.03 0.33 7.12
7/5/2021 2:45:00 AM 24.91 76.838 0.329 8.02 0.32 7.11
7/5/2021 3:00:00 AM 24.9 76.82 0.329 8.01 0.34 7.06
7/5/2021 3:15:00 AM 24.89 76.802 0.329 8.01 0.32 7.08
7/5/2021 3:30:00 AM 24.89 76.802 0.329 8.01 0.33 7.05
7/5/2021 3:45:00 AM 24.88 76.784 0.329 8 0.3 6.97
7/5/2021 4:00:00 AM 24.87 76.766 0.329 8 0.36 6.98
7/5/2021 4:15:00 AM 24.86 76.748 0.329 7.99 0.33 6.94
7/5/2021 4:30:00 AM 24.85 76.73 0.329 7.99 0.29 6.93
7/5/2021 4:45:00 AM 24.84 76.712 0.329 7.99 0.31 6.88
7/5/2021 5:00:00 AM 24.84 76.712 0.329 7.98 0.29 6.86
7/5/2021 5:15:00 AM 24.83 76.694 0.33 7.94 0.28 6.77
7/5/2021 5:30:00 AM 24.82 76.676 0.33 7.97 0.3 6.81
7/5/2021 5:45:00 AM 24.81 76.658 0.329 7.96 0.27 6.74
7/5/2021 6:00:00 AM 24.8 76.64 0.33 7.96 0.29 6.71
7/5/2021 6:15:00 AM 24.79 76.622 0.33 7.96 0.29 6.73
7/5/2021 6:30:00 AM 24.76 76.568 0.33 7.96 0.3 6.67
7/5/2021 6:45:00 AM 24.61 76.298 0.329 7.94 0.31 6.63
7/5/2021 7:00:00 AM 24.42 75.956 0.326 7.92 0.46 6.59
7/5/2021 7:15:00 AM 24.25 75.65 0.325 7.93 0.41 6.62
7/5/2021 7:30:00 AM 24.11 75.398 0.321 7.93 0.6 6.64
7/5/2021 7:45:00 AM 24 75.2 0.316 7.92 0.63 6.66
7/5/2021 8:00:00 AM 23.92 75.056 0.312 7.92 0.78 6.68
7/5/2021 8:15:00 AM 23.84 74.912 0.309 7.91 0.86 6.68
7/5/2021 8:30:00 AM 23.79 74.82201 0.302 7.92 1.3 6.72
7/5/2021 8:45:00 AM 23.76 74.768 0.3 7.92 1.23 6.72
7/5/2021 9:00:00 AM 23.73 74.714 0.294 7.92 1.51 6.75
7/5/2021 9:15:00 AM 23.72 74.696 0.289 7.92 1.67 6.75
7/5/2021 9:30:00 AM 23.72 74.696 0.288 7.91 1.56 6.77
7/5/2021 9:45:00 AM 23.72 74.696 0.286 7.91 1.8 6.77
7/5/2021 10:00:00 AM 23.73 74.714 0.282 7.91 1.85 6.77
7/5/2021 10:15:00 AM 23.74 74.732 0.282 7.9 1.94 6.77
7/5/2021 10:30:00 AM 23.77 74.786 0.281 7.9 1.76 6.76
7/5/2021 10:45:00 AM 23.8 74.84 0.276 7.89 2.07 6.78
7/5/2021 11:00:00 AM 23.84 74.912 0.274 7.89 2.23 6.81
7/5/2021 11:15:00 AM 23.88 74.984 0.269 7.89 2.31 6.82
7/5/2021 11:30:00 AM 23.93 75.074 0.267 7.89 3 6.84
7/5/2021 11:45:00 AM 23.97 75.146 0.264 7.88 3.27 6.85
7/5/2021 12:00:00 PM 24.01 75.218 0.261 7.88 2.86 6.87
7/5/2021 12:15:00 PM 24.06 75.308 0.259 7.86 3.04 6.88
7/5/2021 12:30:00 PM 24.1 75.38 0.257 7.87 3.36 6.89
7/5/2021 12:45:00 PM 24.13 75.434 0.255 7.87 2.96 6.91
7/5/2021 1:00:00 PM 24.17 75.506 0.253 7.86 3.18 6.92
7/5/2021 1:15:00 PM 24.22 75.596 0.252 7.85 3.26 6.92
7/5/2021 1:30:00 PM 24.26 75.668 0.25 7.85 3.6 6.94
7/5/2021 1:45:00 PM 24.29 75.722 0.245 7.84 4.69 7.09
7/5/2021 2:00:00 PM 24.32 75.776 0.243 7.84 3.6 7.09
7/5/2021 2:15:00 PM 24.34 75.812 0.243 7.84 3.97 7.08
7/5/2021 2:30:00 PM 24.35 75.83 0.243 7.83 3.6 7.05
7/5/2021 2:45:00 PM 24.35 75.83 0.243 7.83 3.38 7.03
7/5/2021 3:00:00 PM 24.36 75.848 0.242 7.83 3.4 6.99
7/5/2021 3:15:00 PM 24.36 75.848 0.242 7.83 3.17 6.96
7/5/2021 3:30:00 PM 24.35 75.83 0.243 7.83 3.19 6.95
7/5/2021 3:45:00 PM 24.35 75.83 0.242 7.82 3.19 6.94
7/5/2021 4:00:00 PM 24.35 75.83 0.242 7.83 2.98 6.9
7/5/2021 4:15:00 PM 24.35 75.83 0.242 7.83 2.99 6.89
7/5/2021 4:30:00 PM 24.35 75.83 0.242 7.82 3.15 6.84
7/5/2021 4:45:00 PM 24.35 75.83 0.242 7.81 3.07 6.8
7/5/2021 5:00:00 PM 24.34 75.812 0.242 7.81 2.94 6.79
7/5/2021 5:15:00 PM 24.34 75.812 0.242 7.81 2.9 6.76
7/5/2021 5:30:00 PM 24.34 75.812 0.242 7.8 2.93 6.74
7/5/2021 5:45:00 PM 24.33 75.794 0.242 7.79 2.94 6.7
7/5/2021 6:00:00 PM 24.33 75.794 0.242 7.78 2.6 6.66
7/5/2021 6:15:00 PM 24.32 75.776 0.242 7.78 2.64 6.61
7/5/2021 6:30:00 PM 24.32 75.776 0.242 7.78 2.82 6.62
7/5/2021 6:45:00 PM 24.32 75.776 0.241 7.77 2.69 6.59
7/5/2021 7:00:00 PM 24.31 75.758 0.242 7.79 2.38 6.58
7/5/2021 7:15:00 PM 24.31 75.758 0.242 7.78 2.45 6.57
7/5/2021 7:30:00 PM 24.3 75.74 0.242 7.78 2.44 6.53
7/5/2021 7:45:00 PM 24.3 75.74 0.241 7.78 2.51 6.49
7/5/2021 8:00:00 PM 24.3 75.74 0.241 7.77 2.28 6.46
7/5/2021 8:15:00 PM 24.29 75.722 0.241 7.76 2.32 6.43
7/5/2021 8:30:00 PM 24.29 75.722 0.241 7.76 2.21 6.39
7/5/2021 8:45:00 PM 24.28 75.704 0.241 7.76 2.28 6.36
7/5/2021 9:00:00 PM 24.28 75.704 0.241 7.76 2.13 6.38
7/5/2021 9:15:00 PM 24.28 75.704 0.241 7.77 2.16 6.37
7/5/2021 9:30:00 PM 24.27 75.686 0.241 7.76 2.2 6.33
7/5/2021 9:45:00 PM 24.27 75.686 0.241 7.75 2.05 6.31
7/5/2021 10:00:00 PM 24.26 75.668 0.241 7.74 2.16 6.28
7/5/2021 10:15:00 PM 24.26 75.668 0.241 7.74 2.06 6.25
7/5/2021 10:30:00 PM 24.25 75.65 0.241 7.75 2.02 6.24
7/5/2021 10:45:00 PM 24.25 75.65 0.241 7.75 2.09 6.24
7/5/2021 11:00:00 PM 24.25 75.65 0.241 7.75 1.99 6.23
7/5/2021 11:15:00 PM 24.24 75.632 0.241 7.75 1.98 6.17
7/5/2021 11:30:00 PM 24.24 75.632 0.241 7.74 1.95 6.17
7/5/2021 11:45:00 PM 24.23 75.614 0.241 7.75 1.99 6.11
7/6/2021 12:00:00 AM 24.23 75.614 0.241 7.74 1.86 6.12
7/6/2021 12:15:00 AM 24.23 75.614 0.241 7.74 1.92 6.09
7/6/2021 12:30:00 AM 24.22 75.596 0.241 7.74 1.97 6.07
7/6/2021 12:45:00 AM 24.22 75.596 0.241 7.74 1.83 6.05
7/6/2021 1:00:00 AM 24.22 75.596 0.241 7.72 1.76 6.02
7/6/2021 1:15:00 AM 24.21 75.578 0.241 7.72 1.77 6
7/6/2021 1:30:00 AM 24.21 75.578 0.241 7.73 1.79 5.98
7/6/2021 1:45:00 AM 24.2 75.56 0.241 7.73 1.8 5.94
7/6/2021 2:00:00 AM 24.2 75.56 0.241 7.72 1.81 5.88
7/6/2021 2:15:00 AM 24.19 75.542 0.241 7.71 1.72 5.84
7/6/2021 2:30:00 AM 24.19 75.542 0.241 7.71 1.69 5.83
7/6/2021 2:45:00 AM 24.19 75.542 0.241 7.71 1.63 5.83
7/6/2021 3:00:00 AM 24.18 75.524 0.241 7.7 1.68 5.79
7/6/2021 3:15:00 AM 24.18 75.524 0.241 7.72 1.67 5.83
7/6/2021 3:30:00 AM 24.17 75.506 0.241 7.71 1.65 5.74
7/6/2021 3:45:00 AM 24.17 75.506 0.241 7.7 1.54 5.76
7/6/2021 4:00:00 AM 24.16 75.488 0.241 7.69 1.63 5.69
7/6/2021 4:15:00 AM 24.16 75.488 0.241 7.7 1.57 5.71
7/6/2021 4:30:00 AM 24.16 75.488 0.241 7.71 1.63 5.71
7/6/2021 4:45:00 AM 24.15 75.47 0.241 7.7 1.47 5.68
7/6/2021 5:00:00 AM 24.15 75.47 0.241 7.7 1.53 5.68
7/6/2021 5:15:00 AM 24.14 75.452 0.241 7.7 1.45 5.66
7/6/2021 5:30:00 AM 24.14 75.452 0.241 7.7 1.5 5.64
7/6/2021 5:45:00 AM 24.13 75.434 0.241 7.69 1.5 5.6
7/6/2021 6:00:00 AM 24.12 75.416 0.241 7.69 1.63 5.58
7/6/2021 6:15:00 AM 24.1 75.38 0.241 7.68 1.69 5.55
7/6/2021 6:30:00 AM 24 75.2 0.241 7.67 1.49 5.51
7/6/2021 6:45:00 AM 23.86 74.948 0.241 7.63 1.97 5.46
7/6/2021 7:00:00 AM 23.76 74.768 0.241 7.62 2.89 5.43
7/6/2021 7:15:00 AM 23.68 74.624 0.24 7.64 3.9 5.47
7/6/2021 7:30:00 AM 23.62 74.516 0.24 7.63 3.87 5.46
7/6/2021 7:45:00 AM 23.57 74.426 0.24 7.63 3.75 5.44
7/6/2021 8:00:00 AM 23.53 74.354 0.24 7.63 3.81 5.41
7/6/2021 8:15:00 AM 23.51 74.318 0.24 7.63 3.62 5.37
7/6/2021 8:30:00 AM 23.49 74.282 0.24 7.63 3.53 5.35
7/6/2021 8:45:00 AM 23.49 74.282 0.24 7.63 3.47 5.31
7/6/2021 9:00:00 AM 23.49 74.282 0.24 7.65 3.57 5.25
7/6/2021 9:15:00 AM 23.51 74.318 0.24 7.64 3.41 5.22
7/6/2021 9:30:00 AM 23.53 74.354 0.239 7.62 5.07 5.2
7/6/2021 9:45:00 AM 23.57 74.426 0.239 7.63 4.53 5.26
7/6/2021 10:00:00 AM 23.61 74.498 0.238 7.63 5.14 5.33
7/6/2021 10:15:00 AM 23.66 74.588 0.237 7.64 5.6 5.37
7/6/2021 10:30:00 AM 23.7 74.66 0.237 7.64 6.43 5.4
7/6/2021 10:45:00 AM 23.77 74.786 0.236 7.65 8.6 5.53
7/6/2021 11:00:00 AM 23.81 74.858 0.236 7.65 8.51 5.53
7/6/2021 11:15:00 AM 23.86 74.948 0.236 7.65 8.84 5.56
7/6/2021 11:30:00 AM 23.92 75.056 0.235 7.66 9.36 5.63
7/6/2021 11:45:00 AM 23.98 75.164 0.235 7.67 10.82 5.72
7/6/2021 12:00:00 PM 24.05 75.29 0.234 7.67 13.49 5.84
7/6/2021 12:15:00 PM 24.12 75.416 0.234 7.68 14.65 5.97
7/6/2021 12:30:00 PM 24.19 75.542 0.234 7.69 14.63 6.06
7/6/2021 12:45:00 PM 24.28 75.704 0.234 7.7 15.82 6.2
7/6/2021 1:00:00 PM 24.34 75.812 0.234 7.71 15.51 6.28
7/6/2021 1:15:00 PM 24.41 75.938 0.234 7.72 15.45 6.39
7/6/2021 1:30:00 PM 24.49 76.082 0.235 7.72 16.67 6.45
7/6/2021 1:45:00 PM 24.57 76.226 0.235 7.73 18.26 6.54
7/6/2021 2:00:00 PM 24.64 76.352 0.236 7.74 16.14 6.64
7/6/2021 2:15:00 PM 24.74 76.532 0.238 7.76 19.59 6.76
7/6/2021 2:30:00 PM 24.75 76.55 0.238 7.76 18.27 6.85
7/6/2021 2:45:00 PM 24.77 76.586 0.238 7.77 18.01 6.83
7/6/2021 3:00:00 PM 24.81 76.658 0.238 7.76 18.13 6.84
7/6/2021 3:15:00 PM 24.82 76.676 0.239 7.77 17.02 6.83
7/6/2021 3:30:00 PM 24.82 76.676 0.239 7.77 16.01 6.8
7/6/2021 3:45:00 PM 24.82 76.676 0.239 7.77 13.43 6.77
7/6/2021 4:00:00 PM 24.82 76.676 0.239 7.77 13.62 6.75
7/6/2021 4:15:00 PM 24.82 76.676 0.239 7.77 13.16 6.72
7/6/2021 4:30:00 PM 24.82 76.676 0.239 7.77 12.9 6.7
7/6/2021 4:45:00 PM 24.82 76.676 0.239 7.78 12.6 6.66
7/6/2021 5:00:00 PM 24.81 76.658 0.239 7.78 12.41 6.66
7/6/2021 5:15:00 PM 24.81 76.658 0.239 7.77 11.75 6.65
7/6/2021 5:30:00 PM 24.8 76.64 0.239 7.78 12.36 6.62
7/6/2021 5:45:00 PM 24.8 76.64 0.239 7.76 11.99 6.63
7/6/2021 6:00:00 PM 24.8 76.64 0.239 7.77 11.12 6.6
7/6/2021 6:15:00 PM 24.79 76.622 0.239 7.79 11.3 6.6
7/6/2021 6:30:00 PM 24.78 76.604 0.239 7.77 10.93 6.56
7/6/2021 6:45:00 PM 24.78 76.604 0.24 7.77 10.73 6.54
7/6/2021 7:00:00 PM 24.77 76.586 0.24 7.78 10.7 6.52
7/6/2021 7:15:00 PM 24.77 76.586 0.24 7.76 10.59 6.5
7/6/2021 7:30:00 PM 24.76 76.568 0.24 7.76 10.17 6.5
7/6/2021 7:45:00 PM 24.75 76.55 0.24 7.77 10.37 6.47
7/6/2021 8:00:00 PM 24.75 76.55 0.24 7.76 9.99 6.43
7/6/2021 8:15:00 PM 24.74 76.532 0.24 7.76 9.92 6.43
7/6/2021 8:30:00 PM 24.73 76.514 0.24 7.76 10 6.39
7/6/2021 8:45:00 PM 24.73 76.514 0.24 7.76 9.88 6.39
7/6/2021 9:00:00 PM 24.72 76.496 0.24 7.76 9.52 6.37
7/6/2021 9:15:00 PM 24.71 76.478 0.24 7.76 9.64 6.36
7/6/2021 9:30:00 PM 24.71 76.478 0.24 7.76 9.54 6.34
7/6/2021 9:45:00 PM 24.7 76.46 0.24 7.75 9.14 6.31
7/6/2021 10:00:00 PM 24.7 76.46 0.24 7.76 9.15 6.28
7/6/2021 10:15:00 PM 24.69 76.442 0.24 7.75 8.91 6.27
7/6/2021 10:30:00 PM 24.69 76.442 0.24 7.77 8.88 6.24
7/6/2021 10:45:00 PM 24.68 76.424 0.241 7.75 9.03 6.22
7/6/2021 11:00:00 PM 24.67 76.406 0.241 7.75 8.55 6.22
7/6/2021 11:15:00 PM 24.67 76.406 0.241 7.77 8.63 6.21
7/6/2021 11:30:00 PM 24.66 76.388 0.241 7.73 8.66 6.16
7/6/2021 11:45:00 PM 24.66 76.388 0.241 7.75 8.38 6.15
7/7/2021 12:00:00 AM 24.65 76.37 0.241 7.74 8.49 6.13
7/7/2021 12:15:00 AM 24.64 76.352 0.241 7.74 8.3 6.12
7/7/2021 12:30:00 AM 24.64 76.352 0.241 7.73 8.41 6.09
7/7/2021 12:45:00 AM 24.63 76.334 0.241 7.72 8.35 6.04
7/7/2021 1:00:00 AM 24.63 76.334 0.241 7.73 8.13 6.04
7/7/2021 1:15:00 AM 24.62 76.316 0.241 7.73 8.2 6.01
7/7/2021 1:30:00 AM 24.62 76.316 0.241 7.74 7.69 5.98
7/7/2021 1:45:00 AM 24.61 76.298 0.241 7.71 8.04 5.95
7/7/2021 2:00:00 AM 24.61 76.298 0.241 7.71 7.51 5.92
7/7/2021 2:15:00 AM 24.6 76.28 0.241 7.72 7.67 5.94
7/7/2021 2:30:00 AM 24.59 76.262 0.241 7.74 7.46 5.92
7/7/2021 2:45:00 AM 24.59 76.262 0.241 7.73 7.2 5.87
7/7/2021 3:00:00 AM 24.58 76.244 0.241 7.72 7.5 5.86
7/7/2021 3:15:00 AM 24.58 76.244 0.241 7.69 7.65 5.84
7/7/2021 3:30:00 AM 24.57 76.226 0.242 7.72 7.43 5.85
7/7/2021 3:45:00 AM 24.57 76.226 0.242 7.7 7.74 5.8
7/7/2021 4:00:00 AM 24.56 76.208 0.242 7.72 7.29 5.8
7/7/2021 4:15:00 AM 24.56 76.208 0.242 7.71 7.4 5.75
7/7/2021 4:30:00 AM 24.55 76.19 0.242 7.7 6.99 5.73
7/7/2021 4:45:00 AM 24.54 76.172 0.242 7.71 7.18 5.71
7/7/2021 5:00:00 AM 24.54 76.172 0.242 7.69 7.17 5.68
7/7/2021 5:15:00 AM 24.53 76.154 0.242 7.71 7.39 5.67
7/7/2021 5:30:00 AM 24.53 76.154 0.242 7.69 6.84 5.65
7/7/2021 5:45:00 AM 24.52 76.136 0.242 7.7 6.86 5.62
7/7/2021 6:00:00 AM 24.51 76.118 0.242 7.7 6.45 5.6
7/7/2021 6:15:00 AM 24.51 76.118 0.242 7.71 6.37 5.57
7/7/2021 6:30:00 AM 24.52 76.136 0.242 7.71 6.31 5.54
7/7/2021 6:45:00 AM 24.56 76.208 0.242 7.71 6.41 5.53
7/7/2021 7:00:00 AM 24.6 76.28 0.242 7.7 6.5 5.49
7/7/2021 7:15:00 AM 24.63 76.334 0.242 7.69 6.39 5.49
7/7/2021 7:30:00 AM 24.65 76.37 0.243 7.69 6.53 5.49
7/7/2021 7:45:00 AM 24.67 76.406 0.243 7.69 6.26 5.5
7/7/2021 8:00:00 AM 24.68 76.424 0.243 7.7 6.17 5.47
7/7/2021 8:15:00 AM 24.68 76.424 0.244 7.68 7.29 5.62
7/7/2021 8:30:00 AM 24.69 76.442 0.244 7.64 8.21 5.79
7/7/2021 8:45:00 AM 24.7 76.46 0.245 7.61 7.87 5.86
7/7/2021 9:00:00 AM 24.71 76.478 0.204 7.91 107.5 8.47
7/7/2021 9:15:00 AM 24.71 76.478 0.035 7.71 234.45 8.63
7/7/2021 9:30:00 AM 24.67 76.406 0 7.31 198.85 8.66
7/7/2021 9:45:00 AM 24.63 76.334 0 7.36 95.49 8.69
7/7/2021 10:00:00 AM 24.61 76.298 0 7.37 41.67 8.71
7/7/2021 10:15:00 AM 24.59 76.262 0 7.37 23.45 8.71
7/7/2021 10:30:00 AM 24.57 76.226 0 7.4 14.05 8.72
7/7/2021 10:45:00 AM 24.59 76.262 0 7.45 9.52 8.73
7/7/2021 11:00:00 AM 24.62 76.316 0 7.42 2.15 8.72
7/7/2021 11:15:00 AM 24.64 76.352 0 7.45 1.04 8.74
7/7/2021 11:30:00 AM 24.67 76.406 0 7.44 0.92 8.72
7/7/2021 11:45:00 AM 24.69 76.442 0 7.45 0.88 8.71
7/7/2021 12:00:00 PM 24.71 76.478 0 7.53 0.84 8.71
7/7/2021 12:15:00 PM 24.72 76.496 0 7.59 0.85 8.71
7/7/2021 12:30:00 PM 24.74 76.532 0 7.58 0.82 8.72
7/7/2021 12:45:00 PM 24.77 76.586 0 7.5 0.89 8.72
7/7/2021 1:00:00 PM 24.8 76.64 0 7.61 0.89 8.7
7/7/2021 1:15:00 PM 25.6 78.08 0.251 7.87 8.65 7.32
7/7/2021 1:30:00 PM 25.71 78.278 0.251 7.87 7.95 7.27
7/7/2021 1:45:00 PM 25.79 78.422 0.251 7.86 7.71 7.24
7/7/2021 2:00:00 PM 25.86 78.548 0.251 7.86 6.7 7.23
7/7/2021 2:15:00 PM 25.93 78.674 0.251 7.87 6.8 7.22
7/7/2021 2:30:00 PM 25.97 78.746 0.252 7.87 6.85 7.3
7/7/2021 2:45:00 PM 26 78.8 0.252 7.86 7.18 7.28
7/7/2021 3:00:00 PM 26.03 78.854 0.252 7.87 6.88 7.25
7/7/2021 3:15:00 PM 26.05 78.89 0.252 7.87 6.44 7.23
7/7/2021 3:30:00 PM 26.06 78.908 0.252 7.87 7.01 7.22
7/7/2021 3:45:00 PM 26.06 78.908 0.252 7.86 5.84 7.2
7/7/2021 4:00:00 PM 26.06 78.908 0.252 7.86 5.86 7.18
7/7/2021 4:15:00 PM 26.06 78.908 0.252 7.85 5.66 7.16
7/7/2021 4:30:00 PM 26.05 78.89 0.252 7.88 5.59 7.12
7/7/2021 4:45:00 PM 26.05 78.89 0.252 7.86 5.34 7.09
7/7/2021 5:00:00 PM 26.04 78.872 0.252 7.87 5.34 7.08
7/7/2021 5:15:00 PM 26.03 78.854 0.252 7.86 5.37 7.07
7/7/2021 5:30:00 PM 26.02 78.836 0.252 7.86 4.98 7.05
7/7/2021 5:45:00 PM 26.02 78.836 0.252 7.85 4.91 7.04
7/7/2021 6:00:00 PM 26.01 78.818 0.252 7.84 5.26 7.04
7/7/2021 6:15:00 PM 26 78.8 0.252 7.86 5.1 7.02
7/7/2021 6:30:00 PM 25.99 78.782 0.253 7.86 4.97 7.01
7/7/2021 6:45:00 PM 25.98 78.764 0.253 7.86 4.96 6.98
7/7/2021 7:00:00 PM 25.97 78.746 0.253 7.86 4.57 6.94
7/7/2021 7:15:00 PM 25.96 78.728 0.253 7.85 4.84 6.94
7/7/2021 7:30:00 PM 25.95 78.71 0.253 7.86 4.61 6.89
7/7/2021 7:45:00 PM 25.94 78.692 0.253 7.85 4.41 6.91
7/7/2021 8:00:00 PM 25.93 78.674 0.253 7.85 4.61 6.87
7/7/2021 8:15:00 PM 25.92 78.656 0.253 7.84 4.33 6.88
7/7/2021 8:30:00 PM 25.91 78.638 0.253 7.85 4.18 6.84
7/7/2021 8:45:00 PM 25.91 78.638 0.253 7.84 4.2 6.77
7/7/2021 9:00:00 PM 25.9 78.62 0.253 7.85 4.19 6.78
7/7/2021 9:15:00 PM 25.89 78.602 0.253 7.84 3.98 6.77
7/7/2021 9:30:00 PM 25.88 78.584 0.253 7.84 4.01 6.72
7/7/2021 9:45:00 PM 25.86 78.548 0.253 7.83 3.98 6.71
7/7/2021 10:00:00 PM 25.85 78.53 0.253 7.83 3.75 6.68
7/7/2021 10:15:00 PM 25.85 78.53 0.253 7.83 3.81 6.63
7/7/2021 10:30:00 PM 25.84 78.512 0.253 7.83 3.93 6.64
7/7/2021 10:45:00 PM 25.83 78.494 0.253 7.84 3.78 6.62
7/7/2021 11:00:00 PM 25.82 78.476 0.253 7.82 3.78 6.59
7/7/2021 11:15:00 PM 25.81 78.458 0.253 7.83 3.5 6.57
7/7/2021 11:30:00 PM 25.8 78.44 0.253 7.82 3.8 6.54
7/7/2021 11:45:00 PM 25.79 78.422 0.253 7.82 3.6 6.5
7/8/2021 12:00:00 AM 25.78 78.404 0.253 7.82 3.56 6.49
7/8/2021 12:15:00 AM 25.77 78.386 0.253 7.81 3.49 6.43
7/8/2021 12:30:00 AM 25.77 78.386 0.253 7.82 3.48 6.41
7/8/2021 12:45:00 AM 25.76 78.368 0.253 7.8 3.26 6.38
7/8/2021 1:00:00 AM 25.75 78.35 0.253 7.8 3.32 6.34
7/8/2021 1:15:00 AM 25.74 78.332 0.253 7.8 3.35 6.35
7/8/2021 1:30:00 AM 25.73 78.314 0.253 7.81 3.26 6.33
7/8/2021 1:45:00 AM 25.73 78.314 0.253 7.79 3.29 6.3
7/8/2021 2:00:00 AM 25.71 78.278 0.253 7.8 3.12 6.28
7/8/2021 2:15:00 AM 25.71 78.278 0.254 7.79 3.23 6.26
7/8/2021 2:30:00 AM 25.7 78.26 0.253 7.79 3.16 6.24
7/8/2021 2:45:00 AM 25.69 78.242 0.253 7.79 3.08 6.2
7/8/2021 3:00:00 AM 25.69 78.242 0.254 7.78 3.23 6.14
7/8/2021 3:15:00 AM 25.68 78.224 0.254 7.78 3.04 6.13
7/8/2021 3:30:00 AM 25.67 78.206 0.254 7.75 2.89 6.1
7/8/2021 3:45:00 AM 25.66 78.188 0.254 7.78 2.94 6.11
7/8/2021 4:00:00 AM 25.66 78.188 0.254 7.78 2.99 6.09
7/8/2021 4:15:00 AM 25.65 78.17 0.254 7.78 2.86 6.08
7/8/2021 4:30:00 AM 25.64 78.152 0.254 7.78 2.87 6.06
7/8/2021 4:45:00 AM 25.64 78.152 0.254 7.75 3.26 6.02
7/8/2021 5:00:00 AM 25.61 78.098 0.254 7.75 3.5 5.99
7/8/2021 5:15:00 AM 25.52 77.936 0 7.62 0.91 8.46
7/8/2021 5:30:00 AM 25.09 77.162 0 7.44 0.95 8.62
7/8/2021 5:45:00 AM 24.69 76.442 0 7.46 0.94 8.69
7/8/2021 6:00:00 AM 24.41 75.938 0 7.47 1.01 8.76
7/8/2021 6:15:00 AM 24.25 75.65 0 7.51 0.96 8.77
7/8/2021 6:30:00 AM 24.25 75.65 0 7.5 0.91 8.79
7/8/2021 6:45:00 AM 24.28 75.704 0 7.5 0.96 8.79
7/8/2021 7:00:00 AM 24.23 75.614 0 7.51 0.99 8.8
7/8/2021 7:15:00 AM 24.18 75.524 0 7.52 0.99 8.81
7/8/2021 7:30:00 AM 24.14 75.452 0 7.52 1.01 8.83
7/8/2021 7:45:00 AM 24.1 75.38 0 7.59 0.94 8.83
7/8/2021 8:00:00 AM 24.06 75.308 0 7.57 0.96 8.84
7/8/2021 8:15:00 AM 24.03 75.254 0 7.56 0.99 8.85
7/8/2021 8:30:00 AM 24 75.2 0 7.56 0.99 8.85
7/8/2021 8:45:00 AM 23.98 75.164 0 7.56 0.99 8.85
7/8/2021 9:00:00 AM 23.97 75.146 0 7.6 1.02 8.85
7/8/2021 9:15:00 AM 23.95 75.11 0 7.59 0.97 8.86
7/8/2021 9:30:00 AM 23.94 75.092 0 7.61 1.03 8.86
7/8/2021 9:45:00 AM 23.93 75.074 0 7.59 1.08 8.87
7/8/2021 10:00:00 AM 23.92 75.056 0 7.6 1.04 8.87
7/8/2021 10:15:00 AM 23.92 75.056 0 7.6 0.94 8.87
7/8/2021 10:30:00 AM 23.92 75.056 0 7.6 0.96 8.87
7/8/2021 10:45:00 AM 23.92 75.056 0 7.68 1.02 8.87
7/8/2021 11:00:00 AM 23.92 75.056 0 7.61 1.07 8.87
7/8/2021 11:15:00 AM 23.92 75.056 0 7.62 1.07 8.87
7/8/2021 11:30:00 AM 23.92 75.056 0 7.61 0.96 8.87
7/8/2021 11:45:00 AM 23.92 75.056 0 7.7 1.01 8.87
7/8/2021 12:00:00 PM 23.92 75.056 0 7.7 1.01 8.87
7/8/2021 12:15:00 PM 23.92 75.056 0 7.68 0.96 8.87
7/8/2021 12:30:00 PM 23.93 75.074 0 7.71 1.04 8.87
7/8/2021 12:45:00 PM 23.94 75.092 0 7.8 1.11 8.87
7/8/2021 1:00:00 PM 23.95 75.11 0 7.79 0.98 8.87
7/8/2021 1:15:00 PM 23.96 75.128 0 7.78 0.97 8.86
7/8/2021 1:30:00 PM 23.97 75.146 0 7.7 0.97 8.86
7/8/2021 1:45:00 PM 23.97 75.146 0 7.75 0.91 8.86
7/8/2021 2:00:00 PM 23.97 75.146 0 7.77 0.95 8.86
7/8/2021 2:15:00 PM 23.98 75.164 0 7.73 0.95 8.85
7/8/2021 2:30:00 PM 25.86 78.548 0.27 8.1 6.31 7.74
7/8/2021 2:45:00 PM 25.99 78.782 0.269 8.05 4.05 7.7
7/8/2021 3:00:00 PM 26.04 78.872 0.269 8.04 4.01 7.7
7/8/2021 3:15:00 PM 26.07 78.926 0.27 8.03 4.14 7.68
7/8/2021 3:30:00 PM 26.08 78.944 0.27 8.04 3.45 7.66
7/8/2021 3:45:00 PM 26.09 78.962 0.27 8.03 3.73 7.62
7/8/2021 4:00:00 PM 26.09 78.962 0.27 8.04 3.74 7.61
7/8/2021 4:15:00 PM 26.09 78.962 0.27 8.03 3.37 7.57
7/8/2021 4:30:00 PM 26.09 78.962 0.27 8.02 3.24 7.53
7/8/2021 4:45:00 PM 26.08 78.944 0.27 8 3.59 7.51
7/8/2021 5:00:00 PM 26.08 78.944 0.27 8.01 3.41 7.48
7/8/2021 5:15:00 PM 26.07 78.926 0.27 8.01 3.4 7.46
7/8/2021 5:30:00 PM 26.07 78.926 0.27 8.01 3.39 7.44
7/8/2021 5:45:00 PM 26.07 78.926 0.27 8 3.05 7.41
7/8/2021 6:00:00 PM 26.06 78.908 0.27 7.99 3.03 7.37
7/8/2021 6:15:00 PM 26.05 78.89 0.27 8 2.9 7.36
7/8/2021 6:30:00 PM 26.04 78.872 0.27 7.99 3.12 7.31
7/8/2021 6:45:00 PM 26.04 78.872 0.27 7.98 3.13 7.27
7/8/2021 7:00:00 PM 26.03 78.854 0.27 7.98 2.79 7.27
7/8/2021 7:15:00 PM 26.02 78.836 0.27 7.97 2.68 7.21
7/8/2021 7:30:00 PM 26.02 78.836 0.27 7.98 2.75 7.19
7/8/2021 7:45:00 PM 26.01 78.818 0.27 7.98 2.67 7.21
7/8/2021 8:00:00 PM 26 78.8 0.27 7.98 2.77 7.16
7/8/2021 8:15:00 PM 25.99 78.782 0.27 7.97 2.46 7.15
7/8/2021 8:30:00 PM 25.99 78.782 0.27 7.99 2.56 7.15
7/8/2021 8:45:00 PM 25.98 78.764 0.27 7.97 2.41 7.09
7/8/2021 9:00:00 PM 25.97 78.746 0.27 7.96 2.4 7.04
7/8/2021 9:15:00 PM 25.97 78.746 0.27 7.97 2.5 7.04
7/8/2021 9:30:00 PM 25.96 78.728 0.27 7.96 2.45 7.02
7/8/2021 9:45:00 PM 25.95 78.71 0.27 7.97 2.36 6.98
7/8/2021 10:00:00 PM 25.94 78.692 0.27 7.95 2.34 6.91
7/8/2021 10:15:00 PM 25.94 78.692 0.27 7.94 2.34 6.93
7/8/2021 10:30:00 PM 25.93 78.674 0.27 7.94 2.39 6.89
7/8/2021 10:45:00 PM 25.92 78.656 0.27 7.93 2.21 6.85
7/8/2021 11:00:00 PM 25.91 78.638 0.27 7.93 2.25 6.79
7/8/2021 11:15:00 PM 25.91 78.638 0.27 7.93 2.2 6.79
7/8/2021 11:30:00 PM 25.9 78.62 0.27 7.92 2.5 6.74
7/8/2021 11:45:00 PM 25.89 78.602 0.27 7.93 2.56 6.7
7/9/2021 12:00:00 AM 25.89 78.602 0.27 7.91 2.27 6.65
7/9/2021 12:15:00 AM 25.88 78.584 0.27 7.91 2.19 6.63
7/9/2021 12:30:00 AM 25.87 78.566 0.27 7.9 2.28 6.6
7/9/2021 12:45:00 AM 25.86 78.548 0.271 7.9 2.16 6.56
7/9/2021 1:00:00 AM 25.86 78.548 0.27 7.89 2.07 6.54
7/9/2021 1:15:00 AM 25.85 78.53 0.27 7.89 2.24 6.49
7/9/2021 1:30:00 AM 25.84 78.512 0.27 7.89 2.27 6.5
7/9/2021 1:45:00 AM 25.84 78.512 0.271 7.88 2.08 6.42
7/9/2021 2:00:00 AM 25.83 78.494 0.271 7.88 2.11 6.43
7/9/2021 2:15:00 AM 25.82 78.476 0.271 7.86 2.12 6.43
7/9/2021 2:30:00 AM 25.82 78.476 0.271 7.88 2.22 6.39
7/9/2021 2:45:00 AM 25.81 78.458 0.271 7.87 2.01 6.35
7/9/2021 3:00:00 AM 25.8 78.44 0.271 7.86 2.03 6.35
7/9/2021 3:15:00 AM 25.8 78.44 0.271 7.87 2.02 6.36
7/9/2021 3:30:00 AM 25.79 78.422 0.271 7.86 2.06 6.3
7/9/2021 3:45:00 AM 25.78 78.404 0.271 7.87 1.93 6.28
7/9/2021 4:00:00 AM 25.77 78.386 0.271 7.86 2.03 6.27
7/9/2021 4:15:00 AM 25.77 78.386 0.271 7.86 1.94 6.23
7/9/2021 4:30:00 AM 25.76 78.368 0.271 7.85 1.93 6.23
7/9/2021 4:45:00 AM 25.76 78.368 0.271 7.85 1.83 6.17
7/9/2021 5:00:00 AM 25.74 78.332 0.271 7.84 1.94 6.19
7/9/2021 5:15:00 AM 25.74 78.332 0.271 7.84 1.87 6.13
7/9/2021 5:30:00 AM 25.73 78.314 0.271 7.84 1.9 6.12
7/9/2021 5:45:00 AM 25.72 78.296 0.271 7.84 1.82 6.1
7/9/2021 6:00:00 AM 25.72 78.296 0.271 7.84 1.69 6.09
7/9/2021 6:15:00 AM 25.34 77.612 0 7.64 0.93 8.56
7/9/2021 6:30:00 AM 24.85 76.73 0 7.69 0.9 8.65
7/9/2021 6:45:00 AM 24.48 76.064 0 7.63 0.89 8.71
7/9/2021 7:00:00 AM 24.28 75.704 0 7.58 0.87 8.75
7/9/2021 7:15:00 AM 24.29 75.722 0 7.58 0.92 8.76
7/9/2021 7:30:00 AM 24.21 75.578 0 7.58 0.95 8.76
7/9/2021 7:45:00 AM 24.15 75.47 0 7.59 0.94 8.78
7/9/2021 8:00:00 AM 24.12 75.416 0 7.78 0.92 8.79
7/9/2021 8:15:00 AM 24.28 75.704 0 7.64 0.93 8.78
7/9/2021 8:30:00 AM 24.4 75.92 0 7.62 0.92 8.75
7/9/2021 8:45:00 AM 24.49 76.082 0 7.61 0.96 8.73
7/9/2021 9:00:00 AM 24.57 76.226 0 7.63 0.98 8.71
7/9/2021 9:15:00 AM 24.64 76.352 0 7.75 0.98 8.71
7/9/2021 9:30:00 AM 24.71 76.478 0 7.82 1 8.7
7/9/2021 9:45:00 AM 24.79 76.622 0 7.67 1.54 8.7
7/9/2021 10:00:00 AM 24.85 76.73 0 7.66 9.23 8.69
7/9/2021 10:15:00 AM 24.93 76.874 0 7.77 23.16 8.67
7/9/2021 10:30:00 AM 25.09 77.162 0 7.84 52.88 8.62
7/9/2021 10:45:00 AM 25.41 77.738 0.001 7.78 219.64 8.55
7/9/2021 11:00:00 AM 25.67 78.206 0.106 8.2 189.92 8.5
7/9/2021 11:15:00 AM 25.81 78.458 0.269 7.96 5.88 7.61
7/9/2021 11:30:00 AM 25.87 78.566 0.269 7.96 5.55 7.42
7/9/2021 11:45:00 AM 25.93 78.674 0.269 7.97 5.68 7.44
7/9/2021 12:00:00 PM 25.98 78.764 0.269 7.97 5.42 7.46
7/9/2021 12:15:00 PM 26.05 78.89 0.269 7.98 5.58 7.47
7/9/2021 12:30:00 PM 26.09 78.962 0.269 7.97 5.31 7.49
7/9/2021 12:45:00 PM 26.13 79.034 0.27 7.98 5.46 7.52
7/9/2021 1:00:00 PM 26.16 79.088 0.27 7.98 5.44 7.52
7/9/2021 1:15:00 PM 26.16 79.088 0.27 7.99 5.31 7.54
7/9/2021 1:30:00 PM 26.15 79.07 0.27 7.99 5.44 7.53
7/9/2021 1:45:00 PM 26.14 79.052 0.27 7.99 5.08 7.55
7/9/2021 2:00:00 PM 26.16 79.088 0.27 8 5.2 7.52
7/9/2021 2:15:00 PM 26.23 79.214 0.271 8 5.31 7.55
7/9/2021 2:30:00 PM 26.27 79.286 0.271 7.98 5.28 7.55
7/9/2021 2:45:00 PM 26.3 79.34 0.271 8 5.13 7.54
7/9/2021 3:00:00 PM 26.31 79.358 0.271 7.98 5.02 7.51
7/9/2021 3:15:00 PM 26.32 79.376 0.271 7.98 5.15 7.48
7/9/2021 3:30:00 PM 26.33 79.394 0.271 7.98 4.78 7.44
7/9/2021 3:45:00 PM 26.34 79.412 0.271 7.98 4.78 7.43
7/9/2021 4:00:00 PM 26.33 79.394 0.271 7.96 4.55 7.4
7/9/2021 4:15:00 PM 26.33 79.394 0.271 7.96 4.09 7.4
7/9/2021 4:30:00 PM 26.33 79.394 0.271 7.95 4.23 7.39
7/9/2021 4:45:00 PM 26.32 79.376 0.271 7.97 4.08 7.36
7/9/2021 5:00:00 PM 26.32 79.376 0.271 7.97 4.24 7.34
7/9/2021 5:15:00 PM 26.31 79.358 0.271 7.97 3.95 7.31
7/9/2021 5:30:00 PM 26.3 79.34 0.271 7.97 3.78 7.3
7/9/2021 5:45:00 PM 26.29 79.32201 0.271 7.97 4.13 7.29
7/9/2021 6:00:00 PM 26.28 79.304 0.272 7.96 3.76 7.26
7/9/2021 6:15:00 PM 26.28 79.304 0.272 7.96 3.59 7.25
7/9/2021 6:30:00 PM 26.27 79.286 0.272 7.95 3.72 7.21
7/9/2021 6:45:00 PM 26.26 79.268 0.272 7.95 3.66 7.21
7/9/2021 7:00:00 PM 26.25 79.25 0.272 7.95 3.55 7.18
7/9/2021 7:15:00 PM 26.24 79.232 0.272 7.95 3.53 7.14
7/9/2021 7:30:00 PM 26.23 79.214 0.272 7.95 3.63 7.14
7/9/2021 7:45:00 PM 26.22 79.196 0.272 7.94 3.57 7.1
7/9/2021 8:00:00 PM 26.21 79.17799 0.272 7.95 3.47 7.1
7/9/2021 8:15:00 PM 26.2 79.16 0.272 7.93 3.32 7.07
7/9/2021 8:30:00 PM 26.2 79.16 0.272 7.92 3.09 7.03
7/9/2021 8:45:00 PM 26.19 79.142 0.272 7.92 3.24 6.99
7/9/2021 9:00:00 PM 26.18 79.124 0.272 7.93 3.09 6.99
7/9/2021 9:15:00 PM 26.17 79.106 0.272 7.92 3.07 6.95
7/9/2021 9:30:00 PM 26.16 79.088 0.272 7.91 3.07 6.93
7/9/2021 9:45:00 PM 26.15 79.07 0.272 7.9 2.8 6.9
7/9/2021 10:00:00 PM 26.14 79.052 0.272 7.91 2.96 6.88
7/9/2021 10:15:00 PM 26.14 79.052 0.272 7.9 2.86 6.86
7/9/2021 10:30:00 PM 26.13 79.034 0.272 7.89 2.96 6.81
7/9/2021 10:45:00 PM 26.12 79.016 0.272 7.89 2.82 6.82
7/9/2021 11:00:00 PM 26.11 78.998 0.272 7.89 2.75 6.79
7/9/2021 11:15:00 PM 26.1 78.98 0.272 7.89 2.62 6.74
7/9/2021 11:30:00 PM 26.1 78.98 0.272 7.88 2.88 6.71
7/9/2021 11:45:00 PM 26.09 78.962 0.272 7.88 2.54 6.69
7/10/2021 12:00:00 AM 26.08 78.944 0.272 7.87 2.58 6.63
7/10/2021 12:15:00 AM 26.07 78.926 0.273 7.87 2.6 6.62
7/10/2021 12:30:00 AM 26.07 78.926 0.273 7.87 2.64 6.61
7/10/2021 12:45:00 AM 26.06 78.908 0.273 7.85 2.5 6.6
7/10/2021 1:00:00 AM 26.05 78.89 0.273 7.86 2.48 6.55
7/10/2021 1:15:00 AM 26.04 78.872 0.273 7.86 2.42 6.55
7/10/2021 1:30:00 AM 26.03 78.854 0.273 7.83 2.31 6.49
7/10/2021 1:45:00 AM 26.03 78.854 0.273 7.84 2.4 6.46
7/10/2021 2:00:00 AM 26.02 78.836 0.273 7.83 2.43 6.44
7/10/2021 2:15:00 AM 26.01 78.818 0.273 7.84 2.47 6.41
7/10/2021 2:30:00 AM 26 78.8 0.273 7.83 2.23 6.38
7/10/2021 2:45:00 AM 25.99 78.782 0.273 7.81 2.28 6.35
7/10/2021 3:00:00 AM 25.99 78.782 0.273 7.81 2.19 6.34
7/10/2021 3:15:00 AM 25.98 78.764 0.273 7.82 2.44 6.32
7/10/2021 3:30:00 AM 25.97 78.746 0.273 7.81 2.23 6.29
7/10/2021 3:45:00 AM 25.96 78.728 0.273 7.8 2.1 6.27
7/10/2021 4:00:00 AM 25.95 78.71 0.273 7.81 2.23 6.25
7/10/2021 4:15:00 AM 25.94 78.692 0.273 7.81 2.13 6.23
7/10/2021 4:30:00 AM 25.9 78.62 0.273 7.8 2.22 6.2
7/10/2021 4:45:00 AM 25.85 78.53 0.273 7.79 2.22 6.18
7/10/2021 5:00:00 AM 25.8 78.44 0.273 7.8 2.25 6.18
7/10/2021 5:15:00 AM 25.75 78.35 0.273 7.8 2.1 6.2
7/10/2021 5:30:00 AM 25.71 78.278 0.273 7.81 2.26 6.21
7/10/2021 5:45:00 AM 25.68 78.224 0.274 7.81 2.21 6.31
7/10/2021 6:00:00 AM 25.64 78.152 0.274 7.82 2.2 6.26
7/10/2021 6:15:00 AM 25.6 78.08 0.274 7.82 2.2 6.28
7/10/2021 6:30:00 AM 25.56 78.008 0.274 7.83 2.09 6.24
7/10/2021 6:45:00 AM 25.52 77.936 0.274 7.81 2.14 6.29
7/10/2021 7:00:00 AM 25.49 77.882 0.274 7.83 2.04 6.33
7/10/2021 7:15:00 AM 25.47 77.846 0.274 7.83 2.13 6.31
7/10/2021 7:30:00 AM 25.44 77.792 0.274 7.84 2.09 6.32
7/10/2021 7:45:00 AM 25.41 77.738 0.274 7.84 2.26 6.35
7/10/2021 8:00:00 AM 25.39 77.702 0.274 7.85 2.34 6.4
7/10/2021 8:15:00 AM 25.37 77.666 0.274 7.84 2.04 6.42
7/10/2021 8:30:00 AM 25.35 77.63 0.274 7.85 2.03 6.37
7/10/2021 8:45:00 AM 25.33 77.594 0.274 7.85 2.06 6.4
7/10/2021 9:00:00 AM 25.32 77.576 0.274 7.85 1.98 6.42
7/10/2021 9:15:00 AM 25.31 77.558 0.274 7.85 2.07 6.41
7/10/2021 9:30:00 AM 25.3 77.54 0.274 7.87 2.01 6.39
7/10/2021 9:45:00 AM 25.3 77.54 0.274 7.86 2.04 6.35
7/10/2021 10:00:00 AM 25.31 77.558 0.274 7.86 1.87 6.32
7/10/2021 10:15:00 AM 25.33 77.594 0.274 7.87 1.8 6.32
7/10/2021 10:30:00 AM 25.32 77.576 0.274 7.87 2.22 6.4
7/10/2021 10:45:00 AM 25.32 77.576 0.274 7.88 1.82 6.44
7/10/2021 11:00:00 AM 25.32 77.576 0.274 7.88 1.96 6.41
7/10/2021 11:15:00 AM 25.33 77.594 0.274 7.87 1.85 6.39
7/10/2021 11:30:00 AM 25.36 77.648 0.274 7.88 2.02 6.44
7/10/2021 11:45:00 AM 25.4 77.72 0.273 7.89 2.33 6.58
7/10/2021 12:00:00 PM 25.41 77.738 0.272 7.91 2.53 6.84
7/10/2021 12:15:00 PM 25.44 77.792 0.271 7.92 2.22 6.82
7/10/2021 12:30:00 PM 25.46 77.828 0.271 7.91 2.4 6.83
7/10/2021 12:45:00 PM 25.47 77.846 0.271 7.9 2.19 6.85
7/10/2021 1:00:00 PM 25.47 77.846 0.271 7.93 2.31 6.87
7/10/2021 1:15:00 PM 25.47 77.846 0.271 7.91 2.17 6.86
7/10/2021 1:30:00 PM 25.47 77.846 0.271 7.91 1.91 6.85
7/10/2021 1:45:00 PM 25.47 77.846 0.271 7.92 1.97 6.84
7/10/2021 2:00:00 PM 25.47 77.846 0.27 7.91 2.01 6.84
7/10/2021 2:15:00 PM 25.46 77.828 0.27 7.92 2.08 6.84
7/10/2021 2:30:00 PM 25.46 77.828 0.27 7.92 2.16 6.83
7/10/2021 2:45:00 PM 25.46 77.828 0.27 7.91 2.22 6.81
7/10/2021 3:00:00 PM 25.45 77.81 0.27 7.91 1.79 6.81
7/10/2021 3:15:00 PM 25.45 77.81 0.27 7.91 2.02 6.81
7/10/2021 3:30:00 PM 25.44 77.792 0.27 7.91 1.82 6.8
7/10/2021 3:45:00 PM 25.44 77.792 0.27 7.91 1.93 6.79
7/10/2021 4:00:00 PM 25.43 77.774 0.27 7.91 1.94 6.77
7/10/2021 4:15:00 PM 25.42 77.756 0.27 7.9 1.84 6.75
7/10/2021 4:30:00 PM 25.42 77.756 0.27 7.91 1.75 6.74
7/10/2021 4:45:00 PM 25.41 77.738 0.27 7.9 1.67 6.73
7/10/2021 5:00:00 PM 25.41 77.738 0.27 7.89 1.67 6.72
7/10/2021 5:15:00 PM 25.4 77.72 0.27 7.9 1.68 6.71
7/10/2021 5:30:00 PM 25.39 77.702 0.27 7.9 1.72 6.69
7/10/2021 5:45:00 PM 25.39 77.702 0.27 7.9 1.67 6.68
7/10/2021 6:00:00 PM 25.38 77.684 0.27 7.9 1.54 6.67
7/10/2021 6:15:00 PM 25.38 77.684 0.27 7.89 1.62 6.65
7/10/2021 6:30:00 PM 25.37 77.666 0.27 7.89 1.63 6.64
7/10/2021 6:45:00 PM 25.36 77.648 0.27 7.9 1.64 6.62
7/10/2021 7:00:00 PM 25.36 77.648 0.27 7.89 1.66 6.6
7/10/2021 7:15:00 PM 25.35 77.63 0.27 7.88 1.54 6.6
7/10/2021 7:30:00 PM 25.35 77.63 0.27 7.89 1.49 6.59
7/10/2021 7:45:00 PM 25.34 77.612 0.27 7.89 1.33 6.57
7/10/2021 8:00:00 PM 25.33 77.594 0.27 7.87 1.59 6.55
7/10/2021 8:15:00 PM 25.33 77.594 0.27 7.88 1.58 6.53
7/10/2021 8:30:00 PM 25.32 77.576 0.27 7.87 1.5 6.52
7/10/2021 8:45:00 PM 25.32 77.576 0.27 7.88 1.4 6.51
7/10/2021 9:00:00 PM 25.31 77.558 0.27 7.87 1.46 6.48
7/10/2021 9:15:00 PM 25.3 77.54 0.27 7.87 1.41 6.47
7/10/2021 9:30:00 PM 25.3 77.54 0.27 7.85 1.44 6.44
7/10/2021 9:45:00 PM 25.29 77.522 0.27 7.85 1.5 6.42
7/10/2021 10:00:00 PM 25.29 77.522 0.27 7.85 1.38 6.42
7/10/2021 10:15:00 PM 25.28 77.504 0.27 7.85 1.36 6.39
7/10/2021 10:30:00 PM 25.28 77.504 0.27 7.86 1.39 6.39
7/10/2021 10:45:00 PM 25.27 77.486 0.27 7.85 1.36 6.37
7/10/2021 11:00:00 PM 25.26 77.468 0.27 7.84 1.32 6.33
7/10/2021 11:15:00 PM 25.26 77.468 0.27 7.85 1.32 6.33
7/10/2021 11:30:00 PM 25.25 77.45 0.27 7.85 1.37 6.3
7/10/2021 11:45:00 PM 25.24 77.432 0.27 7.85 1.34 6.31
7/11/2021 12:00:00 AM 25.24 77.432 0.27 7.84 1.4 6.29
7/11/2021 12:15:00 AM 25.23 77.414 0.27 7.83 1.31 6.26
7/11/2021 12:30:00 AM 25.22 77.396 0.27 7.82 1.29 6.24
7/11/2021 12:45:00 AM 25.22 77.396 0.27 7.83 1.25 6.25
7/11/2021 1:00:00 AM 25.21 77.378 0.27 7.83 1.32 6.21
7/11/2021 1:15:00 AM 25.21 77.378 0.27 7.82 1.29 6.18
7/11/2021 1:30:00 AM 25.2 77.36 0.27 7.82 1.26 6.2
7/11/2021 1:45:00 AM 25.19 77.342 0.27 7.82 1.14 6.16
7/11/2021 2:00:00 AM 25.19 77.342 0.27 7.82 1.22 6.15
7/11/2021 2:15:00 AM 25.18 77.324 0.27 7.82 1.21 6.12
7/11/2021 2:30:00 AM 25.17 77.306 0.27 7.82 1.3 6.1
7/11/2021 2:45:00 AM 25.16 77.288 0.27 7.81 1.27 6.1
7/11/2021 3:00:00 AM 25.16 77.288 0.27 7.81 1.23 6.07
7/11/2021 3:15:00 AM 25.15 77.27 0.27 7.81 1.19 6.03
7/11/2021 3:30:00 AM 25.14 77.252 0.27 7.8 1.08 6.04
7/11/2021 3:45:00 AM 25.14 77.252 0.27 7.8 1.16 5.99
7/11/2021 4:00:00 AM 25.13 77.234 0.27 7.8 1.13 5.99
7/11/2021 4:15:00 AM 25.13 77.234 0.27 7.78 1.2 5.95
7/11/2021 4:30:00 AM 25.12 77.216 0.27 7.79 1.16 5.94
7/11/2021 4:45:00 AM 25.11 77.198 0.27 7.79 1.1 5.89
7/11/2021 5:00:00 AM 25.1 77.18 0.27 7.79 1.09 5.89
7/11/2021 5:15:00 AM 25.08 77.144 0.27 7.78 1.34 5.87
7/11/2021 5:30:00 AM 25.02 77.036 0.27 7.75 1.55 5.82
7/11/2021 5:45:00 AM 24.98 76.964 0.27 7.74 1.52 5.78
7/11/2021 6:00:00 AM 24.95 76.91 0.269 7.74 2.64 5.78
7/11/2021 6:15:00 AM 24.91 76.838 0.267 7.73 2.23 5.8
7/11/2021 6:30:00 AM 24.86 76.748 0.265 7.74 1.96 5.82
7/11/2021 6:45:00 AM 24.8 76.64 0.261 7.74 2.51 5.91
7/11/2021 7:00:00 AM 24.76 76.568 0.259 7.74 3.29 5.98
7/11/2021 7:15:00 AM 24.73 76.514 0.256 7.73 3.12 6.01
7/11/2021 7:30:00 AM 24.69 76.442 0.254 7.73 3.55 6.06
7/11/2021 7:45:00 AM 24.65 76.37 0.254 7.75 3.85 6.09
7/11/2021 8:00:00 AM 24.62 76.316 0.252 7.75 3.91 6.09
7/11/2021 8:15:00 AM 24.58 76.244 0.25 7.75 4.64 6.12
7/11/2021 8:30:00 AM 24.55 76.19 0.249 7.76 3.76 6.14
7/11/2021 8:45:00 AM 24.52 76.136 0.248 7.76 4.2 6.14
7/11/2021 9:00:00 AM 24.49 76.082 0.248 7.76 4.73 6.11
7/11/2021 9:15:00 AM 24.46 76.028 0.249 7.76 4.02 6.1
7/11/2021 9:30:00 AM 24.44 75.992 0.248 7.76 4.15 6.09
7/11/2021 9:45:00 AM 24.42 75.956 0.247 7.75 4.2 6.1
7/11/2021 10:00:00 AM 24.41 75.938 0.246 7.76 4.21 6.11
7/11/2021 10:15:00 AM 24.4 75.92 0.245 7.77 3.75 6.12
7/11/2021 10:30:00 AM 24.39 75.902 0.244 7.76 4.28 6.15
7/11/2021 10:45:00 AM 24.38 75.884 0.244 7.77 3.91 6.08
7/11/2021 11:00:00 AM 24.37 75.866 0.244 7.77 3.82 6.07
7/11/2021 11:15:00 AM 24.36 75.848 0.244 7.77 3.87 6.06
7/11/2021 11:30:00 AM 24.35 75.83 0.243 7.79 4.16 6.02
7/11/2021 11:45:00 AM 24.34 75.812 0.243 7.77 3.97 6.03
7/11/2021 12:00:00 PM 24.34 75.812 0.24 7.77 3.89 6.17
7/11/2021 12:15:00 PM 24.33 75.794 0.239 7.78 4.02 6.15
7/11/2021 12:30:00 PM 24.33 75.794 0.24 7.77 3.84 6.09
7/11/2021 12:45:00 PM 24.34 75.812 0.24 7.77 3.81 6.02
7/11/2021 1:00:00 PM 24.34 75.812 0.239 7.77 5.47 6.16
7/11/2021 1:15:00 PM 24.33 75.794 0.238 7.77 4.59 6.19
7/11/2021 1:30:00 PM 24.33 75.794 0.235 7.78 6.23 6.36
7/11/2021 1:45:00 PM 24.34 75.812 0.232 7.78 5.15 6.52
7/11/2021 2:00:00 PM 24.34 75.812 0.233 7.78 5.32 6.48
7/11/2021 2:15:00 PM 24.33 75.794 0.233 7.78 5.23 6.52
7/11/2021 2:30:00 PM 24.33 75.794 0.233 7.78 5.2 6.5
7/11/2021 2:45:00 PM 24.33 75.794 0.231 7.78 5.24 6.47
7/11/2021 3:00:00 PM 24.33 75.794 0.232 7.75 5.44 6.46
7/11/2021 3:15:00 PM 24.33 75.794 0.232 7.78 4.82 6.44
7/11/2021 3:30:00 PM 24.33 75.794 0.232 7.78 4.57 6.41
7/11/2021 3:45:00 PM 24.33 75.794 0.232 7.8 4.38 6.4
7/11/2021 4:00:00 PM 24.33 75.794 0.231 7.78 4.55 6.41
7/11/2021 4:15:00 PM 24.33 75.794 0.231 7.78 4.34 6.38
7/11/2021 4:30:00 PM 24.33 75.794 0.231 7.77 4.68 6.36
7/11/2021 4:45:00 PM 24.33 75.794 0.232 7.78 4.22 6.36
7/11/2021 5:00:00 PM 24.33 75.794 0.232 7.78 3.85 6.34
7/11/2021 5:15:00 PM 24.32 75.776 0.232 7.77 3.87 6.32
7/11/2021 5:30:00 PM 24.32 75.776 0.232 7.78 3.82 6.29
7/11/2021 5:45:00 PM 24.32 75.776 0.232 7.78 3.84 6.28
7/11/2021 6:00:00 PM 24.32 75.776 0.231 7.77 3.64 6.26
7/11/2021 6:15:00 PM 24.32 75.776 0.231 7.76 3.7 6.23
7/11/2021 6:30:00 PM 24.32 75.776 0.231 7.75 3.77 6.22
7/11/2021 6:45:00 PM 24.32 75.776 0.231 7.75 3.51 6.21
7/11/2021 7:00:00 PM 24.31 75.758 0.231 7.77 3.74 6.2
7/11/2021 7:15:00 PM 24.31 75.758 0.231 7.75 3.42 6.18
7/11/2021 7:30:00 PM 24.31 75.758 0.231 7.76 3.58 6.15
7/11/2021 7:45:00 PM 24.31 75.758 0.231 7.76 3.67 6.14
7/11/2021 8:00:00 PM 24.31 75.758 0.231 7.71 3.52 6.13
7/11/2021 8:15:00 PM 24.31 75.758 0.231 7.73 3.44 6.1
7/11/2021 8:30:00 PM 24.3 75.74 0.231 7.71 3.32 6.08
7/11/2021 8:45:00 PM 24.3 75.74 0.231 7.72 3.29 6.07
7/11/2021 9:00:00 PM 24.3 75.74 0.231 7.74 3.24 6.04
7/11/2021 9:15:00 PM 24.3 75.74 0.231 7.73 3.32 6.03
7/11/2021 9:30:00 PM 24.29 75.722 0.231 7.72 3.18 6
7/11/2021 9:45:00 PM 24.29 75.722 0.23 7.71 3.27 6
7/11/2021 10:00:00 PM 24.29 75.722 0.231 7.73 3.21 5.98
7/11/2021 10:15:00 PM 24.28 75.704 0.23 7.72 3.22 5.95
7/11/2021 10:30:00 PM 24.28 75.704 0.23 7.7 3.14 5.92
7/11/2021 10:45:00 PM 24.28 75.704 0.23 7.7 3.15 5.9
7/11/2021 11:00:00 PM 24.28 75.704 0.23 7.72 3.08 5.91
7/11/2021 11:15:00 PM 24.27 75.686 0.231 7.7 2.99 5.88
7/11/2021 11:30:00 PM 24.27 75.686 0.231 7.71 3 5.87
7/11/2021 11:45:00 PM 24.27 75.686 0.23 7.68 2.95 5.85
7/12/2021 12:00:00 AM 24.26 75.668 0.231 7.7 2.89 5.85
7/12/2021 12:15:00 AM 24.26 75.668 0.23 7.71 2.94 5.83
7/12/2021 12:30:00 AM 24.26 75.668 0.23 7.67 2.89 5.81
7/12/2021 12:45:00 AM 24.26 75.668 0.231 7.7 2.91 5.8
7/12/2021 1:00:00 AM 24.25 75.65 0.23 7.69 3.08 5.75
7/12/2021 1:15:00 AM 24.25 75.65 0.23 7.67 2.87 5.71
7/12/2021 1:30:00 AM 24.25 75.65 0.23 7.67 2.97 5.71
7/12/2021 1:45:00 AM 24.24 75.632 0.23 7.67 2.76 5.69
7/12/2021 2:00:00 AM 24.24 75.632 0.23 7.67 2.64 5.65
7/12/2021 2:15:00 AM 24.24 75.632 0.23 7.67 2.79 5.66
7/12/2021 2:30:00 AM 24.23 75.614 0.23 7.68 2.68 5.66
7/12/2021 2:45:00 AM 24.23 75.614 0.23 7.68 2.71 5.65
7/12/2021 3:00:00 AM 24.22 75.596 0.23 7.67 2.63 5.6
7/12/2021 3:15:00 AM 24.22 75.596 0.23 7.68 2.56 5.6
7/12/2021 3:30:00 AM 24.22 75.596 0.23 7.66 2.66 5.58
7/12/2021 3:45:00 AM 24.21 75.578 0.23 7.65 2.61 5.54
7/12/2021 4:00:00 AM 24.21 75.578 0.23 7.65 2.61 5.51
7/12/2021 4:15:00 AM 24.21 75.578 0.23 7.63 2.58 5.49
7/12/2021 4:30:00 AM 24.2 75.56 0.23 7.65 2.67 5.47
7/12/2021 4:45:00 AM 24.2 75.56 0.23 7.66 2.56 5.47
7/12/2021 5:00:00 AM 24.19 75.542 0.23 7.66 2.51 5.43
7/12/2021 5:15:00 AM 24.19 75.542 0.23 7.62 2.54 5.38
7/12/2021 5:30:00 AM 24.19 75.542 0.23 7.62 2.46 5.38
7/12/2021 5:45:00 AM 24.18 75.524 0.23 7.65 2.41 5.4
7/12/2021 6:00:00 AM 24.17 75.506 0.23 7.67 2.31 5.34
7/12/2021 6:15:00 AM 24.15 75.47 0.23 7.66 2.45 5.3
7/12/2021 6:30:00 AM 24.16 75.488 0.23 7.64 2.35 5.26
7/12/2021 6:45:00 AM 24.18 75.524 0.231 7.65 2.54 5.22
7/12/2021 7:00:00 AM 24.2 75.56 0.231 7.61 3.12 5.23
7/12/2021 7:15:00 AM 24.22 75.596 0.231 7.59 3.09 5.16
7/12/2021 7:30:00 AM 24.23 75.614 0.231 7.59 3.05 5.13
7/12/2021 7:45:00 AM 24.24 75.632 0.231 7.58 2.81 5.07
7/12/2021 8:00:00 AM 24.25 75.65 0.232 7.58 2.72 5.03
7/12/2021 8:15:00 AM 24.27 75.686 0.232 7.58 2.66 5.01
7/12/2021 8:30:00 AM 24.29 75.722 0.233 7.58 2.9 5
7/12/2021 8:45:00 AM 24.32 75.776 0.233 7.57 2.86 4.92
7/12/2021 9:00:00 AM 24.34 75.812 0.234 7.55 2.99 5.05
7/12/2021 9:15:00 AM 24.36 75.848 0.235 7.53 3.13 5.05
7/12/2021 9:30:00 AM 24.38 75.884 0.235 7.52 2.99 4.99
7/12/2021 9:45:00 AM 24.39 75.902 0.236 7.52 3.45 5.03
7/12/2021 10:00:00 AM 24.42 75.956 0.236 7.52 3.04 5.13
7/12/2021 10:15:00 AM 24.43 75.974 0.237 7.51 3.07 5.05
7/12/2021 10:30:00 AM 24.46 76.028 0.237 7.51 3.28 5.02
7/12/2021 10:45:00 AM 24.5 76.1 0.238 7.51 3.37 4.96
7/12/2021 11:00:00 AM 24.54 76.172 0.239 7.52 3.72 5.07
7/12/2021 11:15:00 AM 24.6 76.28 0.24 7.53 3.55 5.17
7/12/2021 11:30:00 AM 24.66 76.388 0.24 7.55 3.76 4.99
7/12/2021 11:45:00 AM 24.71 76.478 0.241 7.55 4.02 5.36
7/12/2021 12:00:00 PM 24.74 76.532 0.241 7.54 3.84 5.35
7/12/2021 12:15:00 PM 24.78 76.604 0.242 7.57 4.42 5.53
7/12/2021 12:30:00 PM 24.82 76.676 0.242 7.57 3.89 5.63
7/12/2021 12:45:00 PM 24.86 76.748 0.243 7.54 4.62 5.59
7/12/2021 1:00:00 PM 24.92 76.856 0.243 7.54 4.18 5.68
7/12/2021 1:15:00 PM 25.02 77.036 0.244 7.59 4.72 5.75
7/12/2021 1:30:00 PM 25.13 77.234 0.244 7.6 5.34 6.08
7/12/2021 1:45:00 PM 25.19 77.342 0.245 7.61 4.94 6.15
7/12/2021 2:00:00 PM 25.27 77.486 0.245 7.62 4.98 6.23
7/12/2021 2:15:00 PM 25.33 77.594 0.245 7.58 5.67 6.29
7/12/2021 2:30:00 PM 25.39 77.702 0.246 7.59 5.89 6.32
7/12/2021 2:45:00 PM 25.45 77.81 0.246 7.58 5.69 5.85
7/12/2021 3:00:00 PM 25.5 77.9 0.246 7.59 5.49 6.32
7/12/2021 3:15:00 PM 25.51 77.918 0.246 7.7 6.64 6.82
7/12/2021 3:30:00 PM 25.52 77.936 0.245 7.71 5.55 6.87
7/12/2021 3:45:00 PM 25.53 77.954 0.245 7.72 5.65 6.97
7/12/2021 4:00:00 PM 25.53 77.954 0.245 7.72 6.04 7.02
7/12/2021 4:15:00 PM 25.53 77.954 0.245 7.76 5.24 6.99
7/12/2021 4:30:00 PM 25.53 77.954 0.245 7.74 5.31 6.89
7/12/2021 4:45:00 PM 25.53 77.954 0.245 7.74 4.74 6.87
7/12/2021 5:00:00 PM 25.52 77.936 0.245 7.73 4.31 6.81
7/12/2021 5:15:00 PM 25.52 77.936 0.245 7.73 4.38 6.84
7/12/2021 5:30:00 PM 25.52 77.936 0.245 7.76 4.06 6.81
7/12/2021 5:45:00 PM 25.51 77.918 0.245 7.74 4.32 6.77
7/12/2021 6:00:00 PM 25.5 77.9 0.246 7.75 4.16 6.73
7/12/2021 6:15:00 PM 25.5 77.9 0.245 7.74 4.14 6.73
7/12/2021 6:30:00 PM 25.49 77.882 0.246 7.75 3.89 6.69
7/12/2021 6:45:00 PM 25.49 77.882 0.246 7.74 3.97 6.71
7/12/2021 7:00:00 PM 25.48 77.864 0.245 7.74 3.66 6.68
7/12/2021 7:15:00 PM 25.47 77.846 0.246 7.73 3.8 6.57
7/12/2021 7:30:00 PM 25.47 77.846 0.246 7.74 3.81 6.57
7/12/2021 7:45:00 PM 25.46 77.828 0.246 7.73 3.58 6.54
7/12/2021 8:00:00 PM 25.45 77.81 0.246 7.72 3.59 6.53
7/12/2021 8:15:00 PM 25.44 77.792 0.246 7.74 3.61 6.48
7/12/2021 8:30:00 PM 25.44 77.792 0.246 7.74 3.4 6.44
7/12/2021 8:45:00 PM 25.43 77.774 0.246 7.74 3.65 6.41
7/12/2021 9:00:00 PM 25.42 77.756 0.246 7.7 3.42 6.38
7/12/2021 9:15:00 PM 25.42 77.756 0.246 7.74 3.56 6.43
7/12/2021 9:30:00 PM 25.41 77.738 0.246 7.74 3.45 6.39
7/12/2021 9:45:00 PM 25.4 77.72 0.246 7.74 3.43 6.39
7/12/2021 10:00:00 PM 25.4 77.72 0.246 7.72 3.34 6.32
7/12/2021 10:15:00 PM 25.39 77.702 0.246 7.73 3.24 6.29
7/12/2021 10:30:00 PM 25.38 77.684 0.246 7.73 3.39 6.31
7/12/2021 10:45:00 PM 25.37 77.666 0.246 7.73 3.18 6.26
7/12/2021 11:00:00 PM 25.37 77.666 0.246 7.73 3.23 6.23
7/12/2021 11:15:00 PM 25.36 77.648 0.246 7.73 3.22 6.21
7/12/2021 11:30:00 PM 25.35 77.63 0.246 7.73 3.09 6.21
7/12/2021 11:45:00 PM 25.35 77.63 0.246 7.7 3.01 6.18
7/13/2021 12:00:00 AM 25.34 77.612 0.246 7.72 3.11 6.12
7/13/2021 12:15:00 AM 25.33 77.594 0.246 7.73 3.06 6.11
7/13/2021 12:30:00 AM 25.33 77.594 0.246 7.72 2.91 6.08
7/13/2021 12:45:00 AM 25.32 77.576 0.246 7.71 3.01 6.05
7/13/2021 1:00:00 AM 25.32 77.576 0.246 7.72 2.9 6.07
7/13/2021 1:15:00 AM 25.31 77.558 0.246 7.72 2.9 6.04
7/13/2021 1:30:00 AM 25.3 77.54 0.246 7.72 2.81 6.02
7/13/2021 1:45:00 AM 25.29 77.522 0.246 7.72 2.81 5.99
7/13/2021 2:00:00 AM 25.29 77.522 0.246 7.72 2.87 5.96
7/13/2021 2:15:00 AM 25.28 77.504 0.246 7.71 2.77 5.93
7/13/2021 2:30:00 AM 25.28 77.504 0.246 7.72 2.9 5.91
7/13/2021 2:45:00 AM 25.27 77.486 0.246 7.72 2.73 5.91
7/13/2021 3:00:00 AM 25.26 77.468 0.246 7.71 2.72 5.86
7/13/2021 3:15:00 AM 25.26 77.468 0.246 7.7 2.69 5.87
7/13/2021 3:30:00 AM 25.25 77.45 0.246 7.72 2.7 5.83
7/13/2021 3:45:00 AM 25.25 77.45 0.246 7.72 2.71 5.82
7/13/2021 4:00:00 AM 25.24 77.432 0.246 7.72 2.55 5.81
7/13/2021 4:15:00 AM 25.23 77.414 0.246 7.71 2.67 5.77
7/13/2021 4:30:00 AM 25.23 77.414 0.246 7.71 2.57 5.74
7/13/2021 4:45:00 AM 25.22 77.396 0.246 7.7 2.66 5.71
7/13/2021 5:00:00 AM 25.22 77.396 0.246 7.72 2.57 5.66
7/13/2021 5:15:00 AM 25.2 77.36 0.246 7.72 2.48 5.64
7/13/2021 5:30:00 AM 25.12 77.216 0.246 7.7 2.56 5.64
7/13/2021 5:45:00 AM 25.01 77.018 0.246 7.71 2.62 5.62
7/13/2021 6:00:00 AM 24.91 76.838 0.246 7.7 2.42 5.6
7/13/2021 6:15:00 AM 24.82 76.676 0.246 7.7 2.61 5.55
7/13/2021 6:30:00 AM 24.75 76.55 0.245 7.71 2.61 5.6
7/13/2021 6:45:00 AM 24.69 76.442 0.245 7.7 2.8 5.54
7/13/2021 7:00:00 AM 24.65 76.37 0.244 7.71 2.97 5.6
7/13/2021 7:15:00 AM 24.61 76.298 0.244 7.72 3.44 5.68
7/13/2021 7:30:00 AM 24.58 76.244 0.243 7.72 3.56 5.71
7/13/2021 7:45:00 AM 24.55 76.19 0.244 7.72 2.92 5.64
7/13/2021 8:00:00 AM 24.54 76.172 0.243 7.71 3.03 5.64
7/13/2021 8:15:00 AM 24.53 76.154 0.243 7.72 2.88 5.61
7/13/2021 8:30:00 AM 24.53 76.154 0.243 7.73 2.82 5.53
7/13/2021 8:45:00 AM 24.53 76.154 0.244 7.72 2.72 5.37
7/13/2021 9:00:00 AM 24.54 76.172 0.244 7.72 2.76 5.34
7/13/2021 9:15:00 AM 24.54 76.172 0.244 7.72 3.11 5.28
7/13/2021 9:30:00 AM 24.54 76.172 0.243 7.7 2.76 5.3
7/13/2021 9:45:00 AM 24.54 76.172 0.243 7.7 2.65 5.24
7/13/2021 10:00:00 AM 24.54 76.172 0.243 7.71 3.02 5.24
7/13/2021 10:15:00 AM 24.54 76.172 0.243 7.72 2.81 5.25
7/13/2021 10:30:00 AM 24.55 76.19 0.243 7.7 2.59 5.14
7/13/2021 10:45:00 AM 24.55 76.19 0.243 7.69 2.52 5.09
7/13/2021 11:00:00 AM 24.56 76.208 0.242 7.7 2.86 5.05
7/13/2021 11:15:00 AM 24.58 76.244 0.241 7.69 3.17 5.22
7/13/2021 11:30:00 AM 24.61 76.298 0.239 7.7 3.5 5.48
7/13/2021 11:45:00 AM 24.63 76.334 0.237 7.73 4.68 6.08
7/13/2021 12:00:00 PM 24.65 76.37 0.236 7.73 5.24 6.09
7/13/2021 12:15:00 PM 24.68 76.424 0.235 7.75 4.79 6.2
7/13/2021 12:30:00 PM 24.7 76.46 0.236 7.74 4.55 6.22
7/13/2021 12:45:00 PM 24.72 76.496 0.235 7.76 4.77 6.2
7/13/2021 1:00:00 PM 24.75 76.55 0.235 7.76 5.52 6.29
7/13/2021 1:15:00 PM 24.77 76.586 0.235 7.75 4.65 6.29
7/13/2021 1:30:00 PM 24.81 76.658 0.235 7.76 4.75 6.25
7/13/2021 1:45:00 PM 24.85 76.73 0.235 7.77 5.65 6.31
7/13/2021 2:00:00 PM 24.91 76.838 0.234 7.75 5.18 6.32
7/13/2021 2:15:00 PM 24.97 76.946 0.234 7.76 5.45 6.39
7/13/2021 2:30:00 PM 25.03 77.054 0.232 7.78 6.34 6.76
7/13/2021 2:45:00 PM 25.05 77.09 0.232 7.77 5.9 6.64
7/13/2021 3:00:00 PM 25.08 77.144 0.231 7.78 5.74 6.74
7/13/2021 3:15:00 PM 25.1 77.18 0.231 7.79 5.84 6.82
7/13/2021 3:30:00 PM 25.1 77.18 0.231 7.79 5.83 6.77
7/13/2021 3:45:00 PM 25.1 77.18 0.232 7.78 5.35 6.79
7/13/2021 4:00:00 PM 25.11 77.198 0.232 7.78 5.25 6.66
7/13/2021 4:15:00 PM 25.11 77.198 0.232 7.78 5.32 6.67
7/13/2021 4:30:00 PM 25.1 77.18 0.231 7.78 5.2 6.72
7/13/2021 4:45:00 PM 25.1 77.18 0.231 7.78 5.34 6.74
7/13/2021 5:00:00 PM 25.1 77.18 0.231 7.8 5.24 6.8
7/13/2021 5:15:00 PM 25.09 77.162 0.23 7.8 5.37 6.83
7/13/2021 5:30:00 PM 25.09 77.162 0.23 7.8 5.11 6.81
7/13/2021 5:45:00 PM 25.08 77.144 0.23 7.79 5.5 6.82
7/13/2021 6:00:00 PM 25.08 77.144 0.23 7.79 5.1 6.79
7/13/2021 6:15:00 PM 25.07 77.126 0.23 7.79 5.27 6.83
7/13/2021 6:30:00 PM 25.07 77.126 0.23 7.79 5.1 6.85
7/13/2021 6:45:00 PM 25.06 77.108 0.23 7.78 4.95 6.81
7/13/2021 7:00:00 PM 25.05 77.09 0.23 7.77 4.93 6.77
7/13/2021 7:15:00 PM 25.05 77.09 0.23 7.78 4.73 6.79
7/13/2021 7:30:00 PM 25.04 77.07201 0.23 7.78 4.75 6.72
7/13/2021 7:45:00 PM 25.04 77.07201 0.23 7.77 4.75 6.72
7/13/2021 8:00:00 PM 25.03 77.054 0.23 7.77 4.92 6.71
7/13/2021 8:15:00 PM 25.02 77.036 0.23 7.77 4.68 6.7
7/13/2021 8:30:00 PM 25.02 77.036 0.23 7.78 4.58 6.65
7/13/2021 8:45:00 PM 25.01 77.018 0.23 7.76 4.76 6.61
7/13/2021 9:00:00 PM 25.01 77.018 0.23 7.77 4.74 6.61
7/13/2021 9:15:00 PM 25 77 0.23 7.75 4.66 6.59
7/13/2021 9:30:00 PM 25 77 0.23 7.76 4.64 6.56
7/13/2021 9:45:00 PM 24.99 76.982 0.23 7.75 4.61 6.52
7/13/2021 10:00:00 PM 24.98 76.964 0.23 7.76 4.55 6.51
7/13/2021 10:15:00 PM 24.98 76.964 0.23 7.75 4.36 6.48
7/13/2021 10:30:00 PM 24.97 76.946 0.23 7.75 4.31 6.45
7/13/2021 10:45:00 PM 24.97 76.946 0.23 7.76 4.31 6.45
7/13/2021 11:00:00 PM 24.96 76.92799 0.23 7.73 4.17 6.37
7/13/2021 11:15:00 PM 24.96 76.92799 0.23 7.73 4.26 6.36
7/13/2021 11:30:00 PM 24.95 76.91 0.23 7.75 4.17 6.36
7/13/2021 11:45:00 PM 24.95 76.91 0.23 7.74 4.45 6.33
7/14/2021 12:00:00 AM 24.94 76.892 0.23 7.73 4.15 6.28
7/14/2021 12:15:00 AM 24.94 76.892 0.23 7.73 4.2 6.3
7/14/2021 12:30:00 AM 24.93 76.874 0.23 7.73 4.41 6.28
7/14/2021 12:45:00 AM 24.93 76.874 0.23 7.73 3.97 6.27
7/14/2021 1:00:00 AM 24.92 76.856 0.23 7.73 3.92 6.26
7/14/2021 1:15:00 AM 24.92 76.856 0.23 7.73 3.83 6.25
7/14/2021 1:30:00 AM 24.91 76.838 0.23 7.73 3.95 6.21
7/14/2021 1:45:00 AM 24.91 76.838 0.23 7.73 3.84 6.2
7/14/2021 2:00:00 AM 24.9 76.82 0.23 7.72 4.06 6.18
7/14/2021 2:15:00 AM 24.89 76.802 0.23 7.72 3.86 6.19
7/14/2021 2:30:00 AM 24.89 76.802 0.23 7.72 3.84 6.17
7/14/2021 2:45:00 AM 24.88 76.784 0.23 7.71 4.09 6.22
7/14/2021 3:00:00 AM 24.85 76.73 0.23 7.67 4.29 6.05
7/14/2021 3:15:00 AM 24.84 76.712 0.229 7.7 4.83 6.4
7/14/2021 3:30:00 AM 24.84 76.712 0.229 7.72 4.67 6.46
7/14/2021 3:45:00 AM 24.84 76.712 0.229 7.73 4.62 6.43
7/14/2021 4:00:00 AM 24.84 76.712 0.229 7.71 4.72 6.43
7/14/2021 4:15:00 AM 24.83 76.694 0.229 7.7 4.46 6.36
7/14/2021 4:30:00 AM 24.83 76.694 0.229 7.7 4.54 6.31
7/14/2021 4:45:00 AM 24.82 76.676 0.229 7.7 4.19 6.3
7/14/2021 5:00:00 AM 24.83 76.694 0.229 7.69 4.1 6.24
7/14/2021 5:15:00 AM 24.82 76.676 0.23 7.7 4.22 6.2
7/14/2021 5:30:00 AM 24.78 76.604 0.229 7.7 4.21 6.22
7/14/2021 5:45:00 AM 24.61 76.298 0.229 7.69 4.36 6.2
7/14/2021 6:00:00 AM 24.21 75.578 0.229 7.69 4.56 6.2
7/14/2021 6:15:00 AM 23.53 74.354 0.229 7.69 4.55 6.19
7/14/2021 6:30:00 AM 23.11 73.598 0.229 7.68 4.43 6.17
7/14/2021 6:45:00 AM 22.82 73.076 0.228 7.68 4.44 6.17
7/14/2021 7:00:00 AM 22.63 72.734 0.228 7.69 4.46 6.16
7/14/2021 7:15:00 AM 22.5 72.5 0.228 7.69 4.32 6.15
7/14/2021 7:30:00 AM 22.4 72.32 0.227 7.69 4.4 6.14
7/14/2021 7:45:00 AM 22.32 72.176 0.227 7.69 4.42 6.14
7/14/2021 8:00:00 AM 22.26 72.068 0.227 7.69 4.63 6.12
7/14/2021 8:15:00 AM 22.21 71.978 0.226 7.69 4.42 6.11
7/14/2021 8:30:00 AM 22.17 71.906 0.227 7.7 4.71 6.1
7/14/2021 8:45:00 AM 22.15 71.87 0.226 7.7 4.86 6.08
7/14/2021 9:00:00 AM 22.12 71.816 0.225 7.69 4.85 6.06
7/14/2021 9:15:00 AM 22.1 71.78 0.223 7.69 5.26 6.05
7/14/2021 9:30:00 AM 22.09 71.762 0.224 7.69 5.66 6.02
7/14/2021 9:45:00 AM 22.08 71.744 0.224 7.69 5.24 6
7/14/2021 10:00:00 AM 22.07 71.726 0.223 7.69 5.33 5.98
7/14/2021 10:15:00 AM 22.07 71.726 0.224 7.69 5.1 5.92
7/14/2021 10:30:00 AM 22.08 71.744 0.224 7.7 5.23 5.92
7/14/2021 10:45:00 AM 22.09 71.762 0.224 7.7 4.83 5.9
7/14/2021 11:00:00 AM 22.09 71.762 0.224 7.69 5.92 5.97
7/14/2021 11:15:00 AM 22.1 71.78 0.223 7.68 5.88 5.92
7/14/2021 11:30:00 AM 22.12 71.816 0.222 7.68 5.28 5.89
7/14/2021 11:45:00 AM 22.13 71.834 0.223 7.68 5.36 5.87
7/14/2021 12:00:00 PM 22.15 71.87 0.221 7.68 5.14 5.88
7/14/2021 12:15:00 PM 22.17 71.906 0.223 7.68 5.55 5.84
7/14/2021 12:30:00 PM 22.19 71.942 0.221 7.68 5.52 5.83
7/14/2021 12:45:00 PM 22.21 71.978 0.221 7.67 5.78 5.79
7/14/2021 1:00:00 PM 22.22 71.996 0.222 7.68 6.58 5.76
7/14/2021 1:15:00 PM 22.25 72.05 0.221 7.68 6.18 5.79
7/14/2021 1:30:00 PM 22.28 72.104 0.22 7.68 7.28 5.79
7/14/2021 1:45:00 PM 22.3 72.14 0.22 7.68 6.69 5.75
7/14/2021 2:00:00 PM 22.33 72.194 0.22 7.68 6.25 5.73
7/14/2021 2:15:00 PM 22.36 72.248 0.219 7.68 8 5.76
7/14/2021 2:30:00 PM 22.37 72.266 0.219 7.67 6.71 5.79
7/14/2021 2:45:00 PM 22.39 72.302 0.219 7.67 7.05 5.75
7/14/2021 3:00:00 PM 22.41 72.338 0.219 7.67 6.98 5.72
7/14/2021 3:15:00 PM 22.42 72.356 0.219 7.67 6.95 5.71
7/14/2021 3:30:00 PM 22.43 72.374 0.219 7.68 6.83 5.71
7/14/2021 3:45:00 PM 22.43 72.374 0.219 7.68 7.27 5.71
7/14/2021 4:00:00 PM 22.44 72.392 0.219 7.68 6.81 5.69
7/14/2021 4:15:00 PM 22.44 72.392 0.219 7.68 6.9 5.67
7/14/2021 4:30:00 PM 22.44 72.392 0.219 7.68 6.68 5.66
7/14/2021 4:45:00 PM 22.44 72.392 0.219 7.68 6.7 5.64
7/14/2021 5:00:00 PM 22.45 72.41 0.219 7.69 6.59 5.64
7/14/2021 5:15:00 PM 22.45 72.41 0.219 7.68 6.69 5.61
7/14/2021 5:30:00 PM 22.45 72.41 0.219 7.67 6.69 5.61
7/14/2021 5:45:00 PM 22.45 72.41 0.219 7.67 6.7 5.61
7/14/2021 6:00:00 PM 22.45 72.41 0.219 7.68 6.66 5.59
7/14/2021 6:15:00 PM 22.45 72.41 0.219 7.68 6.74 5.57
7/14/2021 6:30:00 PM 22.45 72.41 0.219 7.68 6.6 5.55
7/14/2021 6:45:00 PM 22.45 72.41 0.219 7.69 6.64 5.54
7/14/2021 7:00:00 PM 22.45 72.41 0.219 7.69 6.52 5.51
7/14/2021 7:15:00 PM 22.45 72.41 0.219 7.68 6.68 5.51
7/14/2021 7:30:00 PM 22.45 72.41 0.219 7.67 6.62 5.5
7/14/2021 7:45:00 PM 22.45 72.41 0.219 7.67 6.55 5.47
7/14/2021 8:00:00 PM 22.45 72.41 0.219 7.67 6.55 5.44
7/14/2021 8:15:00 PM 22.45 72.41 0.219 7.67 6.75 5.44
7/14/2021 8:30:00 PM 22.45 72.41 0.219 7.68 6.34 5.43
7/14/2021 8:45:00 PM 22.45 72.41 0.219 7.67 6.55 5.42
7/14/2021 9:00:00 PM 22.46 72.42799 0.219 7.65 6.44 5.43
7/14/2021 9:15:00 PM 22.46 72.42799 0.219 7.67 6.63 5.4
7/14/2021 9:30:00 PM 22.46 72.42799 0.219 7.66 6.44 5.39
7/14/2021 9:45:00 PM 22.46 72.42799 0.219 7.67 6.59 5.35
7/14/2021 10:00:00 PM 22.46 72.42799 0.219 7.67 6.65 5.34
7/14/2021 10:15:00 PM 22.46 72.42799 0.219 7.68 6.47 5.33
7/14/2021 10:30:00 PM 22.46 72.42799 0.219 7.67 6.43 5.32
7/14/2021 10:45:00 PM 22.46 72.42799 0.219 7.67 6.47 5.33
7/14/2021 11:00:00 PM 22.46 72.42799 0.219 7.67 6.41 5.31
7/14/2021 11:15:00 PM 22.46 72.42799 0.219 7.67 6.62 5.28
7/14/2021 11:30:00 PM 22.46 72.42799 0.219 7.66 6.36 5.25
7/14/2021 11:45:00 PM 22.46 72.42799 0.219 7.66 6.48 5.23
7/15/2021 12:00:00 AM 22.47 72.446 0.219 7.66 6.38 5.2
7/15/2021 12:15:00 AM 22.47 72.446 0.219 7.67 6.5 5.19
7/15/2021 12:30:00 AM 22.46 72.42799 0.219 7.7 6.32 5.19
7/15/2021 12:45:00 AM 22.46 72.42799 0.219 7.68 6.35 5.16
7/15/2021 1:00:00 AM 22.46 72.42799 0.219 7.66 6.38 5.13
7/15/2021 1:15:00 AM 22.47 72.446 0.219 7.66 6.5 5.11
7/15/2021 1:30:00 AM 22.47 72.446 0.219 7.67 6.47 5.08
7/15/2021 1:45:00 AM 22.47 72.446 0.219 7.67 6.28 5.05
7/15/2021 2:00:00 AM 22.47 72.446 0.219 7.66 6.3 5.02
7/15/2021 2:15:00 AM 22.47 72.446 0.219 7.67 6.3 5.02
7/15/2021 2:30:00 AM 22.47 72.446 0.219 7.66 6.39 5.03
7/15/2021 2:45:00 AM 22.47 72.446 0.219 7.66 6.3 5.01
7/15/2021 3:00:00 AM 22.47 72.446 0.219 7.66 6.16 4.98
7/15/2021 3:15:00 AM 22.47 72.446 0.219 7.66 6.19 4.95
7/15/2021 3:30:00 AM 22.47 72.446 0.219 7.66 6.15 4.94
7/15/2021 3:45:00 AM 22.47 72.446 0.219 7.68 5.98 4.91
7/15/2021 4:00:00 AM 22.47 72.446 0.219 7.67 6.22 4.88
7/15/2021 4:15:00 AM 22.47 72.446 0.219 7.67 6.01 4.86
7/15/2021 4:30:00 AM 22.47 72.446 0.219 7.67 6.25 4.85
7/15/2021 4:45:00 AM 22.48 72.464 0.219 7.67 6.14 4.82
7/15/2021 5:00:00 AM 22.48 72.464 0.219 7.67 5.96 4.8
7/15/2021 5:15:00 AM 22.49 72.482 0.219 7.66 5.98 4.74
7/15/2021 5:30:00 AM 22.46 72.42799 0.219 7.66 6.53 4.77
7/15/2021 5:45:00 AM 22.42 72.356 0.217 7.65 6.68 4.89
7/15/2021 6:00:00 AM 22.37 72.266 0.218 7.65 6.58 4.81
7/15/2021 6:15:00 AM 22.34 72.212 0.218 7.65 6.28 4.8
7/15/2021 6:30:00 AM 22.33 72.194 0.218 7.65 6.33 4.8
7/15/2021 6:45:00 AM 22.32 72.176 0.219 7.65 6.39 4.8
7/15/2021 7:00:00 AM 22.31 72.158 0.218 7.65 6.91 4.85
7/15/2021 7:15:00 AM 22.31 72.158 0.217 7.66 7.42 4.84
7/15/2021 7:30:00 AM 22.32 72.176 0.216 7.66 6.78 4.84
7/15/2021 7:45:00 AM 22.32 72.176 0.217 7.66 6.79 4.81
7/15/2021 8:00:00 AM 22.33 72.194 0.217 7.66 6.27 4.8
7/15/2021 8:15:00 AM 22.34 72.212 0.218 7.66 6.19 4.72
7/15/2021 8:30:00 AM 22.36 72.248 0.215 7.65 6.71 4.7
7/15/2021 8:45:00 AM 22.37 72.266 0.216 7.65 6.52 4.77
7/15/2021 9:00:00 AM 22.39 72.302 0.215 7.65 7.07 4.8
7/15/2021 9:15:00 AM 22.41 72.338 0.215 7.64 6.24 4.8
7/15/2021 9:30:00 AM 22.44 72.392 0.215 7.64 6.85 4.84
7/15/2021 9:45:00 AM 22.47 72.446 0.214 7.64 7.51 4.91
7/15/2021 10:00:00 AM 22.5 72.5 0.212 7.64 7.31 4.94
7/15/2021 10:15:00 AM 22.53 72.554 0.21 7.64 8.19 5.05
7/15/2021 10:30:00 AM 22.56 72.608 0.206 7.63 9.04 5.11
7/15/2021 10:45:00 AM 22.59 72.662 0.206 7.63 10.21 5.16
7/15/2021 11:00:00 AM 22.62 72.716 0.205 7.63 9.2 5.22
7/15/2021 11:15:00 AM 22.67 72.806 0.196 7.63 10.51 5.43
7/15/2021 11:30:00 AM 22.72 72.896 0.198 7.63 12.09 5.48
7/15/2021 11:45:00 AM 22.76 72.968 0.194 7.64 11.49 5.61
7/15/2021 12:00:00 PM 22.79 73.022 0.195 7.64 11.28 5.63
7/15/2021 12:15:00 PM 22.81 73.058 0.194 7.64 11.26 5.66
7/15/2021 12:30:00 PM 22.84 73.112 0.193 7.62 11.9 5.75
7/15/2021 12:45:00 PM 22.88 73.184 0.185 7.64 13.71 6.08
7/15/2021 1:00:00 PM 22.91 73.238 0.186 7.63 17.99 6.07
7/15/2021 1:15:00 PM 22.95 73.31 0.18 7.64 13.78 6.14
7/15/2021 1:30:00 PM 22.98 73.364 0.18 7.64 14.9 6.14
7/15/2021 1:45:00 PM 23.01 73.418 0.185 7.64 15.85 6.22
7/15/2021 2:00:00 PM 23.03 73.454 0.184 7.64 15.34 6.34
7/15/2021 2:15:00 PM 23.05 73.49 0.183 7.64 15.12 6.35
7/15/2021 2:30:00 PM 23.06 73.508 0.182 7.64 14.34 6.44
7/15/2021 2:45:00 PM 23.06 73.508 0.184 7.65 14.13 6.38
7/15/2021 3:00:00 PM 23.06 73.508 0.181 7.64 14.07 6.35
7/15/2021 3:15:00 PM 23.06 73.508 0.18 7.65 16.66 6.52
7/15/2021 3:30:00 PM 23.06 73.508 0.177 7.64 16.55 6.49
7/15/2021 3:45:00 PM 23.06 73.508 0.18 7.64 14.14 6.43
7/15/2021 4:00:00 PM 23.06 73.508 0.181 7.64 13.41 6.39
7/15/2021 4:15:00 PM 23.06 73.508 0.179 7.64 12.99 6.44
7/15/2021 4:30:00 PM 23.06 73.508 0.182 7.64 13.16 6.36
7/15/2021 4:45:00 PM 23.06 73.508 0.181 7.64 13.06 6.36
7/15/2021 5:00:00 PM 23.06 73.508 0.183 7.63 12.61 6.35
7/15/2021 5:15:00 PM 23.06 73.508 0.183 7.64 12.16 6.29
7/15/2021 5:30:00 PM 23.06 73.508 0.183 7.63 11.86 6.24
7/15/2021 5:45:00 PM 23.06 73.508 0.181 7.64 11.91 6.26
7/15/2021 6:00:00 PM 23.06 73.508 0.182 7.64 11.69 6.22
7/15/2021 6:15:00 PM 23.05 73.49 0.18 7.63 11.76 6.24
7/15/2021 6:30:00 PM 23.05 73.49 0.18 7.64 12.08 6.23
7/15/2021 6:45:00 PM 23.05 73.49 0.179 7.64 12.06 6.24
7/15/2021 7:00:00 PM 23.05 73.49 0.179 7.62 11.99 6.26
7/15/2021 7:15:00 PM 23.05 73.49 0.179 7.62 11.85 6.2
7/15/2021 7:30:00 PM 23.05 73.49 0.178 7.63 11.73 6.21
7/15/2021 7:45:00 PM 23.05 73.49 0.179 7.64 11.72 6.18
7/15/2021 8:00:00 PM 23.05 73.49 0.178 7.62 11.42 6.16
7/15/2021 8:15:00 PM 23.04 73.472 0.179 7.62 11.4 6.16
7/15/2021 8:30:00 PM 23.04 73.472 0.179 7.62 11.51 6.14
7/15/2021 8:45:00 PM 23.04 73.472 0.179 7.63 11.21 6.14
7/15/2021 9:00:00 PM 23.04 73.472 0.179 7.61 11.07 6.11
7/15/2021 9:15:00 PM 23.04 73.472 0.178 7.62 11.22 6.09
7/15/2021 9:30:00 PM 23.04 73.472 0.179 7.61 10.92 6.08
7/15/2021 9:45:00 PM 23.03 73.454 0.178 7.61 10.87 6.07
7/15/2021 10:00:00 PM 23.03 73.454 0.177 7.61 11.19 6.08
7/15/2021 10:15:00 PM 23.03 73.454 0.177 7.61 10.8 6.04
7/15/2021 10:30:00 PM 23.03 73.454 0.177 7.6 10.76 6.04
7/15/2021 10:45:00 PM 23.03 73.454 0.178 7.61 10.77 6.01
7/15/2021 11:00:00 PM 23.02 73.436 0.179 7.6 10.74 6
7/15/2021 11:15:00 PM 23.02 73.436 0.176 7.61 11.01 5.98
7/15/2021 11:30:00 PM 23.02 73.436 0.178 7.6 10.88 5.95
7/15/2021 11:45:00 PM 23.02 73.436 0.178 7.6 10.41 5.93
7/16/2021 12:00:00 AM 23.02 73.436 0.176 7.6 10.53 5.9
7/16/2021 12:15:00 AM 23.01 73.418 0.176 7.6 10.54 5.88
7/16/2021 12:30:00 AM 23.01 73.418 0.177 7.59 10.38 5.86
7/16/2021 12:45:00 AM 23.01 73.418 0.176 7.58 10.31 5.85
7/16/2021 1:00:00 AM 23.01 73.418 0.177 7.6 10.27 5.84
7/16/2021 1:15:00 AM 23.01 73.418 0.177 7.59 10.1 5.83
7/16/2021 1:30:00 AM 23.01 73.418 0.177 7.59 10.33 5.81
7/16/2021 1:45:00 AM 23.01 73.418 0.177 7.59 10.25 5.78
7/16/2021 2:00:00 AM 23.01 73.418 0.177 7.59 10.22 5.77
7/16/2021 2:15:00 AM 23.01 73.418 0.177 7.59 10.4 5.76
7/16/2021 2:30:00 AM 23 73.4 0.177 7.59 9.94 5.76
7/16/2021 2:45:00 AM 23 73.4 0.177 7.58 10.06 5.75
7/16/2021 3:00:00 AM 23 73.4 0.176 7.57 10.22 5.71
7/16/2021 3:15:00 AM 23 73.4 0.176 7.58 10.05 5.71
7/16/2021 3:30:00 AM 23 73.4 0.176 7.57 9.89 5.69
7/16/2021 3:45:00 AM 23 73.4 0.176 7.58 9.89 5.68
7/16/2021 4:00:00 AM 22.99 73.382 0.177 7.57 10.18 5.66
7/16/2021 4:15:00 AM 22.99 73.382 0.176 7.57 10.03 5.65
7/16/2021 4:30:00 AM 22.99 73.382 0.175 7.58 9.82 5.64
7/16/2021 4:45:00 AM 22.99 73.382 0.176 7.58 9.92 5.61
7/16/2021 5:00:00 AM 23 73.4 0.178 7.58 9.68 5.52
7/16/2021 5:15:00 AM 23.01 73.418 0.18 7.59 9.48 5.54
7/16/2021 5:30:00 AM 22.96 73.328 0.177 7.57 10.37 5.63
7/16/2021 5:45:00 AM 22.88 73.184 0.176 7.57 10.56 5.66
7/16/2021 6:00:00 AM 22.82 73.076 0.177 7.59 10.45 5.64
7/16/2021 6:15:00 AM 22.76 72.968 0.177 7.58 10.16 5.67
7/16/2021 6:30:00 AM 22.72 72.896 0.177 7.57 10.28 5.69
7/16/2021 6:45:00 AM 22.69 72.842 0.176 7.58 10.36 5.71
7/16/2021 7:00:00 AM 22.67 72.806 0.177 7.59 10.04 5.73
7/16/2021 7:15:00 AM 22.65 72.77 0.176 7.59 9.84 5.79
7/16/2021 7:30:00 AM 22.64 72.752 0.176 7.59 9.4 5.78
7/16/2021 7:45:00 AM 22.63 72.734 0.174 7.6 9.54 5.81
7/16/2021 8:00:00 AM 22.64 72.752 0.174 7.59 9.68 5.8
7/16/2021 8:15:00 AM 22.65 72.77 0.177 7.59 9.17 5.7
7/16/2021 8:30:00 AM 22.67 72.806 0.173 7.59 9.33 5.75
7/16/2021 8:45:00 AM 22.7 72.86 0.172 7.59 9.44 5.92
7/16/2021 9:00:00 AM 22.72 72.896 0.172 7.58 9.49 5.92
7/16/2021 9:15:00 AM 22.75 72.95 0.173 7.59 10.01 5.84
7/16/2021 9:30:00 AM 22.78 73.004 0.174 7.59 9.48 5.84
7/16/2021 9:45:00 AM 22.81 73.058 0.174 7.59 9.47 5.82
7/16/2021 10:00:00 AM 22.85 73.13 0.173 7.59 9.47 5.88
7/16/2021 10:15:00 AM 22.9 73.22 0.171 7.59 9.38 5.93
7/16/2021 10:30:00 AM 22.96 73.328 0.168 7.61 10.6 6.34
7/16/2021 10:45:00 AM 23 73.4 0.169 7.6 10.11 6.29
7/16/2021 11:00:00 AM 23.03 73.454 0.168 7.6 12.19 6.29
7/16/2021 11:15:00 AM 23.08 73.544 0.166 7.61 10.38 6.43
7/16/2021 11:30:00 AM 23.12 73.616 0.165 7.6 10.54 6.35
7/16/2021 11:45:00 AM 23.15 73.67 0.166 7.61 10.53 6.38
7/16/2021 12:00:00 PM 23.2 73.76 0.165 7.61 10.47 6.31
7/16/2021 12:15:00 PM 23.24 73.832 0.165 7.61 10.07 6.44
7/16/2021 12:30:00 PM 23.29 73.922 0.165 7.62 10.21 6.38
7/16/2021 12:45:00 PM 23.33 73.994 0.163 7.61 10.35 6.39
7/16/2021 1:00:00 PM 23.37 74.066 0.164 7.61 10.77 6.46
7/16/2021 1:15:00 PM 23.4 74.12 0.165 7.61 9.9 6.47
7/16/2021 1:30:00 PM 23.47 74.246 0.164 7.6 9.55 6.52
7/16/2021 1:45:00 PM 23.52 74.336 0.164 7.61 10.45 6.5
7/16/2021 2:00:00 PM 23.57 74.426 0.164 7.61 9.48 6.54
7/16/2021 2:15:00 PM 23.64 74.552 0.163 7.61 10.37 6.64
7/16/2021 2:30:00 PM 23.68 74.624 0.162 7.62 9.8 6.6
7/16/2021 2:45:00 PM 23.71 74.67799 0.163 7.61 9.6 6.67
7/16/2021 3:00:00 PM 23.73 74.714 0.162 7.62 10.5 6.79
7/16/2021 3:15:00 PM 23.74 74.732 0.162 7.62 9.76 6.74
7/16/2021 3:30:00 PM 23.74 74.732 0.162 7.62 9.6 6.74
7/16/2021 3:45:00 PM 23.74 74.732 0.163 7.62 9.37 6.71
7/16/2021 4:00:00 PM 23.74 74.732 0.163 7.63 9.02 6.62
7/16/2021 4:15:00 PM 23.74 74.732 0.163 7.62 9.2 6.58
7/16/2021 4:30:00 PM 23.74 74.732 0.164 7.62 8.79 6.54
7/16/2021 4:45:00 PM 23.74 74.732 0.164 7.63 8.8 6.53
7/16/2021 5:00:00 PM 23.74 74.732 0.164 7.62 8.63 6.5
7/16/2021 5:15:00 PM 23.74 74.732 0.163 7.63 8.4 6.54
7/16/2021 5:30:00 PM 23.74 74.732 0.163 7.64 8.47 6.54
7/16/2021 5:45:00 PM 23.74 74.732 0.163 7.62 8.5 6.55
7/16/2021 6:00:00 PM 23.73 74.714 0.163 7.63 8.26 6.53
7/16/2021 6:15:00 PM 23.73 74.714 0.163 7.63 7.95 6.54
7/16/2021 6:30:00 PM 23.73 74.714 0.163 7.63 8.11 6.53
7/16/2021 6:45:00 PM 23.72 74.696 0.163 7.63 7.93 6.53
7/16/2021 7:00:00 PM 23.72 74.696 0.163 7.63 7.86 6.5
7/16/2021 7:15:00 PM 23.72 74.696 0.163 7.63 7.97 6.46
7/16/2021 7:30:00 PM 23.72 74.696 0.163 7.63 7.98 6.43
7/16/2021 7:45:00 PM 23.71 74.67799 0.163 7.62 7.91 6.42
7/16/2021 8:00:00 PM 23.71 74.67799 0.163 7.63 7.67 6.42
7/16/2021 8:15:00 PM 23.71 74.67799 0.163 7.63 7.85 6.4
7/16/2021 8:30:00 PM 23.7 74.66 0.163 7.63 7.74 6.38
7/16/2021 8:45:00 PM 23.7 74.66 0.163 7.63 7.62 6.37
7/16/2021 9:00:00 PM 23.69 74.642 0.163 7.62 7.43 6.35
7/16/2021 9:15:00 PM 23.69 74.642 0.163 7.65 7.43 6.36
7/16/2021 9:30:00 PM 23.69 74.642 0.163 7.62 7.38 6.34
7/16/2021 9:45:00 PM 23.68 74.624 0.163 7.61 7.24 6.31
7/16/2021 10:00:00 PM 23.68 74.624 0.163 7.61 7.16 6.3
7/16/2021 10:15:00 PM 23.68 74.624 0.163 7.61 7.19 6.29
7/16/2021 10:30:00 PM 23.68 74.624 0.163 7.61 7.25 6.28
7/16/2021 10:45:00 PM 23.67 74.606 0.163 7.63 7.2 6.25
7/16/2021 11:00:00 PM 23.67 74.606 0.163 7.62 7.06 6.23
7/16/2021 11:15:00 PM 23.67 74.606 0.163 7.61 6.97 6.21
7/16/2021 11:30:00 PM 23.66 74.588 0.163 7.62 6.99 6.22
7/16/2021 11:45:00 PM 23.66 74.588 0.163 7.62 7.25 6.17
7/17/2021 12:00:00 AM 23.66 74.588 0.163 7.62 7.46 6.18
7/17/2021 12:15:00 AM 23.66 74.588 0.163 7.62 6.97 6.15
7/17/2021 12:30:00 AM 23.65 74.57 0.163 7.61 6.68 6.14
7/17/2021 12:45:00 AM 23.65 74.57 0.163 7.62 6.77 6.14
7/17/2021 1:00:00 AM 23.65 74.57 0.163 7.59 6.95 6.13
7/17/2021 1:15:00 AM 23.65 74.57 0.163 7.6 6.89 6.09
7/17/2021 1:30:00 AM 23.64 74.552 0.163 7.61 6.96 6.1
7/17/2021 1:45:00 AM 23.64 74.552 0.163 7.62 7.08 6.07
7/17/2021 2:00:00 AM 23.64 74.552 0.164 7.61 6.81 6.08
7/17/2021 2:15:00 AM 23.64 74.552 0.163 7.61 6.7 6.06
7/17/2021 2:30:00 AM 23.63 74.534 0.163 7.62 6.73 6.02
7/17/2021 2:45:00 AM 23.63 74.534 0.164 7.61 6.69 6
7/17/2021 3:00:00 AM 23.63 74.534 0.164 7.6 6.82 5.99
7/17/2021 3:15:00 AM 23.63 74.534 0.164 7.61 6.79 5.99
7/17/2021 3:30:00 AM 23.62 74.516 0.164 7.62 6.63 5.99
7/17/2021 3:45:00 AM 23.62 74.516 0.164 7.62 6.56 5.97
7/17/2021 4:00:00 AM 23.62 74.516 0.164 7.61 6.67 5.95
7/17/2021 4:15:00 AM 23.62 74.516 0.164 7.59 7.65 5.88
7/17/2021 4:30:00 AM 23.6 74.48 0.164 7.58 7.53 5.88
7/17/2021 4:45:00 AM 23.54 74.372 0.164 7.58 7.13 5.85
7/17/2021 5:00:00 AM 23.46 74.228 0.163 7.58 7.24 5.87
7/17/2021 5:15:00 AM 23.4 74.12 0.163 7.57 7.39 5.89
7/17/2021 5:30:00 AM 23.34 74.012 0.163 7.56 7.16 5.9
7/17/2021 5:45:00 AM 23.3 73.94 0.163 7.57 7.61 5.96
7/17/2021 6:00:00 AM 23.25 73.85 0.163 7.57 7.26 5.93
7/17/2021 6:15:00 AM 23.23 73.814 0.163 7.57 7.17 5.86
7/17/2021 6:30:00 AM 23.21 73.778 0.163 7.57 7.13 5.84
7/17/2021 6:45:00 AM 23.2 73.76 0.163 7.59 7.11 5.81
7/17/2021 7:00:00 AM 23.2 73.76 0.163 7.57 6.72 5.78
7/17/2021 7:15:00 AM 23.2 73.76 0.163 7.58 7.02 5.74
7/17/2021 7:30:00 AM 23.2 73.76 0.163 7.58 6.84 5.73
7/17/2021 7:45:00 AM 23.2 73.76 0.164 7.59 6.77 5.67
7/17/2021 8:00:00 AM 23.21 73.778 0.164 7.58 6.56 5.7
7/17/2021 8:15:00 AM 23.22 73.796 0.163 7.58 6.73 5.71
7/17/2021 8:30:00 AM 23.22 73.796 0.163 7.56 7.18 5.8
7/17/2021 8:45:00 AM 23.24 73.832 0.163 7.56 6.9 5.78
7/17/2021 9:00:00 AM 23.24 73.832 0.163 7.56 6.94 5.73
7/17/2021 9:15:00 AM 23.25 73.85 0.163 7.56 6.68 5.72
7/17/2021 9:30:00 AM 23.27 73.886 0.163 7.57 6.8 5.76
7/17/2021 9:45:00 AM 23.29 73.922 0.163 7.57 6.83 5.77
7/17/2021 10:00:00 AM 23.31 73.958 0.163 7.56 6.77 5.73
7/17/2021 10:15:00 AM 23.33 73.994 0.163 7.57 7.12 5.71
7/17/2021 10:30:00 AM 23.37 74.066 0.163 7.57 7.15 5.79
7/17/2021 10:45:00 AM 23.41 74.138 0.163 7.57 7.5 5.79
7/17/2021 11:00:00 AM 23.47 74.246 0.163 7.57 7.31 5.78
7/17/2021 11:15:00 AM 23.53 74.354 0.163 7.58 7.66 5.86
7/17/2021 11:30:00 AM 23.6 74.48 0.164 7.58 8.1 5.91
7/17/2021 11:45:00 AM 23.67 74.606 0.164 7.59 8.16 6
7/17/2021 12:00:00 PM 23.76 74.768 0.164 7.57 8.64 6.05
7/17/2021 12:15:00 PM 23.82 74.876 0.164 7.6 8.49 6.24
7/17/2021 12:30:00 PM 23.86 74.948 0.164 7.6 8.47 6.15
7/17/2021 12:45:00 PM 23.89 75.002 0.164 7.6 8.61 6.22
7/17/2021 1:00:00 PM 23.91 75.038 0.164 7.61 8.42 6.27
7/17/2021 1:15:00 PM 23.93 75.074 0.164 7.61 8.6 6.23
7/17/2021 1:30:00 PM 23.94 75.092 0.164 7.6 7.95 6.24
7/17/2021 1:45:00 PM 23.94 75.092 0.164 7.61 7.86 6.2
7/17/2021 2:00:00 PM 23.95 75.11 0.164 7.61 7.97 6.15
7/17/2021 2:15:00 PM 23.95 75.11 0.164 7.61 7.75 6.09
7/17/2021 2:30:00 PM 23.95 75.11 0.164 7.63 7.63 6.05
7/17/2021 2:45:00 PM 23.95 75.11 0.164 7.62 7.71 6.03
7/17/2021 3:00:00 PM 23.95 75.11 0.164 7.62 7.68 6.02
7/17/2021 3:15:00 PM 23.95 75.11 0.164 7.61 7.16 6.01
7/17/2021 3:30:00 PM 23.95 75.11 0.164 7.61 7.66 5.96
7/17/2021 3:45:00 PM 23.94 75.092 0.164 7.62 7.42 5.96
7/17/2021 4:00:00 PM 23.94 75.092 0.164 7.61 7.3 5.95
7/17/2021 4:15:00 PM 23.94 75.092 0.164 7.61 7.31 5.95
7/17/2021 4:30:00 PM 23.93 75.074 0.164 7.62 7.35 5.93
7/17/2021 4:45:00 PM 23.93 75.074 0.165 7.62 7.36 5.94
7/17/2021 5:00:00 PM 23.93 75.074 0.165 7.63 7.31 5.95
7/17/2021 5:15:00 PM 23.92 75.056 0.165 7.62 7.44 5.95
7/17/2021 5:30:00 PM 23.92 75.056 0.164 7.62 7.3 5.97
7/17/2021 5:45:00 PM 23.92 75.056 0.165 7.62 7.21 5.93
7/17/2021 6:00:00 PM 23.91 75.038 0.165 7.63 7.4 5.9
7/17/2021 6:15:00 PM 23.91 75.038 0.165 7.61 7.19 5.89
7/17/2021 6:30:00 PM 23.91 75.038 0.165 7.64 7.01 5.88
7/17/2021 6:45:00 PM 23.9 75.02 0.165 7.62 7.03 5.87
7/17/2021 7:00:00 PM 23.9 75.02 0.165 7.62 6.99 5.86
7/17/2021 7:15:00 PM 23.9 75.02 0.165 7.62 7.04 5.85
7/17/2021 7:30:00 PM 23.9 75.02 0.165 7.63 7 5.86
7/17/2021 7:45:00 PM 23.89 75.002 0.165 7.62 6.94 5.83
7/17/2021 8:00:00 PM 23.89 75.002 0.165 7.62 7.06 5.84
7/17/2021 8:15:00 PM 23.89 75.002 0.165 7.62 6.92 5.86
7/17/2021 8:30:00 PM 23.88 74.984 0.165 7.62 6.94 5.82
7/17/2021 8:45:00 PM 23.88 74.984 0.165 7.61 6.77 5.8
7/17/2021 9:00:00 PM 23.88 74.984 0.165 7.63 6.88 5.8
7/17/2021 9:15:00 PM 23.87 74.966 0.165 7.63 6.86 5.78
7/17/2021 9:30:00 PM 23.87 74.966 0.165 7.62 6.91 5.75
7/17/2021 9:45:00 PM 23.87 74.966 0.165 7.63 6.72 5.76
7/17/2021 10:00:00 PM 23.87 74.966 0.165 7.62 6.86 5.73
7/17/2021 10:15:00 PM 23.86 74.948 0.165 7.61 6.76 5.7
7/17/2021 10:30:00 PM 23.86 74.948 0.165 7.63 6.65 5.72
7/17/2021 10:45:00 PM 23.86 74.948 0.165 7.63 6.75 5.67
7/17/2021 11:00:00 PM 23.85 74.93 0.165 7.62 6.82 5.67
7/17/2021 11:15:00 PM 23.85 74.93 0.165 7.62 6.6 5.67
7/17/2021 11:30:00 PM 23.85 74.93 0.165 7.62 6.72 5.69
7/17/2021 11:45:00 PM 23.84 74.912 0.165 7.62 6.7 5.64
7/18/2021 12:00:00 AM 23.84 74.912 0.165 7.6 6.5 5.63
7/18/2021 12:15:00 AM 23.84 74.912 0.165 7.61 6.62 5.62
7/18/2021 12:30:00 AM 23.84 74.912 0.165 7.62 6.71 5.6
7/18/2021 12:45:00 AM 23.83 74.894 0.165 7.62 6.51 5.59
7/18/2021 1:00:00 AM 23.83 74.894 0.165 7.62 6.49 5.57
7/18/2021 1:15:00 AM 23.83 74.894 0.165 7.62 6.53 5.57
7/18/2021 1:30:00 AM 23.82 74.876 0.165 7.62 6.34 5.59
7/18/2021 1:45:00 AM 23.82 74.876 0.165 7.62 6.36 5.57
7/18/2021 2:00:00 AM 23.82 74.876 0.165 7.62 6.32 5.54
7/18/2021 2:15:00 AM 23.82 74.876 0.165 7.61 6.39 5.55
7/18/2021 2:30:00 AM 23.81 74.858 0.165 7.62 6.34 5.51
7/18/2021 2:45:00 AM 23.81 74.858 0.165 7.61 6.26 5.51
7/18/2021 3:00:00 AM 23.81 74.858 0.165 7.61 6.37 5.51
7/18/2021 3:15:00 AM 23.81 74.858 0.165 7.6 6.33 5.49
7/18/2021 3:30:00 AM 23.8 74.84 0.165 7.6 6.42 5.49
7/18/2021 3:45:00 AM 23.8 74.84 0.165 7.61 6.21 5.47
7/18/2021 4:00:00 AM 23.8 74.84 0.165 7.61 6.14 5.46
7/18/2021 4:15:00 AM 23.79 74.82201 0.165 7.61 6.28 5.47
7/18/2021 4:30:00 AM 23.79 74.82201 0.165 7.6 6.14 5.34
7/18/2021 4:45:00 AM 23.76 74.768 0.165 7.6 6.26 5.33
7/18/2021 5:00:00 AM 23.75 74.75 0.165 7.56 7.1 5.36
7/18/2021 5:15:00 AM 23.76 74.768 0.165 7.47 8.6 5.39
7/18/2021 5:30:00 AM 23.76 74.768 0.166 7.44 8.46 5.37
7/18/2021 5:45:00 AM 23.77 74.786 0.166 7.42 9.05 5.35
7/18/2021 6:00:00 AM 23.77 74.786 0.166 7.39 9.05 5.25
7/18/2021 6:15:00 AM 23.76 74.768 0.166 7.38 9.72 5.23
7/18/2021 6:30:00 AM 23.76 74.768 0.166 7.37 9.07 5.27
7/18/2021 6:45:00 AM 23.76 74.768 0.167 7.38 9.15 5.24
7/18/2021 7:00:00 AM 23.76 74.768 0.167 7.36 9.04 5.18
7/18/2021 7:15:00 AM 23.75 74.75 0.167 7.36 8.25 5.05
7/18/2021 7:30:00 AM 23.75 74.75 0.167 7.35 8.66 5
7/18/2021 7:45:00 AM 23.74 74.732 0.167 7.36 8.3 4.92
7/18/2021 8:00:00 AM 23.73 74.714 0.167 7.35 9.13 4.96
7/18/2021 8:15:00 AM 23.72 74.696 0.167 7.34 8.9 5.16
7/18/2021 8:30:00 AM 23.72 74.696 0.168 7.33 8.92 4.96
7/18/2021 8:45:00 AM 23.71 74.67799 0.168 7.35 8.68 4.96
7/18/2021 9:00:00 AM 23.71 74.67799 0.168 7.34 8.61 4.79
7/18/2021 9:15:00 AM 23.71 74.67799 0.168 7.33 8.99 4.74
7/18/2021 9:30:00 AM 23.7 74.66 0.168 7.34 8.47 4.87
7/18/2021 9:45:00 AM 23.7 74.66 0.168 7.35 8.19 4.72
7/18/2021 10:00:00 AM 23.69 74.642 0.168 7.35 7.77 4.62
7/18/2021 10:15:00 AM 23.7 74.66 0.169 7.35 7.47 4.45
7/18/2021 10:30:00 AM 23.69 74.642 0.168 7.35 8.65 4.75
7/18/2021 10:45:00 AM 23.69 74.642 0.169 7.35 8.22 4.94
7/18/2021 11:00:00 AM 23.69 74.642 0.169 7.37 8.12 4.99
7/18/2021 11:15:00 AM 23.69 74.642 0.169 7.36 8.05 4.78
7/18/2021 11:30:00 AM 23.69 74.642 0.169 7.34 7.38 4.55
7/18/2021 11:45:00 AM 23.69 74.642 0.169 7.35 7.53 4.41
7/18/2021 12:00:00 PM 23.69 74.642 0.169 7.38 7.91 4.92
7/18/2021 12:15:00 PM 23.69 74.642 0.169 7.36 7.25 4.62
7/18/2021 12:30:00 PM 23.69 74.642 0.168 7.35 7.08 4.38
7/18/2021 12:45:00 PM 23.69 74.642 0.168 7.36 6.99 4.26
7/18/2021 1:00:00 PM 23.69 74.642 0.168 7.35 6.98 4.19
7/18/2021 1:15:00 PM 23.69 74.642 0.168 7.34 6.92 4.13
7/18/2021 1:30:00 PM 23.69 74.642 0.169 7.33 8.4 4.3
7/18/2021 1:45:00 PM 23.69 74.642 0.169 7.35 6.97 4.15
7/18/2021 2:00:00 PM 23.69 74.642 0.169 7.35 6.99 4.04
7/18/2021 2:15:00 PM 23.69 74.642 0.169 7.34 6.87 4.16
7/18/2021 2:30:00 PM 23.69 74.642 0.169 7.36 6.8 4.04
7/18/2021 2:45:00 PM 23.68 74.624 0.169 7.35 6.99 3.93
7/18/2021 3:00:00 PM 23.68 74.624 0.169 7.4 6.67 3.98
7/18/2021 3:15:00 PM 23.68 74.624 0.169 7.36 6.72 3.98
7/18/2021 3:30:00 PM 23.68 74.624 0.169 7.37 6.74 3.89
7/18/2021 3:45:00 PM 23.67 74.606 0.169 7.38 6.7 3.92
7/18/2021 4:00:00 PM 23.67 74.606 0.169 7.36 6.57 3.85
7/18/2021 4:15:00 PM 23.67 74.606 0.169 7.35 6.65 3.79
7/18/2021 4:30:00 PM 23.67 74.606 0.169 7.35 6.62 3.79
7/18/2021 4:45:00 PM 23.66 74.588 0.169 7.38 6.58 3.75
7/18/2021 5:00:00 PM 23.66 74.588 0.169 7.37 6.59 4.07
7/18/2021 5:15:00 PM 23.66 74.588 0.17 7.4 6.44 4.06
7/18/2021 5:30:00 PM 23.66 74.588 0.169 7.36 6.61 3.87
7/18/2021 5:45:00 PM 23.65 74.57 0.169 7.38 6.44 3.78
7/18/2021 6:00:00 PM 23.65 74.57 0.169 7.37 6.42 3.76
7/18/2021 6:15:00 PM 23.65 74.57 0.17 7.38 6.41 3.71
7/18/2021 6:30:00 PM 23.65 74.57 0.17 7.41 6.3 3.69
7/18/2021 6:45:00 PM 23.65 74.57 0.17 7.36 6.28 3.77
7/18/2021 7:00:00 PM 23.64 74.552 0.169 7.39 6.33 3.6
7/18/2021 7:15:00 PM 23.64 74.552 0.169 7.39 6.24 3.6
7/18/2021 7:30:00 PM 23.64 74.552 0.169 7.36 6.22 3.63
7/18/2021 7:45:00 PM 23.64 74.552 0.17 7.39 6.19 3.53
7/18/2021 8:00:00 PM 23.63 74.534 0.17 7.39 6.22 3.5
7/18/2021 8:15:00 PM 23.63 74.534 0.169 7.42 6.1 3.47
7/18/2021 8:30:00 PM 23.63 74.534 0.17 7.38 6.09 3.46
7/18/2021 8:45:00 PM 23.63 74.534 0.17 7.38 6.08 3.39
7/18/2021 9:00:00 PM 23.62 74.516 0.17 7.37 6.08 3.38
7/18/2021 9:15:00 PM 23.62 74.516 0.17 7.37 5.93 3.37
7/18/2021 9:30:00 PM 23.62 74.516 0.17 7.37 5.98 3.39
7/18/2021 9:45:00 PM 23.62 74.516 0.169 7.36 5.92 3.32
7/18/2021 10:00:00 PM 23.61 74.498 0.17 7.36 5.85 3.28
7/18/2021 10:15:00 PM 23.61 74.498 0.17 7.36 5.93 3.26
7/18/2021 10:30:00 PM 23.61 74.498 0.17 7.38 5.79 3.28
7/18/2021 10:45:00 PM 23.61 74.498 0.17 7.37 6.03 3.27
7/18/2021 11:00:00 PM 23.61 74.498 0.17 7.37 5.87 3.33
7/18/2021 11:15:00 PM 23.6 74.48 0.17 7.37 5.93 3.23
7/18/2021 11:30:00 PM 23.6 74.48 0.17 7.38 5.82 3.19
7/18/2021 11:45:00 PM 23.6 74.48 0.17 7.38 5.8 3.21
7/19/2021 12:00:00 AM 23.6 74.48 0.17 7.37 5.85 3.2
7/19/2021 12:15:00 AM 23.59 74.462 0.17 7.36 5.82 3.17
7/19/2021 12:30:00 AM 23.59 74.462 0.17 7.37 5.87 3.21
7/19/2021 12:45:00 AM 23.59 74.462 0.17 7.37 5.76 3.23
7/19/2021 1:00:00 AM 23.58 74.444 0.17 7.36 5.85 3.15
7/19/2021 1:15:00 AM 23.58 74.444 0.17 7.38 5.79 3.23
7/19/2021 1:30:00 AM 23.58 74.444 0.171 7.38 5.57 3.22
7/19/2021 1:45:00 AM 23.58 74.444 0.17 7.37 5.68 3.25
7/19/2021 2:00:00 AM 23.57 74.426 0.17 7.37 5.7 3.19
7/19/2021 2:15:00 AM 23.57 74.426 0.17 7.37 5.67 3.16
7/19/2021 2:30:00 AM 23.57 74.426 0.17 7.38 5.67 3.22
7/19/2021 2:45:00 AM 23.56 74.408 0.17 7.39 5.66 3.35
7/19/2021 3:00:00 AM 23.56 74.408 0.171 7.38 5.64 3.38
7/19/2021 3:15:00 AM 23.56 74.408 0.17 7.36 5.58 3.33
7/19/2021 3:30:00 AM 23.55 74.39 0.17 7.38 5.68 3.3
7/19/2021 3:45:00 AM 23.55 74.39 0.17 7.37 5.58 3.32
7/19/2021 4:00:00 AM 23.55 74.39 0.171 7.41 5.62 3.27
7/19/2021 4:15:00 AM 23.55 74.39 0.17 7.39 5.67 3.26
7/19/2021 4:30:00 AM 23.54 74.372 0.17 7.37 5.57 3.23
7/19/2021 4:45:00 AM 23.54 74.372 0.171 7.37 5.58 3.22
7/19/2021 5:00:00 AM 23.54 74.372 0.17 7.37 5.56 3.19
7/19/2021 5:15:00 AM 23.53 74.354 0.17 7.43 5.49 3.23
7/19/2021 5:30:00 AM 23.53 74.354 0.171 7.4 5.35 3.38
7/19/2021 5:45:00 AM 23.53 74.354 0.171 7.39 5.54 3.26
7/19/2021 6:00:00 AM 23.51 74.318 0.17 7.34 5.41 3.07
7/19/2021 6:15:00 AM 23.49 74.282 0.171 7.36 5.63 3.12
7/19/2021 6:30:00 AM 23.4 74.12 0.171 7.37 5.98 3.46
7/19/2021 6:45:00 AM 23.25 73.85 0.171 7.36 6.08 3.53
7/19/2021 7:00:00 AM 23.12 73.616 0.171 7.36 6.06 3.4
7/19/2021 7:15:00 AM 23.03 73.454 0.171 7.36 5.98 3.41
7/19/2021 7:30:00 AM 22.98 73.364 0.171 7.37 6.25 3.46
7/19/2021 7:45:00 AM 22.94 73.292 0.171 7.37 6.13 3.48
7/19/2021 8:00:00 AM 22.92 73.256 0.172 7.37 6.13 3.47
7/19/2021 8:15:00 AM 22.9 73.22 0.172 7.37 5.99 3.49
7/19/2021 8:30:00 AM 22.89 73.202 0.172 7.38 5.9 3.42
7/19/2021 8:45:00 AM 22.89 73.202 0.172 7.38 5.7 3.31
7/19/2021 9:00:00 AM 22.89 73.202 0.172 7.38 5.74 3.21
7/19/2021 9:15:00 AM 22.9 73.22 0.172 7.37 5.67 3.12
7/19/2021 9:30:00 AM 22.91 73.238 0.172 7.36 5.67 3.03
7/19/2021 9:45:00 AM 22.92 73.256 0.172 7.36 5.46 3
7/19/2021 10:00:00 AM 22.93 73.274 0.172 7.36 5.88 3.4
7/19/2021 10:15:00 AM 22.94 73.292 0.172 7.38 5.67 3.62
7/19/2021 10:30:00 AM 22.96 73.328 0.172 7.39 5.73 3.52
7/19/2021 10:45:00 AM 22.98 73.364 0.172 7.41 6.33 3.54
7/19/2021 11:00:00 AM 23 73.4 0.172 7.41 5.78 3.84
7/19/2021 11:15:00 AM 23.03 73.454 0.172 7.42 6.27 3.85
7/19/2021 11:30:00 AM 23.04 73.472 0.172 7.39 5.83 3.59
7/19/2021 11:45:00 AM 23.07 73.526 0.172 7.42 6.3 3.93
7/19/2021 12:00:00 PM 23.11 73.598 0.172 7.47 7.51 4.96
7/19/2021 12:15:00 PM 23.13 73.634 0.172 7.49 6.52 4.81
7/19/2021 12:30:00 PM 23.15 73.67 0.172 7.46 6.64 4.94
7/19/2021 12:45:00 PM 23.17 73.706 0.172 7.47 6.64 4.71
7/19/2021 1:00:00 PM 23.19 73.742 0.172 7.47 6.52 5.04
7/19/2021 1:15:00 PM 23.22 73.796 0.171 7.47 6.96 4.69
7/19/2021 1:30:00 PM 23.25 73.85 0.171 7.52 7.88 5.35
7/19/2021 1:45:00 PM 23.27 73.886 0.171 7.53 6.93 5.51
7/19/2021 2:00:00 PM 23.27 73.886 0.171 7.51 6.99 5.08
7/19/2021 2:15:00 PM 23.28 73.904 0.17 7.57 9.37 6.02
7/19/2021 2:30:00 PM 23.28 73.904 0.17 7.59 9.19 6.26
7/19/2021 2:45:00 PM 23.28 73.904 0.17 7.58 8.14 6.27
7/19/2021 3:00:00 PM 23.28 73.904 0.17 7.59 8.4 6.24
7/19/2021 3:15:00 PM 23.28 73.904 0.17 7.58 8.14 6.18
7/19/2021 3:30:00 PM 23.28 73.904 0.17 7.59 7.54 6.31
7/19/2021 3:45:00 PM 23.28 73.904 0.169 7.6 7.22 6.2
7/19/2021 4:00:00 PM 23.28 73.904 0.17 7.59 7.61 6.06
7/19/2021 4:15:00 PM 23.27 73.886 0.17 7.58 7.35 6.08
7/19/2021 4:30:00 PM 23.27 73.886 0.17 7.58 7.33 5.92
7/19/2021 4:45:00 PM 23.27 73.886 0.17 7.55 7.01 5.72
7/19/2021 5:00:00 PM 23.27 73.886 0.17 7.57 7.15 5.77
7/19/2021 5:15:00 PM 23.27 73.886 0.17 7.59 6.96 5.73
7/19/2021 5:30:00 PM 23.27 73.886 0.17 7.55 6.77 5.63
7/19/2021 5:45:00 PM 23.27 73.886 0.17 7.6 6.83 5.64
7/19/2021 6:00:00 PM 23.27 73.886 0.17 7.56 6.63 5.66
7/19/2021 6:15:00 PM 23.26 73.868 0.17 7.57 6.69 5.76
7/19/2021 6:30:00 PM 23.26 73.868 0.169 7.54 6.67 5.8
7/19/2021 6:45:00 PM 23.26 73.868 0.169 7.59 6.78 5.6
7/19/2021 7:00:00 PM 23.26 73.868 0.17 7.56 6.72 5.74
7/19/2021 7:15:00 PM 23.25 73.85 0.17 7.58 6.45 5.75
7/19/2021 7:30:00 PM 23.25 73.85 0.169 7.58 6.54 5.69
7/19/2021 7:45:00 PM 23.25 73.85 0.17 7.57 6.5 5.57
7/19/2021 8:00:00 PM 23.25 73.85 0.169 7.55 6.4 5.5
7/19/2021 8:15:00 PM 23.25 73.85 0.169 7.59 6.6 5.69
7/19/2021 8:30:00 PM 23.24 73.832 0.169 7.57 6.6 5.75
7/19/2021 8:45:00 PM 23.24 73.832 0.169 7.58 6.45 5.59
7/19/2021 9:00:00 PM 23.24 73.832 0.169 7.55 6.35 5.58
7/19/2021 9:15:00 PM 23.24 73.832 0.169 7.56 6.19 5.58
7/19/2021 9:30:00 PM 23.24 73.832 0.169 7.55 6.3 5.62
7/19/2021 9:45:00 PM 23.23 73.814 0.169 7.55 6.24 5.59
7/19/2021 10:00:00 PM 23.23 73.814 0.169 7.57 6.36 5.56
7/19/2021 10:15:00 PM 23.23 73.814 0.169 7.57 6.22 5.65
7/19/2021 10:30:00 PM 23.23 73.814 0.169 7.56 6.39 5.63
7/19/2021 10:45:00 PM 23.23 73.814 0.169 7.61 6.13 5.56
7/19/2021 11:00:00 PM 23.22 73.796 0.169 7.55 6.26 5.56
7/19/2021 11:15:00 PM 23.22 73.796 0.169 7.55 6.14 5.58
7/19/2021 11:30:00 PM 23.22 73.796 0.169 7.55 6.43 5.68
7/19/2021 11:45:00 PM 23.22 73.796 0.169 7.56 6.11 5.61
7/20/2021 12:00:00 AM 23.22 73.796 0.169 7.55 6.18 5.55
7/20/2021 12:15:00 AM 23.21 73.778 0.169 7.54 5.97 5.5
7/20/2021 12:30:00 AM 23.21 73.778 0.17 7.56 6.19 5.51
7/20/2021 12:45:00 AM 23.2 73.76 0.168 7.58 7.29 6.25
7/20/2021 1:00:00 AM 23.19 73.742 0.168 7.6 7.47 6.54
7/20/2021 1:15:00 AM 23.18 73.724 0.168 7.59 7.47 6.62
7/20/2021 1:30:00 AM 23.17 73.706 0.168 7.61 7.79 6.79
7/20/2021 1:45:00 AM 23.17 73.706 0.168 7.62 7.84 6.86
7/20/2021 2:00:00 AM 23.17 73.706 0.168 7.62 7.65 6.87
7/20/2021 2:15:00 AM 23.17 73.706 0.168 7.6 7.54 6.82
7/20/2021 2:30:00 AM 23.17 73.706 0.168 7.61 7.61 6.78
7/20/2021 2:45:00 AM 23.17 73.706 0.168 7.6 7.13 6.73
7/20/2021 3:00:00 AM 23.17 73.706 0.168 7.58 7.38 6.65
7/20/2021 3:15:00 AM 23.17 73.706 0.168 7.58 7.11 6.66
7/20/2021 3:30:00 AM 23.17 73.706 0.168 7.57 7.11 6.65
7/20/2021 3:45:00 AM 23.16 73.688 0.169 7.59 7.4 6.62
7/20/2021 4:00:00 AM 23.16 73.688 0.168 7.58 7.16 6.63
7/20/2021 4:15:00 AM 23.16 73.688 0.169 7.59 7.15 6.62
7/20/2021 4:30:00 AM 23.16 73.688 0.168 7.59 7.46 6.63
7/20/2021 4:45:00 AM 23.16 73.688 0.169 7.59 7.5 6.6
7/20/2021 5:00:00 AM 23.17 73.706 0.169 7.56 6.79 6.52
7/20/2021 5:15:00 AM 23.17 73.706 0.169 7.59 6.51 6.46
7/20/2021 5:30:00 AM 23.17 73.706 0.169 7.59 6.74 6.39
7/20/2021 5:45:00 AM 23.11 73.598 0.169 7.59 6.91 6.49
7/20/2021 6:00:00 AM 22.93 73.274 0.169 7.58 6.88 6.55
7/20/2021 6:15:00 AM 22.76 72.968 0.169 7.57 6.83 6.52
7/20/2021 6:30:00 AM 22.63 72.734 0.169 7.58 7.03 6.46
7/20/2021 6:45:00 AM 22.52 72.536 0.169 7.58 7.02 6.42
7/20/2021 7:00:00 AM 22.44 72.392 0.169 7.57 6.83 6.39
7/20/2021 7:15:00 AM 22.38 72.284 0.169 7.58 6.83 6.37
7/20/2021 7:30:00 AM 22.33 72.194 0.169 7.57 6.93 6.34
7/20/2021 7:45:00 AM 22.26 72.068 0.168 7.58 6.94 6.39
7/20/2021 8:00:00 AM 22.23 72.014 0.169 7.58 6.74 6.32
7/20/2021 8:15:00 AM 22.21 71.978 0.169 7.58 6.72 6.27
7/20/2021 8:30:00 AM 22.2 71.96 0.169 7.57 6.33 6.24
7/20/2021 8:45:00 AM 22.19 71.942 0.169 7.57 6.57 6.22
7/20/2021 9:00:00 AM 22.18 71.924 0.169 7.57 6.32 6.16
7/20/2021 9:15:00 AM 22.18 71.924 0.169 7.59 6.12 6.16
7/20/2021 9:30:00 AM 22.18 71.924 0.169 7.59 6.25 6.09
7/20/2021 9:45:00 AM 22.18 71.924 0.169 7.6 5.75 6.05
7/20/2021 10:00:00 AM 22.19 71.942 0.169 7.61 5.95 6.03
7/20/2021 10:15:00 AM 22.21 71.978 0.169 7.58 5.82 5.88
7/20/2021 10:30:00 AM 22.24 72.032 0.169 7.57 6.03 5.86
7/20/2021 10:45:00 AM 22.28 72.104 0.169 7.55 5.99 5.91
7/20/2021 11:00:00 AM 22.24 72.032 0.169 7.58 5.84 5.82
7/20/2021 11:15:00 AM 22.2 71.96 0.169 7.59 5.72 5.84
7/20/2021 11:30:00 AM 22.18 71.924 0.169 7.59 6.19 5.87
7/20/2021 11:45:00 AM 22.17 71.906 0.169 7.59 6.02 5.9
7/20/2021 12:00:00 PM 22.13 71.834 0.169 7.57 6.18 6.06
7/20/2021 12:15:00 PM 22.12 71.816 0.169 7.57 6.09 5.99
7/20/2021 12:30:00 PM 22.12 71.816 0.169 7.58 5.96 5.94
7/20/2021 12:45:00 PM 22.11 71.798 0.169 7.59 5.81 5.9
7/20/2021 1:00:00 PM 22.12 71.816 0.169 7.59 5.72 5.84
7/20/2021 1:15:00 PM 22.16 71.888 0.169 7.57 5.75 5.61
7/20/2021 1:30:00 PM 22.17 71.906 0.169 7.57 5.72 5.64
7/20/2021 1:45:00 PM 22.18 71.924 0.169 7.57 5.93 5.59
7/20/2021 2:00:00 PM 22.2 71.96 0.169 7.58 5.6 5.55
7/20/2021 2:15:00 PM 22.21 71.978 0.169 7.58 5.61 5.51
7/20/2021 2:30:00 PM 22.18 71.924 0.169 7.58 6.05 5.69
7/20/2021 2:45:00 PM 22.19 71.942 0.169 7.57 5.84 5.76
7/20/2021 3:00:00 PM 22.19 71.942 0.169 7.58 5.98 5.75
7/20/2021 3:15:00 PM 22.2 71.96 0.169 7.58 5.72 5.71
7/20/2021 3:30:00 PM 22.2 71.96 0.169 7.59 5.62 5.63
7/20/2021 3:45:00 PM 22.2 71.96 0.169 7.59 5.61 5.61
7/20/2021 4:00:00 PM 22.2 71.96 0.169 7.59 5.64 5.57
7/20/2021 4:15:00 PM 22.2 71.96 0.17 7.59 5.73 5.53
7/20/2021 4:30:00 PM 22.2 71.96 0.17 7.59 5.38 5.48
7/20/2021 4:45:00 PM 22.2 71.96 0.17 7.6 5.38 5.41
7/20/2021 5:00:00 PM 22.2 71.96 0.17 7.59 5.49 5.38
7/20/2021 5:15:00 PM 22.2 71.96 0.17 7.59 5.33 5.33
7/20/2021 5:30:00 PM 22.2 71.96 0.17 7.6 5.43 5.28
7/20/2021 5:45:00 PM 22.2 71.96 0.17 7.59 5.21 5.25
7/20/2021 6:00:00 PM 22.2 71.96 0.17 7.6 5.09 5.2
7/20/2021 6:15:00 PM 22.2 71.96 0.17 7.59 5.19 5.15
7/20/2021 6:30:00 PM 22.2 71.96 0.17 7.6 5.19 5.12
7/20/2021 6:45:00 PM 22.2 71.96 0.17 7.6 5.11 5.08
7/20/2021 7:00:00 PM 22.21 71.978 0.17 7.6 5.1 5.03
7/20/2021 7:15:00 PM 22.21 71.978 0.17 7.6 5.2 4.99
7/20/2021 7:30:00 PM 22.21 71.978 0.17 7.6 5.12 4.95
7/20/2021 7:45:00 PM 22.21 71.978 0.17 7.6 5.02 4.93
7/20/2021 8:00:00 PM 22.21 71.978 0.17 7.6 5.06 4.86
7/20/2021 8:15:00 PM 22.22 71.996 0.17 7.62 5.05 4.78
7/20/2021 8:30:00 PM 22.22 71.996 0.17 7.61 5.06 4.75
7/20/2021 8:45:00 PM 22.22 71.996 0.17 7.6 5.32 4.72
7/20/2021 9:00:00 PM 22.22 71.996 0.171 7.6 4.97 4.67
7/20/2021 9:15:00 PM 22.22 71.996 0.171 7.61 5.05 4.66
7/20/2021 9:30:00 PM 22.22 71.996 0.171 7.61 4.92 4.61
7/20/2021 9:45:00 PM 22.22 71.996 0.171 7.6 5.1 4.56
7/20/2021 10:00:00 PM 22.22 71.996 0.171 7.61 5.01 4.54
7/20/2021 10:15:00 PM 22.23 72.014 0.171 7.61 4.96 4.48
7/20/2021 10:30:00 PM 22.23 72.014 0.171 7.61 4.8 4.5
7/20/2021 10:45:00 PM 22.23 72.014 0.171 7.61 4.78 4.45
7/20/2021 11:00:00 PM 22.23 72.014 0.171 7.61 4.81 4.41
7/20/2021 11:15:00 PM 22.23 72.014 0.171 7.61 4.84 4.39
7/20/2021 11:30:00 PM 22.23 72.014 0.171 7.61 4.72 4.35
7/20/2021 11:45:00 PM 22.23 72.014 0.171 7.6 4.81 4.32
7/21/2021 12:00:00 AM 22.23 72.014 0.171 7.61 4.95 4.3
7/21/2021 12:15:00 AM 22.23 72.014 0.171 7.61 4.69 4.27
7/21/2021 12:30:00 AM 22.24 72.032 0.171 7.61 4.95 4.25
7/21/2021 12:45:00 AM 22.24 72.032 0.171 7.61 4.8 4.24
7/21/2021 1:00:00 AM 22.24 72.032 0.171 7.59 4.9 4.2
7/21/2021 1:15:00 AM 22.24 72.032 0.171 7.6 4.89 4.13
7/21/2021 1:30:00 AM 22.24 72.032 0.171 7.6 4.81 4.12
7/21/2021 1:45:00 AM 22.24 72.032 0.171 7.6 4.77 4.08
7/21/2021 2:00:00 AM 22.24 72.032 0.171 7.6 4.71 4.05
7/21/2021 2:15:00 AM 22.24 72.032 0.171 7.59 4.78 4.03
7/21/2021 2:30:00 AM 22.25 72.05 0.171 7.6 4.78 4.02
7/21/2021 2:45:00 AM 22.25 72.05 0.171 7.6 4.74 4.01
7/21/2021 3:00:00 AM 22.25 72.05 0.171 7.6 4.7 3.99
7/21/2021 3:15:00 AM 22.25 72.05 0.171 7.6 4.78 3.97
7/21/2021 3:30:00 AM 22.25 72.05 0.171 7.6 4.79 3.95
7/21/2021 3:45:00 AM 22.25 72.05 0.171 7.6 4.8 3.95
7/21/2021 4:00:00 AM 22.25 72.05 0.171 7.58 4.74 3.94
7/21/2021 4:15:00 AM 22.25 72.05 0.171 7.6 4.77 3.98
7/21/2021 4:30:00 AM 22.25 72.05 0.171 7.6 4.65 3.92
7/21/2021 4:45:00 AM 22.25 72.05 0.171 7.6 4.78 3.97
7/21/2021 5:00:00 AM 22.27 72.086 0.171 7.56 4.57 3.69
7/21/2021 5:15:00 AM 22.41 72.338 0.169 7.52 5.2 5.14
7/21/2021 5:30:00 AM 22.36 72.248 0.169 7.53 5.26 4.99
7/21/2021 5:45:00 AM 22.21 71.978 0.17 7.54 5.32 4.75
7/21/2021 6:00:00 AM 22.08 71.744 0.17 7.54 5.5 4.75
7/21/2021 6:15:00 AM 21.98 71.564 0.169 7.54 5.55 4.78
7/21/2021 6:30:00 AM 21.91 71.438 0.169 7.53 5.7 4.81
7/21/2021 6:45:00 AM 21.86 71.348 0.169 7.54 6.11 4.82
7/21/2021 7:00:00 AM 21.83 71.294 0.169 7.54 5.96 4.84
7/21/2021 7:15:00 AM 21.81 71.258 0.169 7.54 5.8 4.81
7/21/2021 7:30:00 AM 21.76 71.168 0.169 7.53 5.95 4.84
7/21/2021 7:45:00 AM 21.74 71.132 0.169 7.54 6.02 4.81
7/21/2021 8:00:00 AM 21.73 71.114 0.169 7.54 5.88 4.77
7/21/2021 8:15:00 AM 21.72 71.096 0.169 7.55 5.95 4.8
7/21/2021 8:30:00 AM 21.8 71.24 0.169 7.53 5.59 4.78
7/21/2021 8:45:00 AM 21.86 71.348 0.169 7.49 5.88 4.85
7/21/2021 9:00:00 AM 21.89 71.402 0.168 7.47 7.6 4.97
7/21/2021 9:15:00 AM 21.89 71.402 0.169 7.47 7.16 4.95
7/21/2021 9:30:00 AM 21.88 71.384 0.169 7.47 6.99 4.93
7/21/2021 9:45:00 AM 21.88 71.384 0.169 7.47 6.52 4.82
7/21/2021 10:00:00 AM 21.89 71.402 0.169 7.47 6.31 4.71
7/21/2021 10:15:00 AM 21.91 71.438 0.169 7.47 6.34 4.65
7/21/2021 10:30:00 AM 21.93 71.474 0.169 7.47 6.28 4.58
7/21/2021 10:45:00 AM 21.96 71.528 0.169 7.46 5.84 4.63
7/21/2021 11:00:00 AM 21.99 71.582 0.169 7.48 5.82 4.83
7/21/2021 11:15:00 AM 22.01 71.618 0.168 7.49 5.63 5.08
7/21/2021 11:30:00 AM 22.04 71.672 0.168 7.49 5.72 5.26
7/21/2021 11:45:00 AM 22.07 71.726 0.166 7.49 6.57 5.28
7/21/2021 12:00:00 PM 22.1 71.78 0.165 7.52 11.68 5.69
7/21/2021 12:15:00 PM 22.12 71.816 0.165 7.51 9.96 5.51
7/21/2021 12:30:00 PM 22.14 71.852 0.165 7.51 9.63 5.45
7/21/2021 12:45:00 PM 22.16 71.888 0.166 7.5 8.98 5.39
7/21/2021 1:00:00 PM 22.18 71.924 0.166 7.5 7.1 5.34
7/21/2021 1:15:00 PM 22.2 71.96 0.167 7.5 7.01 5.29
7/21/2021 1:30:00 PM 22.22 71.996 0.167 7.5 6.69 5.32
7/21/2021 1:45:00 PM 22.24 72.032 0.167 7.51 6.66 5.24
7/21/2021 2:00:00 PM 22.27 72.086 0.167 7.51 6.33 5.26
7/21/2021 2:15:00 PM 22.3 72.14 0.166 7.51 6.47 5.27
7/21/2021 2:30:00 PM 22.34 72.212 0.165 7.54 9.2 5.72
7/21/2021 2:45:00 PM 22.37 72.266 0.165 7.52 8.62 5.66
7/21/2021 3:00:00 PM 22.38 72.284 0.165 7.54 7.93 5.57
7/21/2021 3:15:00 PM 22.39 72.302 0.166 7.52 6.7 5.49
7/21/2021 3:30:00 PM 22.4 72.32 0.166 7.52 6.92 5.34
7/21/2021 3:45:00 PM 22.4 72.32 0.167 7.52 6.63 5.35
7/21/2021 4:00:00 PM 22.41 72.338 0.167 7.52 6.67 5.29
7/21/2021 4:15:00 PM 22.41 72.338 0.167 7.51 6.77 5.23
7/21/2021 4:30:00 PM 22.41 72.338 0.167 7.52 6.49 5.21
7/21/2021 4:45:00 PM 22.41 72.338 0.167 7.5 6.56 5.16
7/21/2021 5:00:00 PM 22.41 72.338 0.167 7.52 6.46 5.18
7/21/2021 5:15:00 PM 22.41 72.338 0.167 7.51 6.55 5.15
7/21/2021 5:30:00 PM 22.41 72.338 0.167 7.52 6.67 5.16
7/21/2021 5:45:00 PM 22.41 72.338 0.167 7.52 6.53 5.14
7/21/2021 6:00:00 PM 22.41 72.338 0.167 7.52 6.72 5.14
7/21/2021 6:15:00 PM 22.41 72.338 0.167 7.51 6.47 5.11
7/21/2021 6:30:00 PM 22.4 72.32 0.167 7.5 6.8 5.09
7/21/2021 6:45:00 PM 22.4 72.32 0.167 7.52 6.54 5.17
7/21/2021 7:00:00 PM 22.4 72.32 0.167 7.53 6.68 5.13
7/21/2021 7:15:00 PM 22.39 72.302 0.167 7.53 6.79 5.13
7/21/2021 7:30:00 PM 22.39 72.302 0.167 7.54 6.66 5.1
7/21/2021 7:45:00 PM 22.39 72.302 0.167 7.53 6.64 5.06
7/21/2021 8:00:00 PM 22.39 72.302 0.167 7.53 6.5 5.04
7/21/2021 8:15:00 PM 22.39 72.302 0.167 7.53 6.38 4.99
7/21/2021 8:30:00 PM 22.38 72.284 0.167 7.52 6.42 4.96
7/21/2021 8:45:00 PM 22.38 72.284 0.167 7.52 6.46 4.94
7/21/2021 9:00:00 PM 22.38 72.284 0.167 7.52 6.27 4.91
7/21/2021 9:15:00 PM 22.38 72.284 0.167 7.52 6.35 4.88
7/21/2021 9:30:00 PM 22.38 72.284 0.168 7.53 6.18 4.84
7/21/2021 9:45:00 PM 22.38 72.284 0.168 7.52 6.21 4.85
7/21/2021 10:00:00 PM 22.37 72.266 0.168 7.53 6.15 4.87
7/21/2021 10:15:00 PM 22.37 72.266 0.168 7.53 6.21 4.83
7/21/2021 10:30:00 PM 22.37 72.266 0.168 7.53 6.21 4.78
7/21/2021 10:45:00 PM 22.37 72.266 0.167 7.52 6.25 4.8
7/21/2021 11:00:00 PM 22.37 72.266 0.168 7.52 6.28 4.79
7/21/2021 11:15:00 PM 22.37 72.266 0.167 7.53 6.08 4.75
7/21/2021 11:30:00 PM 22.37 72.266 0.168 7.52 6.34 4.76
7/21/2021 11:45:00 PM 22.37 72.266 0.168 7.52 6.14 4.72
7/22/2021 12:00:00 AM 22.36 72.248 0.168 7.52 6.1 4.73
7/22/2021 12:15:00 AM 22.36 72.248 0.168 7.51 6.13 4.7
7/22/2021 12:30:00 AM 22.36 72.248 0.168 7.52 6.1 4.68
7/22/2021 12:45:00 AM 22.36 72.248 0.168 7.52 6.22 4.69
7/22/2021 1:00:00 AM 22.36 72.248 0.168 7.52 6.13 4.67
7/22/2021 1:15:00 AM 22.35 72.23 0.168 7.51 6.11 4.67
7/22/2021 1:30:00 AM 22.35 72.23 0.167 7.51 6.22 4.69
7/22/2021 1:45:00 AM 22.35 72.23 0.167 7.51 6.09 4.7
7/22/2021 2:00:00 AM 22.35 72.23 0.167 7.51 6.13 4.7
7/22/2021 2:15:00 AM 22.34 72.212 0.167 7.51 6.06 4.71
7/22/2021 2:30:00 AM 22.34 72.212 0.167 7.52 6.12 4.73
7/22/2021 2:45:00 AM 22.34 72.212 0.167 7.52 6.15 4.75
7/22/2021 3:00:00 AM 22.34 72.212 0.167 7.52 5.98 4.68
7/22/2021 3:15:00 AM 22.33 72.194 0.167 7.52 6.21 4.7
7/22/2021 3:30:00 AM 22.33 72.194 0.167 7.52 6.51 4.71
7/22/2021 3:45:00 AM 22.33 72.194 0.167 7.52 6.66 4.69
7/22/2021 4:00:00 AM 22.33 72.194 0.167 7.51 6.36 4.69
7/22/2021 4:15:00 AM 22.32 72.176 0.166 7.52 5.98 4.66
7/22/2021 4:30:00 AM 22.32 72.176 0.167 7.52 6.23 4.66
7/22/2021 4:45:00 AM 22.32 72.176 0.167 7.51 6.31 4.59
7/22/2021 5:00:00 AM 22.31 72.158 0.167 7.5 6.41 4.53
7/22/2021 5:15:00 AM 22.3 72.14 0.167 7.5 6.26 4.51
7/22/2021 5:30:00 AM 22.28 72.104 0.167 7.49 6.74 4.6
7/22/2021 5:45:00 AM 22.16 71.888 0.166 7.48 7.28 4.88
7/22/2021 6:00:00 AM 22.01 71.618 0.166 7.47 6.87 4.71
7/22/2021 6:15:00 AM 21.87 71.366 0.166 7.48 7.01 4.78
7/22/2021 6:30:00 AM 21.73 71.114 0.166 7.47 7.33 4.74
7/22/2021 6:45:00 AM 21.65 70.97 0.166 7.47 7.24 4.7
7/22/2021 7:00:00 AM 21.59 70.862 0.166 7.47 7.16 4.68
7/22/2021 7:15:00 AM 21.55 70.79 0.166 7.48 7.79 4.75
7/22/2021 7:30:00 AM 21.52 70.736 0.166 7.47 7.5 4.74
7/22/2021 7:45:00 AM 21.49 70.682 0.166 7.47 7.13 4.65
7/22/2021 8:00:00 AM 21.48 70.664 0.166 7.46 7.21 4.61
7/22/2021 8:15:00 AM 21.47 70.646 0.166 7.47 6.95 4.59
7/22/2021 8:30:00 AM 21.46 70.628 0.166 7.48 7.43 4.57
7/22/2021 8:45:00 AM 21.46 70.628 0.166 7.47 6.89 4.42
7/22/2021 9:00:00 AM 21.47 70.646 0.166 7.48 6.54 4.32
7/22/2021 9:15:00 AM 21.48 70.664 0.167 7.47 6.57 4.29
7/22/2021 9:30:00 AM 21.49 70.682 0.167 7.47 6.47 4.25
7/22/2021 9:45:00 AM 21.5 70.7 0.166 7.48 6.38 4.29
7/22/2021 10:00:00 AM 21.52 70.736 0.166 7.47 6.58 4.36
7/22/2021 10:15:00 AM 21.55 70.79 0.166 7.48 7.59 4.6
7/22/2021 10:30:00 AM 21.57 70.826 0.166 7.48 6.8 4.47
7/22/2021 10:45:00 AM 21.6 70.88 0.166 7.46 6.64 4.41
7/22/2021 11:00:00 AM 21.63 70.934 0.166 7.48 6.67 4.34
7/22/2021 11:15:00 AM 21.67 71.006 0.166 7.48 7.79 4.36
7/22/2021 11:30:00 AM 21.71 71.078 0.166 7.48 7.67 4.44
7/22/2021 11:45:00 AM 21.76 71.168 0.166 7.49 7.17 4.42
7/22/2021 12:00:00 PM 21.8 71.24 0.166 7.49 7.78 4.54
7/22/2021 12:15:00 PM 21.85 71.33 0.166 7.49 7.98 4.61
7/22/2021 12:30:00 PM 21.9 71.42 0.166 7.5 8.55 4.64
7/22/2021 12:45:00 PM 21.94 71.492 0.166 7.49 8.29 4.68
7/22/2021 1:00:00 PM 22.01 71.618 0.165 7.53 10.79 5.1
7/22/2021 1:15:00 PM 22.04 71.672 0.166 7.51 9.46 5.06
7/22/2021 1:30:00 PM 22.08 71.744 0.166 7.52 10.4 5.18
7/22/2021 1:45:00 PM 22.1 71.78 0.165 7.53 10.03 5.26
7/22/2021 2:00:00 PM 22.11 71.798 0.166 7.53 9.59 5.1
7/22/2021 2:15:00 PM 22.12 71.816 0.166 7.52 8.97 4.96
7/22/2021 2:30:00 PM 22.13 71.834 0.166 7.52 9.22 4.92
7/22/2021 2:45:00 PM 22.13 71.834 0.166 7.53 8.92 4.89
7/22/2021 3:00:00 PM 22.13 71.834 0.166 7.52 8.98 4.84
7/22/2021 3:15:00 PM 22.13 71.834 0.166 7.52 8.76 4.81
7/22/2021 3:30:00 PM 22.13 71.834 0.166 7.52 8.65 4.83
7/22/2021 3:45:00 PM 22.13 71.834 0.166 7.52 8.8 4.79
7/22/2021 4:00:00 PM 22.13 71.834 0.166 7.51 8.71 4.76
7/22/2021 4:15:00 PM 22.13 71.834 0.166 7.52 8.67 4.74
7/22/2021 4:30:00 PM 22.13 71.834 0.166 7.52 8.75 4.76
7/22/2021 4:45:00 PM 22.13 71.834 0.166 7.52 8.41 4.77
7/22/2021 5:00:00 PM 22.13 71.834 0.166 7.52 8.39 4.72
7/22/2021 5:15:00 PM 22.12 71.816 0.166 7.52 8.39 4.71
7/22/2021 5:30:00 PM 22.12 71.816 0.166 7.52 8.35 4.66
7/22/2021 5:45:00 PM 22.12 71.816 0.166 7.53 8.25 4.62
7/22/2021 6:00:00 PM 22.12 71.816 0.166 7.52 8.28 4.64
7/22/2021 6:15:00 PM 22.12 71.816 0.166 7.52 8.2 4.6
7/22/2021 6:30:00 PM 22.11 71.798 0.166 7.53 8.03 4.62
7/22/2021 6:45:00 PM 22.11 71.798 0.166 7.52 8.24 4.64
7/22/2021 7:00:00 PM 22.11 71.798 0.166 7.52 8.54 4.62
7/22/2021 7:15:00 PM 22.11 71.798 0.166 7.52 7.82 4.58
7/22/2021 7:30:00 PM 22.11 71.798 0.167 7.52 7.99 4.52
7/22/2021 7:45:00 PM 22.11 71.798 0.167 7.52 8.08 4.52
7/22/2021 8:00:00 PM 22.1 71.78 0.166 7.53 8.26 4.55
7/22/2021 8:15:00 PM 22.1 71.78 0.166 7.51 8.02 4.54
7/22/2021 8:30:00 PM 22.1 71.78 0.167 7.51 7.94 4.49
7/22/2021 8:45:00 PM 22.1 71.78 0.167 7.51 8.06 4.47
7/22/2021 9:00:00 PM 22.1 71.78 0.167 7.52 7.85 4.48
7/22/2021 9:15:00 PM 22.1 71.78 0.167 7.52 7.86 4.47
7/22/2021 9:30:00 PM 22.09 71.762 0.167 7.52 7.78 4.46
7/22/2021 9:45:00 PM 22.09 71.762 0.167 7.52 7.74 4.46
7/22/2021 10:00:00 PM 22.09 71.762 0.167 7.51 7.82 4.44
7/22/2021 10:15:00 PM 22.09 71.762 0.167 7.53 7.63 4.4
7/22/2021 10:30:00 PM 22.09 71.762 0.167 7.51 7.98 4.38
7/22/2021 10:45:00 PM 22.09 71.762 0.167 7.52 7.75 4.37
7/22/2021 11:00:00 PM 22.09 71.762 0.167 7.51 7.67 4.4
7/22/2021 11:15:00 PM 22.08 71.744 0.167 7.51 7.5 4.36
7/22/2021 11:30:00 PM 22.08 71.744 0.167 7.53 7.68 4.31
7/22/2021 11:45:00 PM 22.08 71.744 0.167 7.53 7.75 4.33
7/23/2021 12:00:00 AM 22.08 71.744 0.167 7.52 7.6 4.3
7/23/2021 12:15:00 AM 22.07 71.726 0.167 7.52 7.64 4.29
7/23/2021 12:30:00 AM 22.07 71.726 0.167 7.53 7.53 4.3
7/23/2021 12:45:00 AM 22.07 71.726 0.167 7.51 7.54 4.27
7/23/2021 1:00:00 AM 22.07 71.726 0.167 7.51 7.6 4.25
7/23/2021 1:15:00 AM 22.06 71.708 0.167 7.51 7.58 4.26
7/23/2021 1:30:00 AM 22.06 71.708 0.167 7.52 7.53 4.25
7/23/2021 1:45:00 AM 22.06 71.708 0.167 7.51 7.51 4.27
7/23/2021 2:00:00 AM 22.06 71.708 0.167 7.52 7.61 4.22
7/23/2021 2:15:00 AM 22.05 71.69 0.167 7.52 7.61 4.23
7/23/2021 2:30:00 AM 22.05 71.69 0.167 7.51 7.56 4.21
7/23/2021 2:45:00 AM 22.05 71.69 0.167 7.51 7.37 4.2
7/23/2021 3:00:00 AM 22.04 71.672 0.167 7.51 7.44 4.19
7/23/2021 3:15:00 AM 22.04 71.672 0.167 7.52 7.4 4.19
7/23/2021 3:30:00 AM 22.04 71.672 0.167 7.52 7.24 4.18
7/23/2021 3:45:00 AM 22.03 71.654 0.167 7.51 7.34 4.19
7/23/2021 4:00:00 AM 22.03 71.654 0.167 7.51 7.24 4.19
7/23/2021 4:15:00 AM 22.03 71.654 0.167 7.52 7.4 4.19
7/23/2021 4:30:00 AM 22.03 71.654 0.167 7.52 7.33 4.19
7/23/2021 4:45:00 AM 22.02 71.636 0.167 7.51 7.42 4.2
7/23/2021 5:00:00 AM 22.02 71.636 0.167 7.51 7.37 4.13
7/23/2021 5:15:00 AM 22.01 71.618 0.167 7.52 7.48 4.08
7/23/2021 5:30:00 AM 21.95 71.51 0.166 7.54 10.1 5.06
7/23/2021 5:45:00 AM 21.83 71.294 0.166 7.53 8.91 4.75
7/23/2021 6:00:00 AM 21.73 71.114 0.166 7.52 9.24 4.8
7/23/2021 6:15:00 AM 21.64 70.952 0.166 7.53 8.87 4.86
7/23/2021 6:30:00 AM 21.57 70.826 0.166 7.53 8.88 4.77
7/23/2021 6:45:00 AM 21.52 70.736 0.166 7.53 8.87 4.69
7/23/2021 7:00:00 AM 21.48 70.664 0.166 7.51 8.94 4.67
7/23/2021 7:15:00 AM 21.45 70.61 0.166 7.51 8.79 4.62
7/23/2021 7:30:00 AM 21.43 70.574 0.166 7.53 8.58 4.56
7/23/2021 7:45:00 AM 21.41 70.538 0.166 7.52 8.61 4.54
7/23/2021 8:00:00 AM 21.39 70.502 0.166 7.53 8.23 4.53
7/23/2021 8:15:00 AM 21.38 70.484 0.166 7.52 8.15 4.48
7/23/2021 8:30:00 AM 21.38 70.484 0.166 7.52 8.15 4.44
7/23/2021 8:45:00 AM 21.39 70.502 0.166 7.52 7.96 4.31
7/23/2021 9:00:00 AM 21.4 70.52 0.166 7.51 8.04 4.21
7/23/2021 9:15:00 AM 21.41 70.538 0.166 7.48 8.36 4.25
7/23/2021 9:30:00 AM 21.41 70.538 0.166 7.48 8.81 4.26
7/23/2021 9:45:00 AM 21.42 70.556 0.166 7.49 8.79 4.3
7/23/2021 10:00:00 AM 21.43 70.574 0.166 7.49 8.47 4.36
7/23/2021 10:15:00 AM 21.45 70.61 0.166 7.49 8.41 4.21
7/23/2021 10:30:00 AM 21.46 70.628 0.166 7.49 8.35 4.12
7/23/2021 10:45:00 AM 21.48 70.664 0.166 7.48 8.56 4.14
7/23/2021 11:00:00 AM 21.5 70.7 0.166 7.48 8.13 4.05